<?xml version="1.0" encoding="utf-8"?><gpx xmlns:xsd="http://www.w3.org/2001/XMLSchema" xmlns:xsi="http://www.w3.org/2001/XMLSchema-instance" xmlns="http://www.topografix.com/GPX/1/1" version="1.1"><metadata><link href="http://www.satmap.com"><text>Satmap</text></link><time>2020-02-20T10:58:20.4681833+00:00</time></metadata><trk><name>Walk No. 16 Langsett to Howden Edge</name><src>http://www.satmap.com</src><link href="https://admin.xpedition2.com/handlers/data.ashx?track=141e2719-d1f6-4d35-a447-a99f198cb255"><text>Satmap</text></link><type/><trkseg><trkpt lat="53.500237" lon="-1.683465"><ele>264.01998901</ele><time>2015-05-25T08:11:02Z</time></trkpt><trkpt lat="53.500237" lon="-1.683459"><ele>264.01998901</ele><time>2015-05-25T08:11:20Z</time></trkpt><trkpt lat="53.500237" lon="-1.683455"><ele>264.01998901</ele><time>2015-05-25T08:11:45Z</time></trkpt><trkpt lat="53.500220" lon="-1.683467"><ele>263.54000854</ele><time>2015-05-25T08:12:13Z</time></trkpt><trkpt lat="53.500220" lon="-1.683464"><ele>263.54000854</ele><time>2015-05-25T08:12:40Z</time></trkpt><trkpt lat="53.500219" lon="-1.683462"><ele>264.01998901</ele><time>2015-05-25T08:12:57Z</time></trkpt><trkpt lat="53.500214" lon="-1.683475"><ele>264.01998901</ele><time>2015-05-25T08:13:23Z</time></trkpt><trkpt lat="53.500220" lon="-1.683446"><ele>264.98001099</ele><time>2015-05-25T08:13:50Z</time></trkpt><trkpt lat="53.500229" lon="-1.683435"><ele>265.45999146</ele><time>2015-05-25T08:14:08Z</time></trkpt><trkpt lat="53.500229" lon="-1.683431"><ele>265.94000244</ele><time>2015-05-25T08:14:16Z</time></trkpt><trkpt lat="53.500132" lon="-1.683526"><ele>272.67001343</ele><time>2015-05-25T08:14:31Z</time></trkpt><trkpt lat="53.500090" lon="-1.683626"><ele>276.51998901</ele><time>2015-05-25T08:14:42Z</time></trkpt><trkpt lat="53.500086" lon="-1.683639"><ele>276.51998901</ele><time>2015-05-25T08:14:43Z</time></trkpt><trkpt lat="53.500082" lon="-1.683671"><ele>277</ele><time>2015-05-25T08:14:45Z</time></trkpt><trkpt lat="53.500043" lon="-1.683801"><ele>278.44000244</ele><time>2015-05-25T08:14:57Z</time></trkpt><trkpt lat="53.499964" lon="-1.683864"><ele>285.17001343</ele><time>2015-05-25T08:15:11Z</time></trkpt><trkpt lat="53.499881" lon="-1.683942"><ele>289.01000977</ele><time>2015-05-25T08:15:23Z</time></trkpt><trkpt lat="53.499857" lon="-1.683958"><ele>288.04998779</ele><time>2015-05-25T08:15:47Z</time></trkpt><trkpt lat="53.499808" lon="-1.683993"><ele>288.52999878</ele><time>2015-05-25T08:15:59Z</time></trkpt><trkpt lat="53.499769" lon="-1.684034"><ele>289.97000122</ele><time>2015-05-25T08:16:03Z</time></trkpt><trkpt lat="53.499685" lon="-1.684233"><ele>291.8999939</ele><time>2015-05-25T08:16:17Z</time></trkpt><trkpt lat="53.499644" lon="-1.684270"><ele>289.48999023</ele><time>2015-05-25T08:16:37Z</time></trkpt><trkpt lat="53.499616" lon="-1.684315"><ele>289.01000977</ele><time>2015-05-25T08:16:44Z</time></trkpt><trkpt lat="53.499575" lon="-1.684433"><ele>290.45999146</ele><time>2015-05-25T08:16:53Z</time></trkpt><trkpt lat="53.499418" lon="-1.684590"><ele>292.85998535</ele><time>2015-05-25T08:17:05Z</time></trkpt><trkpt lat="53.499276" lon="-1.684720"><ele>295.73999023</ele><time>2015-05-25T08:17:16Z</time></trkpt><trkpt lat="53.499117" lon="-1.684867"><ele>300.54998779</ele><time>2015-05-25T08:17:29Z</time></trkpt><trkpt lat="53.499004" lon="-1.684940"><ele>310.16000366</ele><time>2015-05-25T08:17:41Z</time></trkpt><trkpt lat="53.498977" lon="-1.685018"><ele>311.11999512</ele><time>2015-05-25T08:17:56Z</time></trkpt><trkpt lat="53.498924" lon="-1.685089"><ele>309.67999268</ele><time>2015-05-25T08:18:16Z</time></trkpt><trkpt lat="53.498848" lon="-1.685234"><ele>320.26000977</ele><time>2015-05-25T08:18:30Z</time></trkpt><trkpt lat="53.498841" lon="-1.685265"><ele>323.61999512</ele><time>2015-05-25T08:18:34Z</time></trkpt><trkpt lat="53.498769" lon="-1.685433"><ele>324.1000061</ele><time>2015-05-25T08:18:48Z</time></trkpt><trkpt lat="53.498703" lon="-1.685672"><ele>324.57998657</ele><time>2015-05-25T08:19:02Z</time></trkpt><trkpt lat="53.498698" lon="-1.685689"><ele>324.57998657</ele><time>2015-05-25T08:19:03Z</time></trkpt><trkpt lat="53.498682" lon="-1.685952"><ele>325.05999756</ele><time>2015-05-25T08:19:15Z</time></trkpt><trkpt lat="53.498579" lon="-1.686163"><ele>325.54000854</ele><time>2015-05-25T08:19:28Z</time></trkpt><trkpt lat="53.498559" lon="-1.686225"><ele>325.54000854</ele><time>2015-05-25T08:19:32Z</time></trkpt><trkpt lat="53.498536" lon="-1.686499"><ele>325.54000854</ele><time>2015-05-25T08:19:45Z</time></trkpt><trkpt lat="53.498535" lon="-1.686621"><ele>325.54000854</ele><time>2015-05-25T08:19:51Z</time></trkpt><trkpt lat="53.498539" lon="-1.686789"><ele>326.01998901</ele><time>2015-05-25T08:20:01Z</time></trkpt><trkpt lat="53.498500" lon="-1.686853"><ele>326.01998901</ele><time>2015-05-25T08:20:07Z</time></trkpt><trkpt lat="53.498507" lon="-1.686991"><ele>326.5</ele><time>2015-05-25T08:20:12Z</time></trkpt><trkpt lat="53.498466" lon="-1.687342"><ele>324.57998657</ele><time>2015-05-25T08:20:26Z</time></trkpt><trkpt lat="53.498455" lon="-1.687368"><ele>324.57998657</ele><time>2015-05-25T08:20:27Z</time></trkpt><trkpt lat="53.498456" lon="-1.687458"><ele>324.1000061</ele><time>2015-05-25T08:20:30Z</time></trkpt><trkpt lat="53.498398" lon="-1.687746"><ele>323.61999512</ele><time>2015-05-25T08:20:44Z</time></trkpt><trkpt lat="53.498422" lon="-1.687999"><ele>324.57998657</ele><time>2015-05-25T08:20:55Z</time></trkpt><trkpt lat="53.498445" lon="-1.688158"><ele>324.1000061</ele><time>2015-05-25T08:21:05Z</time></trkpt><trkpt lat="53.498487" lon="-1.688407"><ele>326.01998901</ele><time>2015-05-25T08:21:17Z</time></trkpt><trkpt lat="53.498451" lon="-1.688437"><ele>326.01998901</ele><time>2015-05-25T08:21:18Z</time></trkpt><trkpt lat="53.498372" lon="-1.688550"><ele>325.54000854</ele><time>2015-05-25T08:21:21Z</time></trkpt><trkpt lat="53.498359" lon="-1.688696"><ele>325.05999756</ele><time>2015-05-25T08:21:27Z</time></trkpt><trkpt lat="53.498324" lon="-1.688858"><ele>325.05999756</ele><time>2015-05-25T08:21:32Z</time></trkpt><trkpt lat="53.498270" lon="-1.689127"><ele>324.1000061</ele><time>2015-05-25T08:21:42Z</time></trkpt><trkpt lat="53.498161" lon="-1.689279"><ele>323.14001465</ele><time>2015-05-25T08:21:47Z</time></trkpt><trkpt lat="53.498159" lon="-1.689505"><ele>325.05999756</ele><time>2015-05-25T08:21:58Z</time></trkpt><trkpt lat="53.498166" lon="-1.689641"><ele>326.01998901</ele><time>2015-05-25T08:22:06Z</time></trkpt><trkpt lat="53.498184" lon="-1.689743"><ele>326.98999023</ele><time>2015-05-25T08:22:14Z</time></trkpt><trkpt lat="53.498243" lon="-1.689992"><ele>331.79000854</ele><time>2015-05-25T08:22:26Z</time></trkpt><trkpt lat="53.498280" lon="-1.690173"><ele>338.04000854</ele><time>2015-05-25T08:22:37Z</time></trkpt><trkpt lat="53.498335" lon="-1.690378"><ele>342.8500061</ele><time>2015-05-25T08:22:49Z</time></trkpt><trkpt lat="53.498387" lon="-1.690504"><ele>344.76998901</ele><time>2015-05-25T08:23:01Z</time></trkpt><trkpt lat="53.498450" lon="-1.690735"><ele>347.6499939</ele><time>2015-05-25T08:23:12Z</time></trkpt><trkpt lat="53.498399" lon="-1.690923"><ele>355.33999634</ele><time>2015-05-25T08:23:26Z</time></trkpt><trkpt lat="53.498419" lon="-1.691044"><ele>358.70999146</ele><time>2015-05-25T08:23:34Z</time></trkpt><trkpt lat="53.498440" lon="-1.691149"><ele>359.67001343</ele><time>2015-05-25T08:23:39Z</time></trkpt><trkpt lat="53.498488" lon="-1.691235"><ele>360.1499939</ele><time>2015-05-25T08:23:43Z</time></trkpt><trkpt lat="53.498501" lon="-1.691500"><ele>361.58999634</ele><time>2015-05-25T08:23:57Z</time></trkpt><trkpt lat="53.498506" lon="-1.691620"><ele>362.54998779</ele><time>2015-05-25T08:24:07Z</time></trkpt><trkpt lat="53.498539" lon="-1.691838"><ele>365.44000244</ele><time>2015-05-25T08:24:18Z</time></trkpt><trkpt lat="53.498538" lon="-1.692004"><ele>366.3999939</ele><time>2015-05-25T08:24:26Z</time></trkpt><trkpt lat="53.498529" lon="-1.692100"><ele>366.88000488</ele><time>2015-05-25T08:24:38Z</time></trkpt><trkpt lat="53.498567" lon="-1.692323"><ele>370.73001099</ele><time>2015-05-25T08:24:50Z</time></trkpt><trkpt lat="53.498633" lon="-1.692560"><ele>373.60998535</ele><time>2015-05-25T08:25:03Z</time></trkpt><trkpt lat="53.498638" lon="-1.692655"><ele>374.08999634</ele><time>2015-05-25T08:25:08Z</time></trkpt><trkpt lat="53.498721" lon="-1.692944"><ele>375.04998779</ele><time>2015-05-25T08:25:22Z</time></trkpt><trkpt lat="53.498771" lon="-1.693103"><ele>375.52999878</ele><time>2015-05-25T08:25:34Z</time></trkpt><trkpt lat="53.498852" lon="-1.693345"><ele>377.45001221</ele><time>2015-05-25T08:25:46Z</time></trkpt><trkpt lat="53.498863" lon="-1.693495"><ele>377.94000244</ele><time>2015-05-25T08:25:56Z</time></trkpt><trkpt lat="53.498915" lon="-1.693682"><ele>379.85998535</ele><time>2015-05-25T08:26:06Z</time></trkpt><trkpt lat="53.498977" lon="-1.693894"><ele>381.77999878</ele><time>2015-05-25T08:26:17Z</time></trkpt><trkpt lat="53.498983" lon="-1.693916"><ele>382.26000977</ele><time>2015-05-25T08:26:18Z</time></trkpt><trkpt lat="53.499020" lon="-1.694091"><ele>383.70001221</ele><time>2015-05-25T08:26:29Z</time></trkpt><trkpt lat="53.499060" lon="-1.694229"><ele>384.66000366</ele><time>2015-05-25T08:26:34Z</time></trkpt><trkpt lat="53.499111" lon="-1.694492"><ele>385.63000488</ele><time>2015-05-25T08:26:47Z</time></trkpt><trkpt lat="53.499151" lon="-1.694670"><ele>385.63000488</ele><time>2015-05-25T08:26:57Z</time></trkpt><trkpt lat="53.499215" lon="-1.694882"><ele>385.63000488</ele><time>2015-05-25T08:27:11Z</time></trkpt><trkpt lat="53.499270" lon="-1.694982"><ele>387.07000732</ele><time>2015-05-25T08:27:16Z</time></trkpt><trkpt lat="53.499391" lon="-1.695188"><ele>388.02999878</ele><time>2015-05-25T08:27:30Z</time></trkpt><trkpt lat="53.499485" lon="-1.695324"><ele>387.07000732</ele><time>2015-05-25T08:27:39Z</time></trkpt><trkpt lat="53.499493" lon="-1.695343"><ele>387.07000732</ele><time>2015-05-25T08:27:40Z</time></trkpt><trkpt lat="53.499501" lon="-1.695382"><ele>387.07000732</ele><time>2015-05-25T08:27:42Z</time></trkpt><trkpt lat="53.499508" lon="-1.695418"><ele>387.07000732</ele><time>2015-05-25T08:27:44Z</time></trkpt><trkpt lat="53.499671" lon="-1.695675"><ele>388.02999878</ele><time>2015-05-25T08:27:58Z</time></trkpt><trkpt lat="53.499815" lon="-1.695839"><ele>387.07000732</ele><time>2015-05-25T08:28:11Z</time></trkpt><trkpt lat="53.499836" lon="-1.695866"><ele>386.58999634</ele><time>2015-05-25T08:28:14Z</time></trkpt><trkpt lat="53.499860" lon="-1.695927"><ele>386.58999634</ele><time>2015-05-25T08:28:17Z</time></trkpt><trkpt lat="53.499974" lon="-1.696120"><ele>386.58999634</ele><time>2015-05-25T08:28:29Z</time></trkpt><trkpt lat="53.499994" lon="-1.696140"><ele>386.58999634</ele><time>2015-05-25T08:28:31Z</time></trkpt><trkpt lat="53.500086" lon="-1.696296"><ele>386.58999634</ele><time>2015-05-25T08:28:42Z</time></trkpt><trkpt lat="53.500092" lon="-1.696333"><ele>386.58999634</ele><time>2015-05-25T08:28:45Z</time></trkpt><trkpt lat="53.500150" lon="-1.696448"><ele>387.54998779</ele><time>2015-05-25T08:28:51Z</time></trkpt><trkpt lat="53.500162" lon="-1.696583"><ele>388.02999878</ele><time>2015-05-25T08:29:00Z</time></trkpt><trkpt lat="53.500273" lon="-1.696773"><ele>389.47000122</ele><time>2015-05-25T08:29:13Z</time></trkpt><trkpt lat="53.500307" lon="-1.696866"><ele>390.42999268</ele><time>2015-05-25T08:29:20Z</time></trkpt><trkpt lat="53.500374" lon="-1.697005"><ele>390.42999268</ele><time>2015-05-25T08:29:29Z</time></trkpt><trkpt lat="53.500503" lon="-1.697241"><ele>390.91000366</ele><time>2015-05-25T08:29:42Z</time></trkpt><trkpt lat="53.500627" lon="-1.697478"><ele>390.42999268</ele><time>2015-05-25T08:29:56Z</time></trkpt><trkpt lat="53.500690" lon="-1.697576"><ele>390.91000366</ele><time>2015-05-25T08:30:04Z</time></trkpt><trkpt lat="53.500808" lon="-1.697808"><ele>391.39001465</ele><time>2015-05-25T08:30:17Z</time></trkpt><trkpt lat="53.500899" lon="-1.697937"><ele>391.86999512</ele><time>2015-05-25T08:30:28Z</time></trkpt><trkpt lat="53.501016" lon="-1.698104"><ele>392.83999634</ele><time>2015-05-25T08:30:41Z</time></trkpt><trkpt lat="53.501110" lon="-1.698262"><ele>392.35998535</ele><time>2015-05-25T08:30:54Z</time></trkpt><trkpt lat="53.501178" lon="-1.698484"><ele>393.32000732</ele><time>2015-05-25T08:31:07Z</time></trkpt><trkpt lat="53.501273" lon="-1.698688"><ele>393.32000732</ele><time>2015-05-25T08:31:18Z</time></trkpt><trkpt lat="53.501329" lon="-1.698880"><ele>393.79998779</ele><time>2015-05-25T08:31:28Z</time></trkpt><trkpt lat="53.501349" lon="-1.699092"><ele>394.76000977</ele><time>2015-05-25T08:31:40Z</time></trkpt><trkpt lat="53.501408" lon="-1.699269"><ele>394.76000977</ele><time>2015-05-25T08:31:53Z</time></trkpt><trkpt lat="53.501478" lon="-1.699401"><ele>394.76000977</ele><time>2015-05-25T08:32:04Z</time></trkpt><trkpt lat="53.501525" lon="-1.699513"><ele>398.6000061</ele><time>2015-05-25T08:32:14Z</time></trkpt><trkpt lat="53.501545" lon="-1.699664"><ele>402.92999268</ele><time>2015-05-25T08:32:26Z</time></trkpt><trkpt lat="53.501548" lon="-1.699707"><ele>403.41000366</ele><time>2015-05-25T08:32:30Z</time></trkpt><trkpt lat="53.501599" lon="-1.699877"><ele>405.32998657</ele><time>2015-05-25T08:32:39Z</time></trkpt><trkpt lat="53.501690" lon="-1.700366"><ele>406.76998901</ele><time>2015-05-25T08:32:56Z</time></trkpt><trkpt lat="53.501710" lon="-1.700440"><ele>406.76998901</ele><time>2015-05-25T08:33:05Z</time></trkpt><trkpt lat="53.501728" lon="-1.700470"><ele>404.36999512</ele><time>2015-05-25T08:33:08Z</time></trkpt><trkpt lat="53.501846" lon="-1.700749"><ele>390.91000366</ele><time>2015-05-25T08:33:19Z</time></trkpt><trkpt lat="53.501852" lon="-1.700850"><ele>388.98999023</ele><time>2015-05-25T08:33:23Z</time></trkpt><trkpt lat="53.501853" lon="-1.700931"><ele>386.10998535</ele><time>2015-05-25T08:33:27Z</time></trkpt><trkpt lat="53.501868" lon="-1.701161"><ele>381.29998779</ele><time>2015-05-25T08:33:36Z</time></trkpt><trkpt lat="53.501889" lon="-1.701436"><ele>377.45001221</ele><time>2015-05-25T08:33:48Z</time></trkpt><trkpt lat="53.501894" lon="-1.701533"><ele>377.45001221</ele><time>2015-05-25T08:33:52Z</time></trkpt><trkpt lat="53.501906" lon="-1.701773"><ele>372.6499939</ele><time>2015-05-25T08:34:05Z</time></trkpt><trkpt lat="53.501926" lon="-1.701894"><ele>369.76000977</ele><time>2015-05-25T08:34:11Z</time></trkpt><trkpt lat="53.501944" lon="-1.702170"><ele>365.44000244</ele><time>2015-05-25T08:34:23Z</time></trkpt><trkpt lat="53.501945" lon="-1.702306"><ele>362.54998779</ele><time>2015-05-25T08:34:29Z</time></trkpt><trkpt lat="53.502077" lon="-1.702517"><ele>336.6000061</ele><time>2015-05-25T08:34:42Z</time></trkpt><trkpt lat="53.502201" lon="-1.702657"><ele>313.52999878</ele><time>2015-05-25T08:34:58Z</time></trkpt><trkpt lat="53.502215" lon="-1.702701"><ele>310.16000366</ele><time>2015-05-25T08:35:09Z</time></trkpt><trkpt lat="53.502237" lon="-1.702777"><ele>303.91000366</ele><time>2015-05-25T08:35:23Z</time></trkpt><trkpt lat="53.502233" lon="-1.702826"><ele>302.95001221</ele><time>2015-05-25T08:35:27Z</time></trkpt><trkpt lat="53.502223" lon="-1.702905"><ele>301.51000977</ele><time>2015-05-25T08:35:34Z</time></trkpt><trkpt lat="53.502215" lon="-1.702929"><ele>301.02999878</ele><time>2015-05-25T08:35:36Z</time></trkpt><trkpt lat="53.502227" lon="-1.703027"><ele>299.58999634</ele><time>2015-05-25T08:35:48Z</time></trkpt><trkpt lat="53.502250" lon="-1.703092"><ele>298.1499939</ele><time>2015-05-25T08:36:04Z</time></trkpt><trkpt lat="53.502249" lon="-1.703126"><ele>293.82000732</ele><time>2015-05-25T08:36:24Z</time></trkpt><trkpt lat="53.502230" lon="-1.703196"><ele>293.82000732</ele><time>2015-05-25T08:36:35Z</time></trkpt><trkpt lat="53.502134" lon="-1.703232"><ele>295.73999023</ele><time>2015-05-25T08:36:50Z</time></trkpt><trkpt lat="53.502050" lon="-1.703240"><ele>293.82000732</ele><time>2015-05-25T08:36:56Z</time></trkpt><trkpt lat="53.501926" lon="-1.703217"><ele>290.45999146</ele><time>2015-05-25T08:37:09Z</time></trkpt><trkpt lat="53.501829" lon="-1.703232"><ele>287.08999634</ele><time>2015-05-25T08:37:22Z</time></trkpt><trkpt lat="53.501800" lon="-1.703238"><ele>285.17001343</ele><time>2015-05-25T08:37:40Z</time></trkpt><trkpt lat="53.501756" lon="-1.703281"><ele>283.25</ele><time>2015-05-25T08:37:57Z</time></trkpt><trkpt lat="53.501726" lon="-1.703312"><ele>278.44000244</ele><time>2015-05-25T08:38:26Z</time></trkpt><trkpt lat="53.501657" lon="-1.703332"><ele>271.70999146</ele><time>2015-05-25T08:38:41Z</time></trkpt><trkpt lat="53.501633" lon="-1.703308"><ele>267.85998535</ele><time>2015-05-25T08:39:02Z</time></trkpt><trkpt lat="53.501574" lon="-1.703210"><ele>267.85998535</ele><time>2015-05-25T08:39:16Z</time></trkpt><trkpt lat="53.501548" lon="-1.703116"><ele>267.38000488</ele><time>2015-05-25T08:39:28Z</time></trkpt><trkpt lat="53.501468" lon="-1.702858"><ele>266.8999939</ele><time>2015-05-25T08:39:43Z</time></trkpt><trkpt lat="53.501401" lon="-1.702578"><ele>264.5</ele><time>2015-05-25T08:39:59Z</time></trkpt><trkpt lat="53.501382" lon="-1.702449"><ele>264.5</ele><time>2015-05-25T08:40:06Z</time></trkpt><trkpt lat="53.501396" lon="-1.702376"><ele>263.54000854</ele><time>2015-05-25T08:40:23Z</time></trkpt><trkpt lat="53.501407" lon="-1.702326"><ele>262.1000061</ele><time>2015-05-25T08:40:44Z</time></trkpt><trkpt lat="53.501357" lon="-1.702148"><ele>263.05999756</ele><time>2015-05-25T08:40:55Z</time></trkpt><trkpt lat="53.501325" lon="-1.702019"><ele>263.05999756</ele><time>2015-05-25T08:41:02Z</time></trkpt><trkpt lat="53.501277" lon="-1.701809"><ele>264.5</ele><time>2015-05-25T08:41:16Z</time></trkpt><trkpt lat="53.501213" lon="-1.701624"><ele>266.8999939</ele><time>2015-05-25T08:41:29Z</time></trkpt><trkpt lat="53.501207" lon="-1.701607"><ele>267.38000488</ele><time>2015-05-25T08:41:30Z</time></trkpt><trkpt lat="53.501190" lon="-1.701568"><ele>267.38000488</ele><time>2015-05-25T08:41:33Z</time></trkpt><trkpt lat="53.501143" lon="-1.701540"><ele>266.8999939</ele><time>2015-05-25T08:41:40Z</time></trkpt><trkpt lat="53.501049" lon="-1.701561"><ele>267.85998535</ele><time>2015-05-25T08:41:52Z</time></trkpt><trkpt lat="53.500975" lon="-1.701590"><ele>270.26998901</ele><time>2015-05-25T08:42:04Z</time></trkpt><trkpt lat="53.500862" lon="-1.701615"><ele>272.67001343</ele><time>2015-05-25T08:42:17Z</time></trkpt><trkpt lat="53.500866" lon="-1.701755"><ele>273.1499939</ele><time>2015-05-25T08:42:30Z</time></trkpt><trkpt lat="53.500877" lon="-1.701881"><ele>275.07000732</ele><time>2015-05-25T08:42:41Z</time></trkpt><trkpt lat="53.500881" lon="-1.701953"><ele>276.04000854</ele><time>2015-05-25T08:42:46Z</time></trkpt><trkpt lat="53.500886" lon="-1.701990"><ele>276.04000854</ele><time>2015-05-25T08:42:48Z</time></trkpt><trkpt lat="53.500894" lon="-1.702204"><ele>277.95999146</ele><time>2015-05-25T08:43:03Z</time></trkpt><trkpt lat="53.500901" lon="-1.702360"><ele>278.92001343</ele><time>2015-05-25T08:43:13Z</time></trkpt><trkpt lat="53.500901" lon="-1.702557"><ele>280.35998535</ele><time>2015-05-25T08:43:27Z</time></trkpt><trkpt lat="53.500872" lon="-1.702715"><ele>284.20999146</ele><time>2015-05-25T08:43:40Z</time></trkpt><trkpt lat="53.500814" lon="-1.702779"><ele>285.6499939</ele><time>2015-05-25T08:43:48Z</time></trkpt><trkpt lat="53.500747" lon="-1.702749"><ele>286.60998535</ele><time>2015-05-25T08:43:56Z</time></trkpt><trkpt lat="53.500605" lon="-1.702755"><ele>287.57000732</ele><time>2015-05-25T08:44:12Z</time></trkpt><trkpt lat="53.500531" lon="-1.702737"><ele>289.48999023</ele><time>2015-05-25T08:44:21Z</time></trkpt><trkpt lat="53.500437" lon="-1.702730"><ele>291.42001343</ele><time>2015-05-25T08:44:32Z</time></trkpt><trkpt lat="53.500322" lon="-1.702734"><ele>292.85998535</ele><time>2015-05-25T08:44:43Z</time></trkpt><trkpt lat="53.500300" lon="-1.702726"><ele>293.33999634</ele><time>2015-05-25T08:44:45Z</time></trkpt><trkpt lat="53.500181" lon="-1.702704"><ele>294.29998779</ele><time>2015-05-25T08:44:56Z</time></trkpt><trkpt lat="53.500017" lon="-1.702685"><ele>295.26000977</ele><time>2015-05-25T08:45:11Z</time></trkpt><trkpt lat="53.499907" lon="-1.702682"><ele>295.73999023</ele><time>2015-05-25T08:45:21Z</time></trkpt><trkpt lat="53.499853" lon="-1.702691"><ele>296.22000122</ele><time>2015-05-25T08:45:26Z</time></trkpt><trkpt lat="53.499694" lon="-1.702700"><ele>297.67001343</ele><time>2015-05-25T08:45:40Z</time></trkpt><trkpt lat="53.499669" lon="-1.702702"><ele>297.67001343</ele><time>2015-05-25T08:45:42Z</time></trkpt><trkpt lat="53.499487" lon="-1.702690"><ele>299.58999634</ele><time>2015-05-25T08:45:58Z</time></trkpt><trkpt lat="53.499340" lon="-1.702727"><ele>300.07000732</ele><time>2015-05-25T08:46:11Z</time></trkpt><trkpt lat="53.499284" lon="-1.702756"><ele>301.02999878</ele><time>2015-05-25T08:46:16Z</time></trkpt><trkpt lat="53.499196" lon="-1.702790"><ele>301.51000977</ele><time>2015-05-25T08:46:24Z</time></trkpt><trkpt lat="53.499035" lon="-1.702832"><ele>302.95001221</ele><time>2015-05-25T08:46:39Z</time></trkpt><trkpt lat="53.498902" lon="-1.702882"><ele>303.42999268</ele><time>2015-05-25T08:46:52Z</time></trkpt><trkpt lat="53.498882" lon="-1.702917"><ele>303.42999268</ele><time>2015-05-25T08:46:55Z</time></trkpt><trkpt lat="53.498771" lon="-1.702984"><ele>304.88000488</ele><time>2015-05-25T08:47:06Z</time></trkpt><trkpt lat="53.498639" lon="-1.703047"><ele>306.79998779</ele><time>2015-05-25T08:47:19Z</time></trkpt><trkpt lat="53.498574" lon="-1.703073"><ele>308.72000122</ele><time>2015-05-25T08:47:31Z</time></trkpt><trkpt lat="53.498436" lon="-1.703136"><ele>310.64001465</ele><time>2015-05-25T08:47:44Z</time></trkpt><trkpt lat="53.498286" lon="-1.703152"><ele>311.6000061</ele><time>2015-05-25T08:47:58Z</time></trkpt><trkpt lat="53.498133" lon="-1.703145"><ele>312.57000732</ele><time>2015-05-25T08:48:12Z</time></trkpt><trkpt lat="53.498027" lon="-1.703186"><ele>314.01000977</ele><time>2015-05-25T08:48:23Z</time></trkpt><trkpt lat="53.497865" lon="-1.703223"><ele>315.92999268</ele><time>2015-05-25T08:48:39Z</time></trkpt><trkpt lat="53.497730" lon="-1.703237"><ele>318.32998657</ele><time>2015-05-25T08:48:53Z</time></trkpt><trkpt lat="53.497569" lon="-1.703227"><ele>319.77999878</ele><time>2015-05-25T08:49:08Z</time></trkpt><trkpt lat="53.497442" lon="-1.703267"><ele>321.70001221</ele><time>2015-05-25T08:49:21Z</time></trkpt><trkpt lat="53.497338" lon="-1.703315"><ele>322.66000366</ele><time>2015-05-25T08:49:33Z</time></trkpt><trkpt lat="53.497279" lon="-1.703345"><ele>323.14001465</ele><time>2015-05-25T08:49:39Z</time></trkpt><trkpt lat="53.497127" lon="-1.703366"><ele>324.1000061</ele><time>2015-05-25T08:49:53Z</time></trkpt><trkpt lat="53.496972" lon="-1.703350"><ele>326.01998901</ele><time>2015-05-25T08:50:08Z</time></trkpt><trkpt lat="53.496828" lon="-1.703405"><ele>326.98999023</ele><time>2015-05-25T08:50:22Z</time></trkpt><trkpt lat="53.496765" lon="-1.703438"><ele>327.47000122</ele><time>2015-05-25T08:50:36Z</time></trkpt><trkpt lat="53.496659" lon="-1.703516"><ele>328.42999268</ele><time>2015-05-25T08:50:48Z</time></trkpt><trkpt lat="53.496532" lon="-1.703546"><ele>329.39001465</ele><time>2015-05-25T08:51:01Z</time></trkpt><trkpt lat="53.496384" lon="-1.703595"><ele>329.86999512</ele><time>2015-05-25T08:51:15Z</time></trkpt><trkpt lat="53.496226" lon="-1.703659"><ele>330.3500061</ele><time>2015-05-25T08:51:29Z</time></trkpt><trkpt lat="53.496096" lon="-1.703766"><ele>331.30999756</ele><time>2015-05-25T08:51:42Z</time></trkpt><trkpt lat="53.495959" lon="-1.703908"><ele>332.75</ele><time>2015-05-25T08:51:56Z</time></trkpt><trkpt lat="53.495840" lon="-1.704064"><ele>335.16000366</ele><time>2015-05-25T08:52:10Z</time></trkpt><trkpt lat="53.495681" lon="-1.704221"><ele>337.07998657</ele><time>2015-05-25T08:52:26Z</time></trkpt><trkpt lat="53.495535" lon="-1.704374"><ele>339</ele><time>2015-05-25T08:52:42Z</time></trkpt><trkpt lat="53.495392" lon="-1.704515"><ele>339.48001099</ele><time>2015-05-25T08:52:57Z</time></trkpt><trkpt lat="53.495292" lon="-1.704603"><ele>339.95999146</ele><time>2015-05-25T08:53:07Z</time></trkpt><trkpt lat="53.495234" lon="-1.704649"><ele>340.44000244</ele><time>2015-05-25T08:53:13Z</time></trkpt><trkpt lat="53.495170" lon="-1.704706"><ele>340.92001343</ele><time>2015-05-25T08:53:19Z</time></trkpt><trkpt lat="53.495019" lon="-1.704885"><ele>341.41000366</ele><time>2015-05-25T08:53:36Z</time></trkpt><trkpt lat="53.494884" lon="-1.705071"><ele>341.41000366</ele><time>2015-05-25T08:53:51Z</time></trkpt><trkpt lat="53.494751" lon="-1.705250"><ele>342.36999512</ele><time>2015-05-25T08:54:06Z</time></trkpt><trkpt lat="53.494631" lon="-1.705409"><ele>343.32998657</ele><time>2015-05-25T08:54:20Z</time></trkpt><trkpt lat="53.494499" lon="-1.705566"><ele>344.29000854</ele><time>2015-05-25T08:54:34Z</time></trkpt><trkpt lat="53.494368" lon="-1.705749"><ele>345.25</ele><time>2015-05-25T08:54:49Z</time></trkpt><trkpt lat="53.494239" lon="-1.705905"><ele>346.20999146</ele><time>2015-05-25T08:55:03Z</time></trkpt><trkpt lat="53.494140" lon="-1.706025"><ele>346.20999146</ele><time>2015-05-25T08:55:13Z</time></trkpt><trkpt lat="53.494062" lon="-1.706123"><ele>346.20999146</ele><time>2015-05-25T08:55:21Z</time></trkpt><trkpt lat="53.493901" lon="-1.706316"><ele>346.20999146</ele><time>2015-05-25T08:55:37Z</time></trkpt><trkpt lat="53.493723" lon="-1.706519"><ele>345.73001099</ele><time>2015-05-25T08:55:54Z</time></trkpt><trkpt lat="53.493658" lon="-1.706615"><ele>345.73001099</ele><time>2015-05-25T08:56:01Z</time></trkpt><trkpt lat="53.493605" lon="-1.706660"><ele>345.25</ele><time>2015-05-25T08:56:06Z</time></trkpt><trkpt lat="53.493412" lon="-1.706913"><ele>344.76998901</ele><time>2015-05-25T08:56:25Z</time></trkpt><trkpt lat="53.493230" lon="-1.707108"><ele>343.32998657</ele><time>2015-05-25T08:56:42Z</time></trkpt><trkpt lat="53.493049" lon="-1.707212"><ele>343.80999756</ele><time>2015-05-25T08:56:58Z</time></trkpt><trkpt lat="53.493039" lon="-1.707232"><ele>343.32998657</ele><time>2015-05-25T08:57:00Z</time></trkpt><trkpt lat="53.492994" lon="-1.707297"><ele>344.29000854</ele><time>2015-05-25T08:57:05Z</time></trkpt><trkpt lat="53.492929" lon="-1.707405"><ele>345.73001099</ele><time>2015-05-25T08:57:13Z</time></trkpt><trkpt lat="53.492791" lon="-1.707608"><ele>346.69000244</ele><time>2015-05-25T08:57:29Z</time></trkpt><trkpt lat="53.492625" lon="-1.707753"><ele>347.17001343</ele><time>2015-05-25T08:57:45Z</time></trkpt><trkpt lat="53.492531" lon="-1.707839"><ele>349.1000061</ele><time>2015-05-25T08:57:54Z</time></trkpt><trkpt lat="53.492473" lon="-1.707924"><ele>349.1000061</ele><time>2015-05-25T08:58:01Z</time></trkpt><trkpt lat="53.492332" lon="-1.708077"><ele>349.57998657</ele><time>2015-05-25T08:58:16Z</time></trkpt><trkpt lat="53.492146" lon="-1.708221"><ele>350.54000854</ele><time>2015-05-25T08:58:33Z</time></trkpt><trkpt lat="53.492074" lon="-1.708261"><ele>350.54000854</ele><time>2015-05-25T08:58:40Z</time></trkpt><trkpt lat="53.491911" lon="-1.708342"><ele>351.5</ele><time>2015-05-25T08:58:55Z</time></trkpt><trkpt lat="53.491722" lon="-1.708369"><ele>353.8999939</ele><time>2015-05-25T08:59:12Z</time></trkpt><trkpt lat="53.491546" lon="-1.708311"><ele>351.5</ele><time>2015-05-25T08:59:28Z</time></trkpt><trkpt lat="53.491412" lon="-1.708248"><ele>349.1000061</ele><time>2015-05-25T08:59:41Z</time></trkpt><trkpt lat="53.491350" lon="-1.708329"><ele>346.69000244</ele><time>2015-05-25T08:59:55Z</time></trkpt><trkpt lat="53.491267" lon="-1.708350"><ele>345.73001099</ele><time>2015-05-25T09:00:07Z</time></trkpt><trkpt lat="53.491130" lon="-1.708417"><ele>343.32998657</ele><time>2015-05-25T09:00:21Z</time></trkpt><trkpt lat="53.491084" lon="-1.708459"><ele>341.89001465</ele><time>2015-05-25T09:00:26Z</time></trkpt><trkpt lat="53.491037" lon="-1.708488"><ele>340.44000244</ele><time>2015-05-25T09:00:30Z</time></trkpt><trkpt lat="53.490862" lon="-1.708620"><ele>338.51998901</ele><time>2015-05-25T09:00:45Z</time></trkpt><trkpt lat="53.490724" lon="-1.708810"><ele>338.51998901</ele><time>2015-05-25T09:00:59Z</time></trkpt><trkpt lat="53.490614" lon="-1.708898"><ele>338.51998901</ele><time>2015-05-25T09:01:09Z</time></trkpt><trkpt lat="53.490475" lon="-1.709009"><ele>338.51998901</ele><time>2015-05-25T09:01:21Z</time></trkpt><trkpt lat="53.490395" lon="-1.709109"><ele>338.04000854</ele><time>2015-05-25T09:01:29Z</time></trkpt><trkpt lat="53.490302" lon="-1.709203"><ele>338.51998901</ele><time>2015-05-25T09:01:38Z</time></trkpt><trkpt lat="53.490164" lon="-1.709360"><ele>340.92001343</ele><time>2015-05-25T09:01:55Z</time></trkpt><trkpt lat="53.490040" lon="-1.709441"><ele>341.89001465</ele><time>2015-05-25T09:02:07Z</time></trkpt><trkpt lat="53.489966" lon="-1.709536"><ele>341.89001465</ele><time>2015-05-25T09:02:15Z</time></trkpt><trkpt lat="53.489889" lon="-1.709576"><ele>342.36999512</ele><time>2015-05-25T09:02:22Z</time></trkpt><trkpt lat="53.489867" lon="-1.709588"><ele>342.36999512</ele><time>2015-05-25T09:02:24Z</time></trkpt><trkpt lat="53.489713" lon="-1.709814"><ele>343.80999756</ele><time>2015-05-25T09:02:41Z</time></trkpt><trkpt lat="53.489595" lon="-1.710044"><ele>344.76998901</ele><time>2015-05-25T09:02:56Z</time></trkpt><trkpt lat="53.489478" lon="-1.710293"><ele>346.20999146</ele><time>2015-05-25T09:03:12Z</time></trkpt><trkpt lat="53.489464" lon="-1.710326"><ele>346.20999146</ele><time>2015-05-25T09:03:14Z</time></trkpt><trkpt lat="53.489397" lon="-1.710421"><ele>347.17001343</ele><time>2015-05-25T09:03:22Z</time></trkpt><trkpt lat="53.489352" lon="-1.710482"><ele>346.69000244</ele><time>2015-05-25T09:03:27Z</time></trkpt><trkpt lat="53.489216" lon="-1.710745"><ele>346.69000244</ele><time>2015-05-25T09:03:44Z</time></trkpt><trkpt lat="53.489079" lon="-1.710957"><ele>347.17001343</ele><time>2015-05-25T09:03:59Z</time></trkpt><trkpt lat="53.488937" lon="-1.711076"><ele>348.13000488</ele><time>2015-05-25T09:04:12Z</time></trkpt><trkpt lat="53.488762" lon="-1.711245"><ele>349.57998657</ele><time>2015-05-25T09:04:29Z</time></trkpt><trkpt lat="53.488716" lon="-1.711298"><ele>350.05999756</ele><time>2015-05-25T09:04:34Z</time></trkpt><trkpt lat="53.488592" lon="-1.711446"><ele>351.98001099</ele><time>2015-05-25T09:04:48Z</time></trkpt><trkpt lat="53.488462" lon="-1.711674"><ele>352.45999146</ele><time>2015-05-25T09:05:04Z</time></trkpt><trkpt lat="53.488296" lon="-1.711814"><ele>352.94000244</ele><time>2015-05-25T09:05:19Z</time></trkpt><trkpt lat="53.488138" lon="-1.711859"><ele>353.42001343</ele><time>2015-05-25T09:05:32Z</time></trkpt><trkpt lat="53.487966" lon="-1.711908"><ele>353.8999939</ele><time>2015-05-25T09:05:46Z</time></trkpt><trkpt lat="53.487809" lon="-1.711930"><ele>355.33999634</ele><time>2015-05-25T09:05:59Z</time></trkpt><trkpt lat="53.487644" lon="-1.711924"><ele>357.26998901</ele><time>2015-05-25T09:06:14Z</time></trkpt><trkpt lat="53.487567" lon="-1.711932"><ele>358.23001099</ele><time>2015-05-25T09:06:21Z</time></trkpt><trkpt lat="53.487387" lon="-1.711930"><ele>359.67001343</ele><time>2015-05-25T09:06:37Z</time></trkpt><trkpt lat="53.487222" lon="-1.711925"><ele>361.10998535</ele><time>2015-05-25T09:06:52Z</time></trkpt><trkpt lat="53.487045" lon="-1.711929"><ele>362.07000732</ele><time>2015-05-25T09:07:07Z</time></trkpt><trkpt lat="53.486881" lon="-1.711967"><ele>363.04000854</ele><time>2015-05-25T09:07:21Z</time></trkpt><trkpt lat="53.486738" lon="-1.711992"><ele>364</ele><time>2015-05-25T09:07:36Z</time></trkpt><trkpt lat="53.486610" lon="-1.712043"><ele>364.48001099</ele><time>2015-05-25T09:07:48Z</time></trkpt><trkpt lat="53.486488" lon="-1.712075"><ele>365.92001343</ele><time>2015-05-25T09:08:00Z</time></trkpt><trkpt lat="53.486454" lon="-1.712112"><ele>366.3999939</ele><time>2015-05-25T09:08:04Z</time></trkpt><trkpt lat="53.486378" lon="-1.712161"><ele>367.35998535</ele><time>2015-05-25T09:08:11Z</time></trkpt><trkpt lat="53.486238" lon="-1.712182"><ele>368.79998779</ele><time>2015-05-25T09:08:25Z</time></trkpt><trkpt lat="53.486126" lon="-1.712209"><ele>370.23999023</ele><time>2015-05-25T09:08:36Z</time></trkpt><trkpt lat="53.486015" lon="-1.712226"><ele>371.69000244</ele><time>2015-05-25T09:08:47Z</time></trkpt><trkpt lat="53.485950" lon="-1.712230"><ele>373.13000488</ele><time>2015-05-25T09:08:54Z</time></trkpt><trkpt lat="53.485901" lon="-1.712245"><ele>374.08999634</ele><time>2015-05-25T09:09:00Z</time></trkpt><trkpt lat="53.485856" lon="-1.712247"><ele>374.57000732</ele><time>2015-05-25T09:09:05Z</time></trkpt><trkpt lat="53.485734" lon="-1.712248"><ele>376.48999023</ele><time>2015-05-25T09:09:18Z</time></trkpt><trkpt lat="53.485619" lon="-1.712277"><ele>378.42001343</ele><time>2015-05-25T09:09:30Z</time></trkpt><trkpt lat="53.485525" lon="-1.712297"><ele>379.38000488</ele><time>2015-05-25T09:09:40Z</time></trkpt><trkpt lat="53.485402" lon="-1.712291"><ele>379.85998535</ele><time>2015-05-25T09:09:52Z</time></trkpt><trkpt lat="53.485319" lon="-1.712291"><ele>380.82000732</ele><time>2015-05-25T09:10:00Z</time></trkpt><trkpt lat="53.485156" lon="-1.712333"><ele>382.26000977</ele><time>2015-05-25T09:10:16Z</time></trkpt><trkpt lat="53.485037" lon="-1.712375"><ele>383.70001221</ele><time>2015-05-25T09:10:28Z</time></trkpt><trkpt lat="53.484947" lon="-1.712411"><ele>385.1499939</ele><time>2015-05-25T09:10:38Z</time></trkpt><trkpt lat="53.484838" lon="-1.712438"><ele>386.58999634</ele><time>2015-05-25T09:10:50Z</time></trkpt><trkpt lat="53.484818" lon="-1.712426"><ele>388.98999023</ele><time>2015-05-25T09:11:04Z</time></trkpt><trkpt lat="53.484819" lon="-1.712444"><ele>388.98999023</ele><time>2015-05-25T09:11:28Z</time></trkpt><trkpt lat="53.484800" lon="-1.712461"><ele>389.47000122</ele><time>2015-05-25T09:11:34Z</time></trkpt><trkpt lat="53.484778" lon="-1.712464"><ele>389.47000122</ele><time>2015-05-25T09:11:36Z</time></trkpt><trkpt lat="53.484749" lon="-1.712480"><ele>389.95001221</ele><time>2015-05-25T09:11:39Z</time></trkpt><trkpt lat="53.484653" lon="-1.712493"><ele>391.39001465</ele><time>2015-05-25T09:11:49Z</time></trkpt><trkpt lat="53.484514" lon="-1.712530"><ele>392.83999634</ele><time>2015-05-25T09:12:04Z</time></trkpt><trkpt lat="53.484377" lon="-1.712566"><ele>393.32000732</ele><time>2015-05-25T09:12:18Z</time></trkpt><trkpt lat="53.484185" lon="-1.712643"><ele>394.27999878</ele><time>2015-05-25T09:12:35Z</time></trkpt><trkpt lat="53.484000" lon="-1.712731"><ele>395.72000122</ele><time>2015-05-25T09:12:51Z</time></trkpt><trkpt lat="53.483848" lon="-1.712808"><ele>397.64001465</ele><time>2015-05-25T09:13:05Z</time></trkpt><trkpt lat="53.483771" lon="-1.712852"><ele>398.6000061</ele><time>2015-05-25T09:13:13Z</time></trkpt><trkpt lat="53.483655" lon="-1.712905"><ele>400.04998779</ele><time>2015-05-25T09:13:24Z</time></trkpt><trkpt lat="53.483480" lon="-1.712993"><ele>401.48999023</ele><time>2015-05-25T09:13:40Z</time></trkpt><trkpt lat="53.483449" lon="-1.713010"><ele>401.97000122</ele><time>2015-05-25T09:13:43Z</time></trkpt><trkpt lat="53.483356" lon="-1.713026"><ele>402.92999268</ele><time>2015-05-25T09:13:52Z</time></trkpt><trkpt lat="53.483336" lon="-1.713026"><ele>402.92999268</ele><time>2015-05-25T09:13:54Z</time></trkpt><trkpt lat="53.483180" lon="-1.713052"><ele>405.32998657</ele><time>2015-05-25T09:14:09Z</time></trkpt><trkpt lat="53.483018" lon="-1.713090"><ele>407.26000977</ele><time>2015-05-25T09:14:25Z</time></trkpt><trkpt lat="53.483007" lon="-1.713089"><ele>407.73999023</ele><time>2015-05-25T09:14:26Z</time></trkpt><trkpt lat="53.482924" lon="-1.713099"><ele>408.22000122</ele><time>2015-05-25T09:14:34Z</time></trkpt><trkpt lat="53.482860" lon="-1.713105"><ele>408.70001221</ele><time>2015-05-25T09:14:40Z</time></trkpt><trkpt lat="53.482710" lon="-1.713102"><ele>411.1000061</ele><time>2015-05-25T09:14:54Z</time></trkpt><trkpt lat="53.482575" lon="-1.713103"><ele>413.5</ele><time>2015-05-25T09:15:08Z</time></trkpt><trkpt lat="53.482544" lon="-1.713095"><ele>413.98001099</ele><time>2015-05-25T09:15:11Z</time></trkpt><trkpt lat="53.482454" lon="-1.713091"><ele>414.95001221</ele><time>2015-05-25T09:15:20Z</time></trkpt><trkpt lat="53.482406" lon="-1.713080"><ele>415.91000366</ele><time>2015-05-25T09:15:25Z</time></trkpt><trkpt lat="53.482387" lon="-1.713086"><ele>416.39001465</ele><time>2015-05-25T09:15:27Z</time></trkpt><trkpt lat="53.482245" lon="-1.713024"><ele>418.30999756</ele><time>2015-05-25T09:15:42Z</time></trkpt><trkpt lat="53.482181" lon="-1.712973"><ele>420.70999146</ele><time>2015-05-25T09:15:52Z</time></trkpt><trkpt lat="53.482041" lon="-1.712908"><ele>423.6000061</ele><time>2015-05-25T09:16:08Z</time></trkpt><trkpt lat="53.482008" lon="-1.712896"><ele>424.07998657</ele><time>2015-05-25T09:16:12Z</time></trkpt><trkpt lat="53.481890" lon="-1.712848"><ele>424.55999756</ele><time>2015-05-25T09:16:24Z</time></trkpt><trkpt lat="53.481705" lon="-1.712813"><ele>424.07998657</ele><time>2015-05-25T09:16:41Z</time></trkpt><trkpt lat="53.481603" lon="-1.712779"><ele>424.55999756</ele><time>2015-05-25T09:16:51Z</time></trkpt><trkpt lat="53.481444" lon="-1.712758"><ele>425.51998901</ele><time>2015-05-25T09:17:06Z</time></trkpt><trkpt lat="53.481274" lon="-1.712718"><ele>426.95999146</ele><time>2015-05-25T09:17:21Z</time></trkpt><trkpt lat="53.481264" lon="-1.712715"><ele>426.95999146</ele><time>2015-05-25T09:17:22Z</time></trkpt><trkpt lat="53.481109" lon="-1.712660"><ele>428.3999939</ele><time>2015-05-25T09:17:37Z</time></trkpt><trkpt lat="53.481060" lon="-1.712630"><ele>428.3999939</ele><time>2015-05-25T09:17:42Z</time></trkpt><trkpt lat="53.481005" lon="-1.712632"><ele>429.36999512</ele><time>2015-05-25T09:17:47Z</time></trkpt><trkpt lat="53.480974" lon="-1.712624"><ele>429.36999512</ele><time>2015-05-25T09:17:50Z</time></trkpt><trkpt lat="53.480825" lon="-1.712587"><ele>429.8500061</ele><time>2015-05-25T09:18:06Z</time></trkpt><trkpt lat="53.480672" lon="-1.712506"><ele>431.29000854</ele><time>2015-05-25T09:18:21Z</time></trkpt><trkpt lat="53.480522" lon="-1.712430"><ele>433.20999146</ele><time>2015-05-25T09:18:36Z</time></trkpt><trkpt lat="53.480395" lon="-1.712313"><ele>435.60998535</ele><time>2015-05-25T09:18:50Z</time></trkpt><trkpt lat="53.480323" lon="-1.712200"><ele>438.01998901</ele><time>2015-05-25T09:19:02Z</time></trkpt><trkpt lat="53.480210" lon="-1.712088"><ele>438.5</ele><time>2015-05-25T09:19:16Z</time></trkpt><trkpt lat="53.480193" lon="-1.712075"><ele>438.5</ele><time>2015-05-25T09:19:18Z</time></trkpt><trkpt lat="53.480173" lon="-1.712073"><ele>438.98001099</ele><time>2015-05-25T09:19:20Z</time></trkpt><trkpt lat="53.480036" lon="-1.711969"><ele>440.8999939</ele><time>2015-05-25T09:19:34Z</time></trkpt><trkpt lat="53.479883" lon="-1.711890"><ele>441.38000488</ele><time>2015-05-25T09:19:48Z</time></trkpt><trkpt lat="53.479741" lon="-1.711767"><ele>442.82000732</ele><time>2015-05-25T09:20:02Z</time></trkpt><trkpt lat="53.479709" lon="-1.711741"><ele>442.82000732</ele><time>2015-05-25T09:20:05Z</time></trkpt><trkpt lat="53.479630" lon="-1.711662"><ele>443.30999756</ele><time>2015-05-25T09:20:13Z</time></trkpt><trkpt lat="53.479602" lon="-1.711653"><ele>443.79000854</ele><time>2015-05-25T09:20:16Z</time></trkpt><trkpt lat="53.479584" lon="-1.711638"><ele>444.26998901</ele><time>2015-05-25T09:20:18Z</time></trkpt><trkpt lat="53.479484" lon="-1.711559"><ele>445.23001099</ele><time>2015-05-25T09:20:28Z</time></trkpt><trkpt lat="53.479377" lon="-1.711511"><ele>445.70999146</ele><time>2015-05-25T09:20:38Z</time></trkpt><trkpt lat="53.479232" lon="-1.711436"><ele>447.1499939</ele><time>2015-05-25T09:20:52Z</time></trkpt><trkpt lat="53.479121" lon="-1.711379"><ele>447.63000488</ele><time>2015-05-25T09:21:04Z</time></trkpt><trkpt lat="53.479112" lon="-1.711370"><ele>448.10998535</ele><time>2015-05-25T09:21:05Z</time></trkpt><trkpt lat="53.479072" lon="-1.711324"><ele>448.58999634</ele><time>2015-05-25T09:21:09Z</time></trkpt><trkpt lat="53.478999" lon="-1.711260"><ele>448.58999634</ele><time>2015-05-25T09:21:16Z</time></trkpt><trkpt lat="53.478942" lon="-1.711224"><ele>449.07000732</ele><time>2015-05-25T09:21:21Z</time></trkpt><trkpt lat="53.478749" lon="-1.711150"><ele>449.54998779</ele><time>2015-05-25T09:21:38Z</time></trkpt><trkpt lat="53.478711" lon="-1.711153"><ele>449.54998779</ele><time>2015-05-25T09:21:41Z</time></trkpt><trkpt lat="53.478526" lon="-1.711068"><ele>450.51998901</ele><time>2015-05-25T09:21:58Z</time></trkpt><trkpt lat="53.478382" lon="-1.710959"><ele>451.95999146</ele><time>2015-05-25T09:22:13Z</time></trkpt><trkpt lat="53.478176" lon="-1.710894"><ele>451.48001099</ele><time>2015-05-25T09:22:30Z</time></trkpt><trkpt lat="53.478085" lon="-1.710843"><ele>451.48001099</ele><time>2015-05-25T09:22:38Z</time></trkpt><trkpt lat="53.478040" lon="-1.710843"><ele>451.48001099</ele><time>2015-05-25T09:22:42Z</time></trkpt><trkpt lat="53.477980" lon="-1.710847"><ele>451.95999146</ele><time>2015-05-25T09:22:47Z</time></trkpt><trkpt lat="53.477959" lon="-1.710830"><ele>452.44000244</ele><time>2015-05-25T09:22:56Z</time></trkpt><trkpt lat="53.477804" lon="-1.710843"><ele>452.92001343</ele><time>2015-05-25T09:23:09Z</time></trkpt><trkpt lat="53.477643" lon="-1.710827"><ele>453.88000488</ele><time>2015-05-25T09:23:23Z</time></trkpt><trkpt lat="53.477526" lon="-1.710834"><ele>454.83999634</ele><time>2015-05-25T09:23:33Z</time></trkpt><trkpt lat="53.477341" lon="-1.710746"><ele>455.32000732</ele><time>2015-05-25T09:23:49Z</time></trkpt><trkpt lat="53.477168" lon="-1.710641"><ele>456.27999878</ele><time>2015-05-25T09:24:04Z</time></trkpt><trkpt lat="53.476998" lon="-1.710498"><ele>455.79998779</ele><time>2015-05-25T09:24:19Z</time></trkpt><trkpt lat="53.476812" lon="-1.710331"><ele>455.32000732</ele><time>2015-05-25T09:24:36Z</time></trkpt><trkpt lat="53.476749" lon="-1.710326"><ele>454.83999634</ele><time>2015-05-25T09:24:41Z</time></trkpt><trkpt lat="53.476570" lon="-1.710238"><ele>453.3999939</ele><time>2015-05-25T09:24:56Z</time></trkpt><trkpt lat="53.476364" lon="-1.710086"><ele>452.92001343</ele><time>2015-05-25T09:25:14Z</time></trkpt><trkpt lat="53.476187" lon="-1.710026"><ele>452.92001343</ele><time>2015-05-25T09:25:29Z</time></trkpt><trkpt lat="53.475962" lon="-1.709963"><ele>451</ele><time>2015-05-25T09:25:47Z</time></trkpt><trkpt lat="53.475813" lon="-1.709851"><ele>450.51998901</ele><time>2015-05-25T09:26:01Z</time></trkpt><trkpt lat="53.475735" lon="-1.709825"><ele>449.54998779</ele><time>2015-05-25T09:26:15Z</time></trkpt><trkpt lat="53.475670" lon="-1.709838"><ele>450.02999878</ele><time>2015-05-25T09:26:22Z</time></trkpt><trkpt lat="53.475485" lon="-1.709812"><ele>451.48001099</ele><time>2015-05-25T09:26:38Z</time></trkpt><trkpt lat="53.475387" lon="-1.709781"><ele>452.44000244</ele><time>2015-05-25T09:26:49Z</time></trkpt><trkpt lat="53.475323" lon="-1.709759"><ele>453.88000488</ele><time>2015-05-25T09:26:57Z</time></trkpt><trkpt lat="53.475249" lon="-1.709797"><ele>454.35998535</ele><time>2015-05-25T09:27:05Z</time></trkpt><trkpt lat="53.475189" lon="-1.709843"><ele>453.3999939</ele><time>2015-05-25T09:27:11Z</time></trkpt><trkpt lat="53.475047" lon="-1.709900"><ele>454.35998535</ele><time>2015-05-25T09:27:25Z</time></trkpt><trkpt lat="53.475010" lon="-1.709896"><ele>454.83999634</ele><time>2015-05-25T09:27:29Z</time></trkpt><trkpt lat="53.474905" lon="-1.709819"><ele>456.27999878</ele><time>2015-05-25T09:27:42Z</time></trkpt><trkpt lat="53.474819" lon="-1.709748"><ele>457.23999023</ele><time>2015-05-25T09:27:53Z</time></trkpt><trkpt lat="53.474754" lon="-1.709763"><ele>458.20999146</ele><time>2015-05-25T09:28:00Z</time></trkpt><trkpt lat="53.474711" lon="-1.709759"><ele>458.20999146</ele><time>2015-05-25T09:28:04Z</time></trkpt><trkpt lat="53.474590" lon="-1.709652"><ele>460.13000488</ele><time>2015-05-25T09:28:18Z</time></trkpt><trkpt lat="53.474580" lon="-1.709645"><ele>460.13000488</ele><time>2015-05-25T09:28:19Z</time></trkpt><trkpt lat="53.474480" lon="-1.709594"><ele>461.08999634</ele><time>2015-05-25T09:28:29Z</time></trkpt><trkpt lat="53.474388" lon="-1.709561"><ele>461.08999634</ele><time>2015-05-25T09:28:37Z</time></trkpt><trkpt lat="53.474275" lon="-1.709418"><ele>463.01000977</ele><time>2015-05-25T09:28:55Z</time></trkpt><trkpt lat="53.474267" lon="-1.709410"><ele>464.45001221</ele><time>2015-05-25T09:29:25Z</time></trkpt><trkpt lat="53.474265" lon="-1.709407"><ele>464.45001221</ele><time>2015-05-25T09:29:52Z</time></trkpt><trkpt lat="53.474262" lon="-1.709414"><ele>464.45001221</ele><time>2015-05-25T09:30:03Z</time></trkpt><trkpt lat="53.474261" lon="-1.709404"><ele>465.42001343</ele><time>2015-05-25T09:30:32Z</time></trkpt><trkpt lat="53.474258" lon="-1.709405"><ele>465.42001343</ele><time>2015-05-25T09:30:54Z</time></trkpt><trkpt lat="53.474259" lon="-1.709409"><ele>465.42001343</ele><time>2015-05-25T09:31:12Z</time></trkpt><trkpt lat="53.474257" lon="-1.709424"><ele>465.42001343</ele><time>2015-05-25T09:31:46Z</time></trkpt><trkpt lat="53.474255" lon="-1.709440"><ele>465.8999939</ele><time>2015-05-25T09:32:25Z</time></trkpt><trkpt lat="53.474262" lon="-1.709423"><ele>465.8999939</ele><time>2015-05-25T09:32:59Z</time></trkpt><trkpt lat="53.474242" lon="-1.709396"><ele>465.8999939</ele><time>2015-05-25T09:33:07Z</time></trkpt><trkpt lat="53.474203" lon="-1.709375"><ele>465.8999939</ele><time>2015-05-25T09:33:13Z</time></trkpt><trkpt lat="53.474144" lon="-1.709263"><ele>467.82000732</ele><time>2015-05-25T09:33:23Z</time></trkpt><trkpt lat="53.474111" lon="-1.709227"><ele>468.29998779</ele><time>2015-05-25T09:33:27Z</time></trkpt><trkpt lat="53.474002" lon="-1.709256"><ele>468.77999878</ele><time>2015-05-25T09:33:41Z</time></trkpt><trkpt lat="53.473992" lon="-1.709266"><ele>469.73999023</ele><time>2015-05-25T09:33:52Z</time></trkpt><trkpt lat="53.473932" lon="-1.709238"><ele>470.70001221</ele><time>2015-05-25T09:34:00Z</time></trkpt><trkpt lat="53.473883" lon="-1.709265"><ele>471.17999268</ele><time>2015-05-25T09:34:06Z</time></trkpt><trkpt lat="53.473756" lon="-1.709275"><ele>473.58999634</ele><time>2015-05-25T09:34:21Z</time></trkpt><trkpt lat="53.473749" lon="-1.709270"><ele>473.10998535</ele><time>2015-05-25T09:34:38Z</time></trkpt><trkpt lat="53.473743" lon="-1.709274"><ele>474.07000732</ele><time>2015-05-25T09:34:59Z</time></trkpt><trkpt lat="53.473721" lon="-1.709270"><ele>474.54998779</ele><time>2015-05-25T09:35:01Z</time></trkpt><trkpt lat="53.473639" lon="-1.709309"><ele>475.02999878</ele><time>2015-05-25T09:35:08Z</time></trkpt><trkpt lat="53.473476" lon="-1.709382"><ele>475.98999023</ele><time>2015-05-25T09:35:23Z</time></trkpt><trkpt lat="53.473316" lon="-1.709478"><ele>478.39001465</ele><time>2015-05-25T09:35:39Z</time></trkpt><trkpt lat="53.473311" lon="-1.709488"><ele>478.39001465</ele><time>2015-05-25T09:35:40Z</time></trkpt><trkpt lat="53.473178" lon="-1.709469"><ele>478.39001465</ele><time>2015-05-25T09:35:52Z</time></trkpt><trkpt lat="53.473102" lon="-1.709575"><ele>476.95001221</ele><time>2015-05-25T09:36:01Z</time></trkpt><trkpt lat="53.473067" lon="-1.709617"><ele>477.42999268</ele><time>2015-05-25T09:36:05Z</time></trkpt><trkpt lat="53.473018" lon="-1.709666"><ele>477.42999268</ele><time>2015-05-25T09:36:10Z</time></trkpt><trkpt lat="53.472878" lon="-1.709745"><ele>479.3500061</ele><time>2015-05-25T09:36:24Z</time></trkpt><trkpt lat="53.472871" lon="-1.709755"><ele>478.86999512</ele><time>2015-05-25T09:36:25Z</time></trkpt><trkpt lat="53.472847" lon="-1.709821"><ele>479.83999634</ele><time>2015-05-25T09:36:30Z</time></trkpt><trkpt lat="53.472783" lon="-1.709840"><ele>480.79998779</ele><time>2015-05-25T09:36:36Z</time></trkpt><trkpt lat="53.472683" lon="-1.709877"><ele>481.27999878</ele><time>2015-05-25T09:36:45Z</time></trkpt><trkpt lat="53.472605" lon="-1.709860"><ele>481.76000977</ele><time>2015-05-25T09:36:52Z</time></trkpt><trkpt lat="53.472571" lon="-1.709874"><ele>482.23999023</ele><time>2015-05-25T09:36:55Z</time></trkpt><trkpt lat="53.472419" lon="-1.709882"><ele>483.20001221</ele><time>2015-05-25T09:37:09Z</time></trkpt><trkpt lat="53.472315" lon="-1.709901"><ele>483.67999268</ele><time>2015-05-25T09:37:20Z</time></trkpt><trkpt lat="53.472237" lon="-1.710000"><ele>483.20001221</ele><time>2015-05-25T09:37:30Z</time></trkpt><trkpt lat="53.472153" lon="-1.710155"><ele>485.11999512</ele><time>2015-05-25T09:37:43Z</time></trkpt><trkpt lat="53.472149" lon="-1.710203"><ele>485.11999512</ele><time>2015-05-25T09:37:46Z</time></trkpt><trkpt lat="53.472050" lon="-1.710347"><ele>486.55999756</ele><time>2015-05-25T09:38:00Z</time></trkpt><trkpt lat="53.471990" lon="-1.710484"><ele>487.04998779</ele><time>2015-05-25T09:38:10Z</time></trkpt><trkpt lat="53.471928" lon="-1.710583"><ele>487.04998779</ele><time>2015-05-25T09:38:18Z</time></trkpt><trkpt lat="53.471888" lon="-1.710615"><ele>487.52999878</ele><time>2015-05-25T09:38:22Z</time></trkpt><trkpt lat="53.471830" lon="-1.710654"><ele>488.01000977</ele><time>2015-05-25T09:38:28Z</time></trkpt><trkpt lat="53.471759" lon="-1.710667"><ele>488.97000122</ele><time>2015-05-25T09:38:35Z</time></trkpt><trkpt lat="53.471684" lon="-1.710669"><ele>489.45001221</ele><time>2015-05-25T09:38:42Z</time></trkpt><trkpt lat="53.471636" lon="-1.710703"><ele>489.45001221</ele><time>2015-05-25T09:38:47Z</time></trkpt><trkpt lat="53.471510" lon="-1.710770"><ele>490.41000366</ele><time>2015-05-25T09:39:00Z</time></trkpt><trkpt lat="53.471375" lon="-1.710878"><ele>491.8500061</ele><time>2015-05-25T09:39:14Z</time></trkpt><trkpt lat="53.471313" lon="-1.710912"><ele>492.32998657</ele><time>2015-05-25T09:39:20Z</time></trkpt><trkpt lat="53.471272" lon="-1.710937"><ele>492.80999756</ele><time>2015-05-25T09:39:34Z</time></trkpt><trkpt lat="53.471279" lon="-1.710945"><ele>493.29000854</ele><time>2015-05-25T09:39:49Z</time></trkpt><trkpt lat="53.471265" lon="-1.710961"><ele>493.29000854</ele><time>2015-05-25T09:40:04Z</time></trkpt><trkpt lat="53.471248" lon="-1.710982"><ele>493.29000854</ele><time>2015-05-25T09:40:06Z</time></trkpt><trkpt lat="53.471130" lon="-1.711095"><ele>494.73999023</ele><time>2015-05-25T09:40:20Z</time></trkpt><trkpt lat="53.471087" lon="-1.711123"><ele>494.73999023</ele><time>2015-05-25T09:40:35Z</time></trkpt><trkpt lat="53.471035" lon="-1.711076"><ele>495.22000122</ele><time>2015-05-25T09:40:41Z</time></trkpt><trkpt lat="53.470968" lon="-1.711051"><ele>496.17999268</ele><time>2015-05-25T09:40:54Z</time></trkpt><trkpt lat="53.470966" lon="-1.711045"><ele>496.17999268</ele><time>2015-05-25T09:41:22Z</time></trkpt><trkpt lat="53.470959" lon="-1.711052"><ele>495.70001221</ele><time>2015-05-25T09:41:59Z</time></trkpt><trkpt lat="53.470869" lon="-1.711054"><ele>496.17999268</ele><time>2015-05-25T09:42:12Z</time></trkpt><trkpt lat="53.470802" lon="-1.711028"><ele>496.66000366</ele><time>2015-05-25T09:42:18Z</time></trkpt><trkpt lat="53.470731" lon="-1.710997"><ele>497.14001465</ele><time>2015-05-25T09:42:25Z</time></trkpt><trkpt lat="53.470601" lon="-1.710904"><ele>497.61999512</ele><time>2015-05-25T09:42:38Z</time></trkpt><trkpt lat="53.470434" lon="-1.710863"><ele>499.54000854</ele><time>2015-05-25T09:42:54Z</time></trkpt><trkpt lat="53.470250" lon="-1.710814"><ele>500.01998901</ele><time>2015-05-25T09:43:10Z</time></trkpt><trkpt lat="53.470217" lon="-1.710814"><ele>500.01998901</ele><time>2015-05-25T09:43:13Z</time></trkpt><trkpt lat="53.470138" lon="-1.710805"><ele>500.5</ele><time>2015-05-25T09:43:20Z</time></trkpt><trkpt lat="53.470116" lon="-1.710802"><ele>500.5</ele><time>2015-05-25T09:43:22Z</time></trkpt><trkpt lat="53.469937" lon="-1.710905"><ele>501.45999146</ele><time>2015-05-25T09:43:39Z</time></trkpt><trkpt lat="53.469790" lon="-1.711005"><ele>502.91000366</ele><time>2015-05-25T09:43:53Z</time></trkpt><trkpt lat="53.469779" lon="-1.711007"><ele>502.91000366</ele><time>2015-05-25T09:43:54Z</time></trkpt><trkpt lat="53.469727" lon="-1.711040"><ele>502.91000366</ele><time>2015-05-25T09:43:59Z</time></trkpt><trkpt lat="53.469529" lon="-1.711130"><ele>503.86999512</ele><time>2015-05-25T09:44:17Z</time></trkpt><trkpt lat="53.469382" lon="-1.711264"><ele>504.3500061</ele><time>2015-05-25T09:44:32Z</time></trkpt><trkpt lat="53.469307" lon="-1.711338"><ele>504.3500061</ele><time>2015-05-25T09:44:40Z</time></trkpt><trkpt lat="53.469277" lon="-1.711349"><ele>504.3500061</ele><time>2015-05-25T09:44:43Z</time></trkpt><trkpt lat="53.469260" lon="-1.711371"><ele>504.3500061</ele><time>2015-05-25T09:44:45Z</time></trkpt><trkpt lat="53.469196" lon="-1.711404"><ele>504.3500061</ele><time>2015-05-25T09:44:51Z</time></trkpt><trkpt lat="53.469116" lon="-1.711470"><ele>505.30999756</ele><time>2015-05-25T09:44:59Z</time></trkpt><trkpt lat="53.468971" lon="-1.711595"><ele>506.75</ele><time>2015-05-25T09:45:14Z</time></trkpt><trkpt lat="53.468826" lon="-1.711715"><ele>507.23001099</ele><time>2015-05-25T09:45:29Z</time></trkpt><trkpt lat="53.468675" lon="-1.711830"><ele>508.67001343</ele><time>2015-05-25T09:45:43Z</time></trkpt><trkpt lat="53.468573" lon="-1.711931"><ele>508.67001343</ele><time>2015-05-25T09:45:53Z</time></trkpt><trkpt lat="53.468422" lon="-1.712043"><ele>510.6000061</ele><time>2015-05-25T09:46:08Z</time></trkpt><trkpt lat="53.468351" lon="-1.712120"><ele>511.55999756</ele><time>2015-05-25T09:46:24Z</time></trkpt><trkpt lat="53.468246" lon="-1.712328"><ele>510.11999512</ele><time>2015-05-25T09:46:38Z</time></trkpt><trkpt lat="53.468124" lon="-1.712514"><ele>510.11999512</ele><time>2015-05-25T09:46:53Z</time></trkpt><trkpt lat="53.468112" lon="-1.712557"><ele>509.64001465</ele><time>2015-05-25T09:46:56Z</time></trkpt><trkpt lat="53.468123" lon="-1.712624"><ele>510.11999512</ele><time>2015-05-25T09:47:00Z</time></trkpt><trkpt lat="53.468095" lon="-1.712646"><ele>509.64001465</ele><time>2015-05-25T09:47:03Z</time></trkpt><trkpt lat="53.468044" lon="-1.712766"><ele>509.64001465</ele><time>2015-05-25T09:47:11Z</time></trkpt><trkpt lat="53.468000" lon="-1.712913"><ele>509.64001465</ele><time>2015-05-25T09:47:22Z</time></trkpt><trkpt lat="53.467979" lon="-1.712999"><ele>509.64001465</ele><time>2015-05-25T09:47:27Z</time></trkpt><trkpt lat="53.467981" lon="-1.713075"><ele>510.6000061</ele><time>2015-05-25T09:47:32Z</time></trkpt><trkpt lat="53.467951" lon="-1.713216"><ele>510.6000061</ele><time>2015-05-25T09:47:40Z</time></trkpt><trkpt lat="53.467945" lon="-1.713255"><ele>510.6000061</ele><time>2015-05-25T09:47:42Z</time></trkpt><trkpt lat="53.467908" lon="-1.713321"><ele>510.6000061</ele><time>2015-05-25T09:47:47Z</time></trkpt><trkpt lat="53.467871" lon="-1.713373"><ele>510.6000061</ele><time>2015-05-25T09:47:51Z</time></trkpt><trkpt lat="53.467801" lon="-1.713666"><ele>513</ele><time>2015-05-25T09:48:08Z</time></trkpt><trkpt lat="53.467675" lon="-1.713895"><ele>514.44000244</ele><time>2015-05-25T09:48:25Z</time></trkpt><trkpt lat="53.467474" lon="-1.714002"><ele>515.40002441</ele><time>2015-05-25T09:48:44Z</time></trkpt><trkpt lat="53.467298" lon="-1.714051"><ele>515.40002441</ele><time>2015-05-25T09:49:00Z</time></trkpt><trkpt lat="53.467128" lon="-1.714148"><ele>515.40002441</ele><time>2015-05-25T09:49:16Z</time></trkpt><trkpt lat="53.466958" lon="-1.714203"><ele>515.88000488</ele><time>2015-05-25T09:49:31Z</time></trkpt><trkpt lat="53.466750" lon="-1.714266"><ele>515.40002441</ele><time>2015-05-25T09:49:49Z</time></trkpt><trkpt lat="53.466578" lon="-1.714396"><ele>512.52001953</ele><time>2015-05-25T09:50:05Z</time></trkpt><trkpt lat="53.466411" lon="-1.714492"><ele>511.07998657</ele><time>2015-05-25T09:50:21Z</time></trkpt><trkpt lat="53.466393" lon="-1.714508"><ele>511.07998657</ele><time>2015-05-25T09:50:23Z</time></trkpt><trkpt lat="53.466383" lon="-1.714549"><ele>511.07998657</ele><time>2015-05-25T09:50:26Z</time></trkpt><trkpt lat="53.466317" lon="-1.714563"><ele>511.55999756</ele><time>2015-05-25T09:50:41Z</time></trkpt><trkpt lat="53.466311" lon="-1.714571"><ele>510.6000061</ele><time>2015-05-25T09:51:09Z</time></trkpt><trkpt lat="53.466310" lon="-1.714572"><ele>510.11999512</ele><time>2015-05-25T09:51:35Z</time></trkpt><trkpt lat="53.466307" lon="-1.714547"><ele>510.11999512</ele><time>2015-05-25T09:51:55Z</time></trkpt><trkpt lat="53.466309" lon="-1.714549"><ele>510.11999512</ele><time>2015-05-25T09:52:20Z</time></trkpt><trkpt lat="53.466360" lon="-1.714674"><ele>511.07998657</ele><time>2015-05-25T09:52:30Z</time></trkpt><trkpt lat="53.466370" lon="-1.714776"><ele>511.55999756</ele><time>2015-05-25T09:52:37Z</time></trkpt><trkpt lat="53.466389" lon="-1.714921"><ele>511.55999756</ele><time>2015-05-25T09:52:49Z</time></trkpt><trkpt lat="53.466376" lon="-1.714993"><ele>512.52001953</ele><time>2015-05-25T09:52:58Z</time></trkpt><trkpt lat="53.466353" lon="-1.715003"><ele>513</ele><time>2015-05-25T09:53:02Z</time></trkpt><trkpt lat="53.466325" lon="-1.714961"><ele>513.47998047</ele><time>2015-05-25T09:53:06Z</time></trkpt><trkpt lat="53.466269" lon="-1.714956"><ele>513.47998047</ele><time>2015-05-25T09:53:12Z</time></trkpt><trkpt lat="53.466250" lon="-1.714946"><ele>513.47998047</ele><time>2015-05-25T09:53:14Z</time></trkpt><trkpt lat="53.466229" lon="-1.714949"><ele>513</ele><time>2015-05-25T09:53:16Z</time></trkpt><trkpt lat="53.466099" lon="-1.714961"><ele>514.44000244</ele><time>2015-05-25T09:53:29Z</time></trkpt><trkpt lat="53.466046" lon="-1.715023"><ele>513.96002197</ele><time>2015-05-25T09:53:35Z</time></trkpt><trkpt lat="53.465983" lon="-1.715058"><ele>513</ele><time>2015-05-25T09:53:42Z</time></trkpt><trkpt lat="53.465954" lon="-1.715042"><ele>511.55999756</ele><time>2015-05-25T09:53:45Z</time></trkpt><trkpt lat="53.465900" lon="-1.715037"><ele>511.07998657</ele><time>2015-05-25T09:53:50Z</time></trkpt><trkpt lat="53.465851" lon="-1.715077"><ele>511.07998657</ele><time>2015-05-25T09:53:55Z</time></trkpt><trkpt lat="53.465759" lon="-1.715217"><ele>511.55999756</ele><time>2015-05-25T09:54:06Z</time></trkpt><trkpt lat="53.465694" lon="-1.715261"><ele>512.03997803</ele><time>2015-05-25T09:54:12Z</time></trkpt><trkpt lat="53.465596" lon="-1.715391"><ele>512.52001953</ele><time>2015-05-25T09:54:23Z</time></trkpt><trkpt lat="53.465497" lon="-1.715594"><ele>513</ele><time>2015-05-25T09:54:38Z</time></trkpt><trkpt lat="53.465381" lon="-1.715769"><ele>513.96002197</ele><time>2015-05-25T09:54:53Z</time></trkpt><trkpt lat="53.465310" lon="-1.715881"><ele>514.44000244</ele><time>2015-05-25T09:55:03Z</time></trkpt><trkpt lat="53.465282" lon="-1.715936"><ele>514.91998291</ele><time>2015-05-25T09:55:07Z</time></trkpt><trkpt lat="53.465247" lon="-1.715984"><ele>514.91998291</ele><time>2015-05-25T09:55:11Z</time></trkpt><trkpt lat="53.465216" lon="-1.716037"><ele>514.91998291</ele><time>2015-05-25T09:55:15Z</time></trkpt><trkpt lat="53.465105" lon="-1.716285"><ele>515.88000488</ele><time>2015-05-25T09:55:32Z</time></trkpt><trkpt lat="53.465047" lon="-1.716517"><ele>517.33001709</ele><time>2015-05-25T09:55:46Z</time></trkpt><trkpt lat="53.465004" lon="-1.716750"><ele>518.28997803</ele><time>2015-05-25T09:56:00Z</time></trkpt><trkpt lat="53.464972" lon="-1.716918"><ele>519.25</ele><time>2015-05-25T09:56:09Z</time></trkpt><trkpt lat="53.464909" lon="-1.717169"><ele>519.72998047</ele><time>2015-05-25T09:56:24Z</time></trkpt><trkpt lat="53.464855" lon="-1.717310"><ele>520.21002197</ele><time>2015-05-25T09:56:33Z</time></trkpt><trkpt lat="53.464837" lon="-1.717381"><ele>520.21002197</ele><time>2015-05-25T09:56:37Z</time></trkpt><trkpt lat="53.464640" lon="-1.717575"><ele>520.21002197</ele><time>2015-05-25T09:56:56Z</time></trkpt><trkpt lat="53.464497" lon="-1.717664"><ele>519.72998047</ele><time>2015-05-25T09:57:09Z</time></trkpt><trkpt lat="53.464362" lon="-1.717761"><ele>518.28997803</ele><time>2015-05-25T09:57:23Z</time></trkpt><trkpt lat="53.464338" lon="-1.717808"><ele>516.84997559</ele><time>2015-05-25T09:57:37Z</time></trkpt><trkpt lat="53.464332" lon="-1.717813"><ele>516.36999512</ele><time>2015-05-25T09:58:20Z</time></trkpt><trkpt lat="53.464335" lon="-1.717810"><ele>516.36999512</ele><time>2015-05-25T09:58:33Z</time></trkpt><trkpt lat="53.464225" lon="-1.717811"><ele>517.80999756</ele><time>2015-05-25T09:58:46Z</time></trkpt><trkpt lat="53.464154" lon="-1.717948"><ele>518.28997803</ele><time>2015-05-25T09:58:56Z</time></trkpt><trkpt lat="53.464020" lon="-1.718120"><ele>520.21002197</ele><time>2015-05-25T09:59:12Z</time></trkpt><trkpt lat="53.464003" lon="-1.718143"><ele>520.21002197</ele><time>2015-05-25T09:59:14Z</time></trkpt><trkpt lat="53.463867" lon="-1.718273"><ele>520.69000244</ele><time>2015-05-25T09:59:29Z</time></trkpt><trkpt lat="53.463713" lon="-1.718417"><ele>522.13000488</ele><time>2015-05-25T09:59:45Z</time></trkpt><trkpt lat="53.463693" lon="-1.718427"><ele>522.13000488</ele><time>2015-05-25T09:59:47Z</time></trkpt><trkpt lat="53.463675" lon="-1.718441"><ele>522.13000488</ele><time>2015-05-25T09:59:49Z</time></trkpt><trkpt lat="53.463567" lon="-1.718507"><ele>523.58001709</ele><time>2015-05-25T10:00:01Z</time></trkpt><trkpt lat="53.463529" lon="-1.718568"><ele>523.58001709</ele><time>2015-05-25T10:00:06Z</time></trkpt><trkpt lat="53.463421" lon="-1.718719"><ele>524.53997803</ele><time>2015-05-25T10:00:19Z</time></trkpt><trkpt lat="53.463389" lon="-1.718728"><ele>525.5</ele><time>2015-05-25T10:00:22Z</time></trkpt><trkpt lat="53.463252" lon="-1.718854"><ele>525.97998047</ele><time>2015-05-25T10:00:37Z</time></trkpt><trkpt lat="53.463247" lon="-1.718898"><ele>526.46002197</ele><time>2015-05-25T10:00:40Z</time></trkpt><trkpt lat="53.463101" lon="-1.719006"><ele>526.94000244</ele><time>2015-05-25T10:00:55Z</time></trkpt><trkpt lat="53.463012" lon="-1.719039"><ele>526.46002197</ele><time>2015-05-25T10:01:03Z</time></trkpt><trkpt lat="53.462951" lon="-1.719057"><ele>526.46002197</ele><time>2015-05-25T10:01:09Z</time></trkpt><trkpt lat="53.462918" lon="-1.719133"><ele>526.46002197</ele><time>2015-05-25T10:01:14Z</time></trkpt><trkpt lat="53.462886" lon="-1.719173"><ele>526.46002197</ele><time>2015-05-25T10:01:18Z</time></trkpt><trkpt lat="53.462860" lon="-1.719235"><ele>526.46002197</ele><time>2015-05-25T10:01:22Z</time></trkpt><trkpt lat="53.462768" lon="-1.719293"><ele>527.41998291</ele><time>2015-05-25T10:01:31Z</time></trkpt><trkpt lat="53.462728" lon="-1.719293"><ele>527.41998291</ele><time>2015-05-25T10:01:35Z</time></trkpt><trkpt lat="53.462652" lon="-1.719319"><ele>527.41998291</ele><time>2015-05-25T10:01:42Z</time></trkpt><trkpt lat="53.462631" lon="-1.719335"><ele>527.90002441</ele><time>2015-05-25T10:01:44Z</time></trkpt><trkpt lat="53.462594" lon="-1.719429"><ele>527.90002441</ele><time>2015-05-25T10:01:50Z</time></trkpt><trkpt lat="53.462575" lon="-1.719431"><ele>527.90002441</ele><time>2015-05-25T10:01:52Z</time></trkpt><trkpt lat="53.462538" lon="-1.719398"><ele>528.38000488</ele><time>2015-05-25T10:01:56Z</time></trkpt><trkpt lat="53.462413" lon="-1.719527"><ele>527.90002441</ele><time>2015-05-25T10:02:09Z</time></trkpt><trkpt lat="53.462337" lon="-1.719545"><ele>528.38000488</ele><time>2015-05-25T10:02:16Z</time></trkpt><trkpt lat="53.462285" lon="-1.719552"><ele>528.85998535</ele><time>2015-05-25T10:02:21Z</time></trkpt><trkpt lat="53.462252" lon="-1.719553"><ele>529.34002686</ele><time>2015-05-25T10:02:25Z</time></trkpt><trkpt lat="53.462249" lon="-1.719583"><ele>529.34002686</ele><time>2015-05-25T10:02:27Z</time></trkpt><trkpt lat="53.462223" lon="-1.719676"><ele>528.85998535</ele><time>2015-05-25T10:02:33Z</time></trkpt><trkpt lat="53.462184" lon="-1.719708"><ele>529.34002686</ele><time>2015-05-25T10:02:37Z</time></trkpt><trkpt lat="53.462111" lon="-1.719712"><ele>529.82000732</ele><time>2015-05-25T10:02:44Z</time></trkpt><trkpt lat="53.462064" lon="-1.719706"><ele>530.29998779</ele><time>2015-05-25T10:02:49Z</time></trkpt><trkpt lat="53.462039" lon="-1.719721"><ele>530.78997803</ele><time>2015-05-25T10:02:52Z</time></trkpt><trkpt lat="53.461949" lon="-1.719741"><ele>530.78997803</ele><time>2015-05-25T10:03:01Z</time></trkpt><trkpt lat="53.461841" lon="-1.719758"><ele>531.27001953</ele><time>2015-05-25T10:03:11Z</time></trkpt><trkpt lat="53.461809" lon="-1.719765"><ele>531.75</ele><time>2015-05-25T10:03:14Z</time></trkpt><trkpt lat="53.461792" lon="-1.719788"><ele>532.22998047</ele><time>2015-05-25T10:03:16Z</time></trkpt><trkpt lat="53.461759" lon="-1.719785"><ele>531.75</ele><time>2015-05-25T10:03:19Z</time></trkpt><trkpt lat="53.461720" lon="-1.719836"><ele>531.75</ele><time>2015-05-25T10:03:24Z</time></trkpt><trkpt lat="53.461643" lon="-1.719968"><ele>531.27001953</ele><time>2015-05-25T10:03:35Z</time></trkpt><trkpt lat="53.461571" lon="-1.720022"><ele>531.27001953</ele><time>2015-05-25T10:03:43Z</time></trkpt><trkpt lat="53.461478" lon="-1.720122"><ele>531.27001953</ele><time>2015-05-25T10:03:53Z</time></trkpt><trkpt lat="53.461404" lon="-1.720231"><ele>530.78997803</ele><time>2015-05-25T10:04:06Z</time></trkpt><trkpt lat="53.461404" lon="-1.720226"><ele>531.27001953</ele><time>2015-05-25T10:04:27Z</time></trkpt><trkpt lat="53.461400" lon="-1.720239"><ele>531.27001953</ele><time>2015-05-25T10:04:29Z</time></trkpt><trkpt lat="53.461387" lon="-1.720451"><ele>531.27001953</ele><time>2015-05-25T10:04:42Z</time></trkpt><trkpt lat="53.461362" lon="-1.720529"><ele>531.75</ele><time>2015-05-25T10:04:51Z</time></trkpt><trkpt lat="53.461316" lon="-1.720659"><ele>531.75</ele><time>2015-05-25T10:05:00Z</time></trkpt><trkpt lat="53.461275" lon="-1.720823"><ele>532.22998047</ele><time>2015-05-25T10:05:10Z</time></trkpt><trkpt lat="53.461193" lon="-1.721018"><ele>532.22998047</ele><time>2015-05-25T10:05:24Z</time></trkpt><trkpt lat="53.461085" lon="-1.721200"><ele>532.71002197</ele><time>2015-05-25T10:05:41Z</time></trkpt><trkpt lat="53.461055" lon="-1.721297"><ele>532.22998047</ele><time>2015-05-25T10:05:59Z</time></trkpt><trkpt lat="53.461029" lon="-1.721365"><ele>532.71002197</ele><time>2015-05-25T10:06:04Z</time></trkpt><trkpt lat="53.460975" lon="-1.721442"><ele>532.71002197</ele><time>2015-05-25T10:06:19Z</time></trkpt><trkpt lat="53.460952" lon="-1.721477"><ele>532.22998047</ele><time>2015-05-25T10:06:37Z</time></trkpt><trkpt lat="53.460942" lon="-1.721500"><ele>532.71002197</ele><time>2015-05-25T10:06:53Z</time></trkpt><trkpt lat="53.460946" lon="-1.721514"><ele>533.19000244</ele><time>2015-05-25T10:07:21Z</time></trkpt><trkpt lat="53.460951" lon="-1.721520"><ele>533.66998291</ele><time>2015-05-25T10:07:52Z</time></trkpt><trkpt lat="53.460952" lon="-1.721524"><ele>533.66998291</ele><time>2015-05-25T10:08:09Z</time></trkpt><trkpt lat="53.460985" lon="-1.721531"><ele>534.15002441</ele><time>2015-05-25T10:08:20Z</time></trkpt><trkpt lat="53.460981" lon="-1.721531"><ele>533.66998291</ele><time>2015-05-25T10:08:43Z</time></trkpt><trkpt lat="53.460980" lon="-1.721529"><ele>533.66998291</ele><time>2015-05-25T10:09:20Z</time></trkpt><trkpt lat="53.460980" lon="-1.721525"><ele>533.66998291</ele><time>2015-05-25T10:09:57Z</time></trkpt><trkpt lat="53.460978" lon="-1.721522"><ele>534.15002441</ele><time>2015-05-25T10:10:35Z</time></trkpt><trkpt lat="53.460979" lon="-1.721520"><ele>534.15002441</ele><time>2015-05-25T10:11:19Z</time></trkpt><trkpt lat="53.460979" lon="-1.721522"><ele>534.15002441</ele><time>2015-05-25T10:11:52Z</time></trkpt><trkpt lat="53.460979" lon="-1.721520"><ele>533.66998291</ele><time>2015-05-25T10:12:28Z</time></trkpt><trkpt lat="53.460986" lon="-1.721511"><ele>533.66998291</ele><time>2015-05-25T10:12:40Z</time></trkpt><trkpt lat="53.460981" lon="-1.721509"><ele>533.66998291</ele><time>2015-05-25T10:13:04Z</time></trkpt><trkpt lat="53.460977" lon="-1.721509"><ele>533.66998291</ele><time>2015-05-25T10:13:29Z</time></trkpt><trkpt lat="53.460980" lon="-1.721512"><ele>533.19000244</ele><time>2015-05-25T10:13:38Z</time></trkpt><trkpt lat="53.460982" lon="-1.721510"><ele>533.19000244</ele><time>2015-05-25T10:13:46Z</time></trkpt><trkpt lat="53.460981" lon="-1.721517"><ele>533.19000244</ele><time>2015-05-25T10:13:57Z</time></trkpt><trkpt lat="53.460981" lon="-1.721522"><ele>533.19000244</ele><time>2015-05-25T10:14:27Z</time></trkpt><trkpt lat="53.460981" lon="-1.721524"><ele>533.19000244</ele><time>2015-05-25T10:15:03Z</time></trkpt><trkpt lat="53.460982" lon="-1.721526"><ele>533.19000244</ele><time>2015-05-25T10:15:52Z</time></trkpt><trkpt lat="53.460981" lon="-1.721527"><ele>533.19000244</ele><time>2015-05-25T10:15:55Z</time></trkpt><trkpt lat="53.460986" lon="-1.721519"><ele>533.19000244</ele><time>2015-05-25T10:16:06Z</time></trkpt><trkpt lat="53.460999" lon="-1.721523"><ele>533.19000244</ele><time>2015-05-25T10:16:16Z</time></trkpt><trkpt lat="53.461072" lon="-1.721636"><ele>532.22998047</ele><time>2015-05-25T10:16:29Z</time></trkpt><trkpt lat="53.461157" lon="-1.721693"><ele>532.22998047</ele><time>2015-05-25T10:16:42Z</time></trkpt><trkpt lat="53.461167" lon="-1.721672"><ele>532.22998047</ele><time>2015-05-25T10:16:44Z</time></trkpt><trkpt lat="53.461222" lon="-1.721563"><ele>532.22998047</ele><time>2015-05-25T10:16:56Z</time></trkpt><trkpt lat="53.461227" lon="-1.721611"><ele>532.22998047</ele><time>2015-05-25T10:17:00Z</time></trkpt><trkpt lat="53.461232" lon="-1.721640"><ele>532.22998047</ele><time>2015-05-25T10:17:02Z</time></trkpt><trkpt lat="53.461287" lon="-1.721809"><ele>532.22998047</ele><time>2015-05-25T10:17:15Z</time></trkpt><trkpt lat="53.461298" lon="-1.721841"><ele>532.22998047</ele><time>2015-05-25T10:17:17Z</time></trkpt><trkpt lat="53.461326" lon="-1.721898"><ele>531.75</ele><time>2015-05-25T10:17:21Z</time></trkpt><trkpt lat="53.461459" lon="-1.721967"><ele>532.71002197</ele><time>2015-05-25T10:17:34Z</time></trkpt><trkpt lat="53.461537" lon="-1.721992"><ele>532.22998047</ele><time>2015-05-25T10:17:43Z</time></trkpt><trkpt lat="53.461563" lon="-1.721962"><ele>531.27001953</ele><time>2015-05-25T10:17:46Z</time></trkpt><trkpt lat="53.461610" lon="-1.721923"><ele>530.78997803</ele><time>2015-05-25T10:17:52Z</time></trkpt><trkpt lat="53.461652" lon="-1.721907"><ele>530.78997803</ele><time>2015-05-25T10:17:56Z</time></trkpt><trkpt lat="53.461676" lon="-1.721973"><ele>530.29998779</ele><time>2015-05-25T10:18:01Z</time></trkpt><trkpt lat="53.461704" lon="-1.722024"><ele>530.29998779</ele><time>2015-05-25T10:18:05Z</time></trkpt><trkpt lat="53.461734" lon="-1.722151"><ele>530.29998779</ele><time>2015-05-25T10:18:13Z</time></trkpt><trkpt lat="53.461861" lon="-1.722361"><ele>529.34002686</ele><time>2015-05-25T10:18:29Z</time></trkpt><trkpt lat="53.461986" lon="-1.722439"><ele>529.82000732</ele><time>2015-05-25T10:18:44Z</time></trkpt><trkpt lat="53.462018" lon="-1.722459"><ele>529.34002686</ele><time>2015-05-25T10:18:47Z</time></trkpt><trkpt lat="53.462178" lon="-1.722615"><ele>528.38000488</ele><time>2015-05-25T10:19:03Z</time></trkpt><trkpt lat="53.462188" lon="-1.722626"><ele>527.90002441</ele><time>2015-05-25T10:19:04Z</time></trkpt><trkpt lat="53.462225" lon="-1.722672"><ele>527.90002441</ele><time>2015-05-25T10:19:09Z</time></trkpt><trkpt lat="53.462294" lon="-1.722667"><ele>528.38000488</ele><time>2015-05-25T10:19:15Z</time></trkpt><trkpt lat="53.462411" lon="-1.722734"><ele>528.85998535</ele><time>2015-05-25T10:19:26Z</time></trkpt><trkpt lat="53.462473" lon="-1.722881"><ele>528.38000488</ele><time>2015-05-25T10:19:37Z</time></trkpt><trkpt lat="53.462551" lon="-1.722974"><ele>527.41998291</ele><time>2015-05-25T10:19:46Z</time></trkpt><trkpt lat="53.462593" lon="-1.723017"><ele>527.41998291</ele><time>2015-05-25T10:19:53Z</time></trkpt><trkpt lat="53.462599" lon="-1.723049"><ele>527.41998291</ele><time>2015-05-25T10:19:55Z</time></trkpt><trkpt lat="53.462636" lon="-1.723131"><ele>527.41998291</ele><time>2015-05-25T10:20:01Z</time></trkpt><trkpt lat="53.462762" lon="-1.723148"><ele>527.90002441</ele><time>2015-05-25T10:20:14Z</time></trkpt><trkpt lat="53.462782" lon="-1.723160"><ele>527.90002441</ele><time>2015-05-25T10:20:16Z</time></trkpt><trkpt lat="53.462934" lon="-1.723213"><ele>526.94000244</ele><time>2015-05-25T10:20:31Z</time></trkpt><trkpt lat="53.462942" lon="-1.723223"><ele>528.38000488</ele><time>2015-05-25T10:20:47Z</time></trkpt><trkpt lat="53.462942" lon="-1.723224"><ele>527.90002441</ele><time>2015-05-25T10:21:18Z</time></trkpt><trkpt lat="53.462970" lon="-1.723241"><ele>527.90002441</ele><time>2015-05-25T10:21:21Z</time></trkpt><trkpt lat="53.463001" lon="-1.723249"><ele>527.90002441</ele><time>2015-05-25T10:21:24Z</time></trkpt><trkpt lat="53.463027" lon="-1.723275"><ele>527.41998291</ele><time>2015-05-25T10:21:27Z</time></trkpt><trkpt lat="53.463173" lon="-1.723350"><ele>526.94000244</ele><time>2015-05-25T10:21:41Z</time></trkpt><trkpt lat="53.463183" lon="-1.723356"><ele>526.94000244</ele><time>2015-05-25T10:21:42Z</time></trkpt><trkpt lat="53.463238" lon="-1.723348"><ele>526.46002197</ele><time>2015-05-25T10:21:47Z</time></trkpt><trkpt lat="53.463266" lon="-1.723380"><ele>525.97998047</ele><time>2015-05-25T10:21:50Z</time></trkpt><trkpt lat="53.463369" lon="-1.723414"><ele>525.5</ele><time>2015-05-25T10:22:00Z</time></trkpt><trkpt lat="53.463530" lon="-1.723530"><ele>524.05999756</ele><time>2015-05-25T10:22:15Z</time></trkpt><trkpt lat="53.463604" lon="-1.723607"><ele>523.58001709</ele><time>2015-05-25T10:22:23Z</time></trkpt><trkpt lat="53.463651" lon="-1.723621"><ele>523.58001709</ele><time>2015-05-25T10:22:27Z</time></trkpt><trkpt lat="53.463774" lon="-1.723726"><ele>524.53997803</ele><time>2015-05-25T10:22:40Z</time></trkpt><trkpt lat="53.463910" lon="-1.723849"><ele>524.05999756</ele><time>2015-05-25T10:22:54Z</time></trkpt><trkpt lat="53.464079" lon="-1.724005"><ele>523.58001709</ele><time>2015-05-25T10:23:10Z</time></trkpt><trkpt lat="53.464173" lon="-1.724132"><ele>524.05999756</ele><time>2015-05-25T10:23:21Z</time></trkpt><trkpt lat="53.464214" lon="-1.724169"><ele>523.58001709</ele><time>2015-05-25T10:23:25Z</time></trkpt><trkpt lat="53.464325" lon="-1.724347"><ele>524.05999756</ele><time>2015-05-25T10:23:39Z</time></trkpt><trkpt lat="53.464360" lon="-1.724391"><ele>524.05999756</ele><time>2015-05-25T10:23:43Z</time></trkpt><trkpt lat="53.464448" lon="-1.724538"><ele>522.60998535</ele><time>2015-05-25T10:23:54Z</time></trkpt><trkpt lat="53.464568" lon="-1.724740"><ele>524.05999756</ele><time>2015-05-25T10:24:09Z</time></trkpt><trkpt lat="53.464588" lon="-1.724827"><ele>523.58001709</ele><time>2015-05-25T10:24:14Z</time></trkpt><trkpt lat="53.464595" lon="-1.724862"><ele>523.58001709</ele><time>2015-05-25T10:24:16Z</time></trkpt><trkpt lat="53.464593" lon="-1.724920"><ele>524.05999756</ele><time>2015-05-25T10:24:20Z</time></trkpt><trkpt lat="53.464572" lon="-1.724958"><ele>523.58001709</ele><time>2015-05-25T10:24:23Z</time></trkpt><trkpt lat="53.464575" lon="-1.725047"><ele>523.09002686</ele><time>2015-05-25T10:24:28Z</time></trkpt><trkpt lat="53.464595" lon="-1.725062"><ele>523.09002686</ele><time>2015-05-25T10:24:30Z</time></trkpt><trkpt lat="53.464685" lon="-1.725091"><ele>522.60998535</ele><time>2015-05-25T10:24:37Z</time></trkpt><trkpt lat="53.464763" lon="-1.725144"><ele>523.09002686</ele><time>2015-05-25T10:24:45Z</time></trkpt><trkpt lat="53.464840" lon="-1.725356"><ele>523.09002686</ele><time>2015-05-25T10:24:59Z</time></trkpt><trkpt lat="53.464860" lon="-1.725395"><ele>522.60998535</ele><time>2015-05-25T10:25:02Z</time></trkpt><trkpt lat="53.464859" lon="-1.725446"><ele>523.09002686</ele><time>2015-05-25T10:25:05Z</time></trkpt><trkpt lat="53.464858" lon="-1.725499"><ele>522.60998535</ele><time>2015-05-25T10:25:13Z</time></trkpt><trkpt lat="53.464857" lon="-1.725513"><ele>523.09002686</ele><time>2015-05-25T10:25:24Z</time></trkpt><trkpt lat="53.464878" lon="-1.725529"><ele>522.60998535</ele><time>2015-05-25T10:25:26Z</time></trkpt><trkpt lat="53.464926" lon="-1.725605"><ele>522.13000488</ele><time>2015-05-25T10:25:32Z</time></trkpt><trkpt lat="53.464984" lon="-1.725706"><ele>521.65002441</ele><time>2015-05-25T10:25:40Z</time></trkpt><trkpt lat="53.465061" lon="-1.725891"><ele>521.65002441</ele><time>2015-05-25T10:25:53Z</time></trkpt><trkpt lat="53.465076" lon="-1.725923"><ele>521.65002441</ele><time>2015-05-25T10:25:55Z</time></trkpt><trkpt lat="53.465132" lon="-1.726004"><ele>522.13000488</ele><time>2015-05-25T10:26:03Z</time></trkpt><trkpt lat="53.465163" lon="-1.726067"><ele>522.13000488</ele><time>2015-05-25T10:26:09Z</time></trkpt><trkpt lat="53.465240" lon="-1.726016"><ele>521.65002441</ele><time>2015-05-25T10:26:17Z</time></trkpt><trkpt lat="53.465263" lon="-1.726038"><ele>521.16998291</ele><time>2015-05-25T10:26:21Z</time></trkpt><trkpt lat="53.465262" lon="-1.726149"><ele>520.21002197</ele><time>2015-05-25T10:26:35Z</time></trkpt><trkpt lat="53.465231" lon="-1.726147"><ele>520.69000244</ele><time>2015-05-25T10:26:45Z</time></trkpt><trkpt lat="53.465198" lon="-1.726136"><ele>521.65002441</ele><time>2015-05-25T10:26:52Z</time></trkpt><trkpt lat="53.465171" lon="-1.726109"><ele>522.60998535</ele><time>2015-05-25T10:26:59Z</time></trkpt><trkpt lat="53.465138" lon="-1.726160"><ele>522.60998535</ele><time>2015-05-25T10:27:07Z</time></trkpt><trkpt lat="53.465127" lon="-1.726232"><ele>523.09002686</ele><time>2015-05-25T10:27:12Z</time></trkpt><trkpt lat="53.465095" lon="-1.726277"><ele>524.05999756</ele><time>2015-05-25T10:27:16Z</time></trkpt><trkpt lat="53.465078" lon="-1.726343"><ele>524.53997803</ele><time>2015-05-25T10:27:21Z</time></trkpt><trkpt lat="53.465186" lon="-1.726394"><ele>523.58001709</ele><time>2015-05-25T10:27:33Z</time></trkpt><trkpt lat="53.465194" lon="-1.726400"><ele>523.58001709</ele><time>2015-05-25T10:27:34Z</time></trkpt><trkpt lat="53.465226" lon="-1.726441"><ele>523.58001709</ele><time>2015-05-25T10:27:38Z</time></trkpt><trkpt lat="53.465263" lon="-1.726537"><ele>522.60998535</ele><time>2015-05-25T10:27:44Z</time></trkpt><trkpt lat="53.465295" lon="-1.726583"><ele>522.13000488</ele><time>2015-05-25T10:27:48Z</time></trkpt><trkpt lat="53.465363" lon="-1.726686"><ele>522.60998535</ele><time>2015-05-25T10:27:57Z</time></trkpt><trkpt lat="53.465388" lon="-1.726785"><ele>523.09002686</ele><time>2015-05-25T10:28:03Z</time></trkpt><trkpt lat="53.465464" lon="-1.727058"><ele>522.60998535</ele><time>2015-05-25T10:28:19Z</time></trkpt><trkpt lat="53.465494" lon="-1.727178"><ele>522.13000488</ele><time>2015-05-25T10:28:26Z</time></trkpt><trkpt lat="53.465517" lon="-1.727245"><ele>522.13000488</ele><time>2015-05-25T10:28:30Z</time></trkpt><trkpt lat="53.465547" lon="-1.727389"><ele>522.13000488</ele><time>2015-05-25T10:28:38Z</time></trkpt><trkpt lat="53.465581" lon="-1.727431"><ele>522.60998535</ele><time>2015-05-25T10:28:42Z</time></trkpt><trkpt lat="53.465597" lon="-1.727521"><ele>523.09002686</ele><time>2015-05-25T10:28:47Z</time></trkpt><trkpt lat="53.465662" lon="-1.727680"><ele>523.09002686</ele><time>2015-05-25T10:28:57Z</time></trkpt><trkpt lat="53.465671" lon="-1.727722"><ele>523.09002686</ele><time>2015-05-25T10:29:00Z</time></trkpt><trkpt lat="53.465683" lon="-1.727860"><ele>522.60998535</ele><time>2015-05-25T10:29:08Z</time></trkpt><trkpt lat="53.465707" lon="-1.727885"><ele>522.60998535</ele><time>2015-05-25T10:29:11Z</time></trkpt><trkpt lat="53.465770" lon="-1.727872"><ele>523.09002686</ele><time>2015-05-25T10:29:17Z</time></trkpt><trkpt lat="53.465866" lon="-1.727951"><ele>524.05999756</ele><time>2015-05-25T10:29:36Z</time></trkpt><trkpt lat="53.465919" lon="-1.728017"><ele>525.02001953</ele><time>2015-05-25T10:29:48Z</time></trkpt><trkpt lat="53.466014" lon="-1.728154"><ele>525.02001953</ele><time>2015-05-25T10:29:59Z</time></trkpt><trkpt lat="53.466037" lon="-1.728168"><ele>525.5</ele><time>2015-05-25T10:30:01Z</time></trkpt><trkpt lat="53.466130" lon="-1.728253"><ele>525.97998047</ele><time>2015-05-25T10:30:10Z</time></trkpt><trkpt lat="53.466217" lon="-1.728408"><ele>526.46002197</ele><time>2015-05-25T10:30:21Z</time></trkpt><trkpt lat="53.466284" lon="-1.728562"><ele>527.41998291</ele><time>2015-05-25T10:30:32Z</time></trkpt><trkpt lat="53.466289" lon="-1.728660"><ele>527.90002441</ele><time>2015-05-25T10:30:38Z</time></trkpt><trkpt lat="53.466286" lon="-1.728777"><ele>528.38000488</ele><time>2015-05-25T10:30:45Z</time></trkpt><trkpt lat="53.466316" lon="-1.728891"><ele>527.90002441</ele><time>2015-05-25T10:30:53Z</time></trkpt><trkpt lat="53.466375" lon="-1.728949"><ele>528.85998535</ele><time>2015-05-25T10:30:59Z</time></trkpt><trkpt lat="53.466407" lon="-1.729036"><ele>528.85998535</ele><time>2015-05-25T10:31:04Z</time></trkpt><trkpt lat="53.466477" lon="-1.729321"><ele>529.34002686</ele><time>2015-05-25T10:31:20Z</time></trkpt><trkpt lat="53.466529" lon="-1.729557"><ele>530.29998779</ele><time>2015-05-25T10:31:34Z</time></trkpt><trkpt lat="53.466533" lon="-1.729699"><ele>531.27001953</ele><time>2015-05-25T10:31:42Z</time></trkpt><trkpt lat="53.466574" lon="-1.729826"><ele>531.75</ele><time>2015-05-25T10:31:50Z</time></trkpt><trkpt lat="53.466693" lon="-1.729907"><ele>531.27001953</ele><time>2015-05-25T10:32:02Z</time></trkpt><trkpt lat="53.466748" lon="-1.729903"><ele>532.71002197</ele><time>2015-05-25T10:32:13Z</time></trkpt><trkpt lat="53.466774" lon="-1.729920"><ele>533.19000244</ele><time>2015-05-25T10:32:30Z</time></trkpt><trkpt lat="53.466784" lon="-1.729942"><ele>533.19000244</ele><time>2015-05-25T10:32:41Z</time></trkpt><trkpt lat="53.466805" lon="-1.729979"><ele>532.71002197</ele><time>2015-05-25T10:32:57Z</time></trkpt><trkpt lat="53.466784" lon="-1.730005"><ele>532.71002197</ele><time>2015-05-25T10:33:16Z</time></trkpt><trkpt lat="53.466786" lon="-1.730009"><ele>532.71002197</ele><time>2015-05-25T10:33:34Z</time></trkpt><trkpt lat="53.466782" lon="-1.730043"><ele>532.71002197</ele><time>2015-05-25T10:33:36Z</time></trkpt><trkpt lat="53.466788" lon="-1.730075"><ele>532.71002197</ele><time>2015-05-25T10:33:38Z</time></trkpt><trkpt lat="53.466768" lon="-1.730132"><ele>532.71002197</ele><time>2015-05-25T10:33:42Z</time></trkpt><trkpt lat="53.466771" lon="-1.730194"><ele>532.71002197</ele><time>2015-05-25T10:33:46Z</time></trkpt><trkpt lat="53.466843" lon="-1.730289"><ele>533.66998291</ele><time>2015-05-25T10:33:55Z</time></trkpt><trkpt lat="53.466942" lon="-1.730492"><ele>534.63000488</ele><time>2015-05-25T10:34:10Z</time></trkpt><trkpt lat="53.466984" lon="-1.730603"><ele>535.10998535</ele><time>2015-05-25T10:34:18Z</time></trkpt><trkpt lat="53.466994" lon="-1.730638"><ele>535.10998535</ele><time>2015-05-25T10:34:20Z</time></trkpt><trkpt lat="53.467013" lon="-1.730667"><ele>535.10998535</ele><time>2015-05-25T10:34:23Z</time></trkpt><trkpt lat="53.467034" lon="-1.730687"><ele>535.10998535</ele><time>2015-05-25T10:34:26Z</time></trkpt><trkpt lat="53.467068" lon="-1.730734"><ele>535.59002686</ele><time>2015-05-25T10:34:31Z</time></trkpt><trkpt lat="53.467094" lon="-1.730779"><ele>536.07000732</ele><time>2015-05-25T10:34:35Z</time></trkpt><trkpt lat="53.467096" lon="-1.730814"><ele>536.07000732</ele><time>2015-05-25T10:34:37Z</time></trkpt><trkpt lat="53.467220" lon="-1.731033"><ele>536.07000732</ele><time>2015-05-25T10:34:54Z</time></trkpt><trkpt lat="53.46724" lon="-1.731110"><ele>536.54998779</ele><time>2015-05-25T10:34:59Z</time></trkpt><trkpt lat="53.467294" lon="-1.731269"><ele>536.07000732</ele><time>2015-05-25T10:35:10Z</time></trkpt><trkpt lat="53.467320" lon="-1.731329"><ele>536.07000732</ele><time>2015-05-25T10:35:14Z</time></trkpt><trkpt lat="53.467351" lon="-1.731327"><ele>536.54998779</ele><time>2015-05-25T10:35:17Z</time></trkpt><trkpt lat="53.467482" lon="-1.731348"><ele>539.44000244</ele><time>2015-05-25T10:35:30Z</time></trkpt><trkpt lat="53.467501" lon="-1.731405"><ele>539.44000244</ele><time>2015-05-25T10:35:34Z</time></trkpt><trkpt lat="53.467520" lon="-1.731544"><ele>539.91998291</ele><time>2015-05-25T10:35:43Z</time></trkpt><trkpt lat="53.467546" lon="-1.731648"><ele>540.40002441</ele><time>2015-05-25T10:35:50Z</time></trkpt><trkpt lat="53.467555" lon="-1.731718"><ele>539.44000244</ele><time>2015-05-25T10:35:54Z</time></trkpt><trkpt lat="53.467567" lon="-1.731796"><ele>538.47998047</ele><time>2015-05-25T10:35:59Z</time></trkpt><trkpt lat="53.467652" lon="-1.732052"><ele>537.98999023</ele><time>2015-05-25T10:36:15Z</time></trkpt><trkpt lat="53.467670" lon="-1.732078"><ele>537.98999023</ele><time>2015-05-25T10:36:17Z</time></trkpt><trkpt lat="53.467797" lon="-1.732262"><ele>537.98999023</ele><time>2015-05-25T10:36:32Z</time></trkpt><trkpt lat="53.467864" lon="-1.732423"><ele>537.98999023</ele><time>2015-05-25T10:36:43Z</time></trkpt><trkpt lat="53.467919" lon="-1.732529"><ele>539.91998291</ele><time>2015-05-25T10:36:51Z</time></trkpt><trkpt lat="53.467960" lon="-1.732662"><ele>539.91998291</ele><time>2015-05-25T10:36:59Z</time></trkpt><trkpt lat="53.467988" lon="-1.732718"><ele>540.40002441</ele><time>2015-05-25T10:37:03Z</time></trkpt><trkpt lat="53.468025" lon="-1.732799"><ele>541.35998535</ele><time>2015-05-25T10:37:09Z</time></trkpt><trkpt lat="53.468141" lon="-1.733028"><ele>542.79998779</ele><time>2015-05-25T10:37:25Z</time></trkpt><trkpt lat="53.468248" lon="-1.733323"><ele>543.76000977</ele><time>2015-05-25T10:37:43Z</time></trkpt><trkpt lat="53.468266" lon="-1.733351"><ele>543.76000977</ele><time>2015-05-25T10:37:45Z</time></trkpt><trkpt lat="53.468278" lon="-1.733380"><ele>543.76000977</ele><time>2015-05-25T10:37:47Z</time></trkpt><trkpt lat="53.468383" lon="-1.733562"><ele>545.20001221</ele><time>2015-05-25T10:38:01Z</time></trkpt><trkpt lat="53.468398" lon="-1.733626"><ele>546.16998291</ele><time>2015-05-25T10:38:06Z</time></trkpt><trkpt lat="53.468414" lon="-1.733648"><ele>546.16998291</ele><time>2015-05-25T10:38:08Z</time></trkpt><trkpt lat="53.468491" lon="-1.733723"><ele>546.65002441</ele><time>2015-05-25T10:38:16Z</time></trkpt><trkpt lat="53.468514" lon="-1.733806"><ele>547.13000488</ele><time>2015-05-25T10:38:21Z</time></trkpt><trkpt lat="53.468538" lon="-1.733839"><ele>547.13000488</ele><time>2015-05-25T10:38:24Z</time></trkpt><trkpt lat="53.468612" lon="-1.733859"><ele>547.13000488</ele><time>2015-05-25T10:38:31Z</time></trkpt><trkpt lat="53.468630" lon="-1.733879"><ele>547.13000488</ele><time>2015-05-25T10:38:33Z</time></trkpt><trkpt lat="53.468689" lon="-1.734071"><ele>547.13000488</ele><time>2015-05-25T10:38:45Z</time></trkpt><trkpt lat="53.468756" lon="-1.734111"><ele>547.60998535</ele><time>2015-05-25T10:38:51Z</time></trkpt><trkpt lat="53.468823" lon="-1.734262"><ele>547.13000488</ele><time>2015-05-25T10:39:02Z</time></trkpt><trkpt lat="53.468921" lon="-1.734386"><ele>546.16998291</ele><time>2015-05-25T10:39:13Z</time></trkpt><trkpt lat="53.469064" lon="-1.734584"><ele>547.13000488</ele><time>2015-05-25T10:39:30Z</time></trkpt><trkpt lat="53.469130" lon="-1.734642"><ele>546.65002441</ele><time>2015-05-25T10:39:42Z</time></trkpt><trkpt lat="53.469197" lon="-1.734715"><ele>544.7199707</ele><time>2015-05-25T10:39:55Z</time></trkpt><trkpt lat="53.469208" lon="-1.734723"><ele>544.7199707</ele><time>2015-05-25T10:40:10Z</time></trkpt><trkpt lat="53.469215" lon="-1.734727"><ele>545.69000244</ele><time>2015-05-25T10:40:32Z</time></trkpt><trkpt lat="53.469219" lon="-1.734726"><ele>546.16998291</ele><time>2015-05-25T10:41:06Z</time></trkpt><trkpt lat="53.469220" lon="-1.734730"><ele>546.65002441</ele><time>2015-05-25T10:41:37Z</time></trkpt><trkpt lat="53.469220" lon="-1.734727"><ele>545.69000244</ele><time>2015-05-25T10:42:08Z</time></trkpt><trkpt lat="53.469200" lon="-1.734733"><ele>545.20001221</ele><time>2015-05-25T10:42:22Z</time></trkpt><trkpt lat="53.469200" lon="-1.734737"><ele>545.20001221</ele><time>2015-05-25T10:42:41Z</time></trkpt><trkpt lat="53.469254" lon="-1.734819"><ele>544.7199707</ele><time>2015-05-25T10:42:51Z</time></trkpt><trkpt lat="53.469295" lon="-1.734841"><ele>544.7199707</ele><time>2015-05-25T10:42:55Z</time></trkpt><trkpt lat="53.469447" lon="-1.734929"><ele>545.69000244</ele><time>2015-05-25T10:43:09Z</time></trkpt><trkpt lat="53.469572" lon="-1.735059"><ele>544.7199707</ele><time>2015-05-25T10:43:23Z</time></trkpt><trkpt lat="53.469639" lon="-1.735088"><ele>544.23999023</ele><time>2015-05-25T10:43:34Z</time></trkpt><trkpt lat="53.469681" lon="-1.735141"><ele>545.20001221</ele><time>2015-05-25T10:43:39Z</time></trkpt><trkpt lat="53.469826" lon="-1.735326"><ele>544.23999023</ele><time>2015-05-25T10:43:55Z</time></trkpt><trkpt lat="53.469857" lon="-1.735352"><ele>544.23999023</ele><time>2015-05-25T10:43:58Z</time></trkpt><trkpt lat="53.469922" lon="-1.735383"><ele>544.7199707</ele><time>2015-05-25T10:44:04Z</time></trkpt><trkpt lat="53.470000" lon="-1.735420"><ele>543.2800293</ele><time>2015-05-25T10:44:11Z</time></trkpt><trkpt lat="53.470029" lon="-1.735450"><ele>542.79998779</ele><time>2015-05-25T10:44:14Z</time></trkpt><trkpt lat="53.470127" lon="-1.735496"><ele>540.88000488</ele><time>2015-05-25T10:44:23Z</time></trkpt><trkpt lat="53.470172" lon="-1.735499"><ele>540.40002441</ele><time>2015-05-25T10:44:27Z</time></trkpt><trkpt lat="53.470217" lon="-1.735504"><ele>540.40002441</ele><time>2015-05-25T10:44:31Z</time></trkpt><trkpt lat="53.470375" lon="-1.735641"><ele>539.44000244</ele><time>2015-05-25T10:44:47Z</time></trkpt><trkpt lat="53.470523" lon="-1.735675"><ele>538.47998047</ele><time>2015-05-25T10:45:00Z</time></trkpt><trkpt lat="53.470676" lon="-1.735706"><ele>538.47998047</ele><time>2015-05-25T10:45:13Z</time></trkpt><trkpt lat="53.470750" lon="-1.735748"><ele>537.98999023</ele><time>2015-05-25T10:45:20Z</time></trkpt><trkpt lat="53.470817" lon="-1.735684"><ele>537.98999023</ele><time>2015-05-25T10:45:27Z</time></trkpt><trkpt lat="53.471040" lon="-1.735646"><ele>536.07000732</ele><time>2015-05-25T10:45:46Z</time></trkpt><trkpt lat="53.471125" lon="-1.735661"><ele>534.63000488</ele><time>2015-05-25T10:45:53Z</time></trkpt><trkpt lat="53.471290" lon="-1.735663"><ele>533.19000244</ele><time>2015-05-25T10:46:07Z</time></trkpt><trkpt lat="53.471350" lon="-1.735671"><ele>532.71002197</ele><time>2015-05-25T10:46:12Z</time></trkpt><trkpt lat="53.471410" lon="-1.735665"><ele>532.22998047</ele><time>2015-05-25T10:46:17Z</time></trkpt><trkpt lat="53.471455" lon="-1.735682"><ele>531.75</ele><time>2015-05-25T10:46:21Z</time></trkpt><trkpt lat="53.471607" lon="-1.735761"><ele>529.82000732</ele><time>2015-05-25T10:46:34Z</time></trkpt><trkpt lat="53.471686" lon="-1.735799"><ele>530.78997803</ele><time>2015-05-25T10:46:41Z</time></trkpt><trkpt lat="53.471802" lon="-1.735801"><ele>530.29998779</ele><time>2015-05-25T10:46:51Z</time></trkpt><trkpt lat="53.471976" lon="-1.735881"><ele>529.34002686</ele><time>2015-05-25T10:47:06Z</time></trkpt><trkpt lat="53.472131" lon="-1.735882"><ele>527.90002441</ele><time>2015-05-25T10:47:20Z</time></trkpt><trkpt lat="53.472263" lon="-1.735875"><ele>526.94000244</ele><time>2015-05-25T10:47:31Z</time></trkpt><trkpt lat="53.472392" lon="-1.735896"><ele>526.46002197</ele><time>2015-05-25T10:47:42Z</time></trkpt><trkpt lat="53.472425" lon="-1.735888"><ele>526.46002197</ele><time>2015-05-25T10:47:45Z</time></trkpt><trkpt lat="53.472458" lon="-1.735897"><ele>526.94000244</ele><time>2015-05-25T10:47:48Z</time></trkpt><trkpt lat="53.472514" lon="-1.735909"><ele>525.97998047</ele><time>2015-05-25T10:47:53Z</time></trkpt><trkpt lat="53.472550" lon="-1.735959"><ele>525.97998047</ele><time>2015-05-25T10:47:57Z</time></trkpt><trkpt lat="53.472551" lon="-1.735992"><ele>525.97998047</ele><time>2015-05-25T10:47:59Z</time></trkpt><trkpt lat="53.472659" lon="-1.736020"><ele>525.5</ele><time>2015-05-25T10:48:09Z</time></trkpt><trkpt lat="53.472744" lon="-1.736032"><ele>525.02001953</ele><time>2015-05-25T10:48:16Z</time></trkpt><trkpt lat="53.472842" lon="-1.736037"><ele>522.60998535</ele><time>2015-05-25T10:48:25Z</time></trkpt><trkpt lat="53.472958" lon="-1.736019"><ele>522.13000488</ele><time>2015-05-25T10:48:36Z</time></trkpt><trkpt lat="53.473026" lon="-1.736030"><ele>520.69000244</ele><time>2015-05-25T10:48:42Z</time></trkpt><trkpt lat="53.473057" lon="-1.736032"><ele>519.72998047</ele><time>2015-05-25T10:48:45Z</time></trkpt><trkpt lat="53.473139" lon="-1.736019"><ele>519.72998047</ele><time>2015-05-25T10:48:52Z</time></trkpt><trkpt lat="53.473185" lon="-1.736018"><ele>519.72998047</ele><time>2015-05-25T10:48:56Z</time></trkpt><trkpt lat="53.473250" lon="-1.736013"><ele>518.77001953</ele><time>2015-05-25T10:49:11Z</time></trkpt><trkpt lat="53.473261" lon="-1.736015"><ele>519.25</ele><time>2015-05-25T10:49:45Z</time></trkpt><trkpt lat="53.473454" lon="-1.736114"><ele>519.25</ele><time>2015-05-25T10:50:02Z</time></trkpt><trkpt lat="53.473538" lon="-1.736096"><ele>518.77001953</ele><time>2015-05-25T10:50:09Z</time></trkpt><trkpt lat="53.473610" lon="-1.736055"><ele>520.21002197</ele><time>2015-05-25T10:50:15Z</time></trkpt><trkpt lat="53.473715" lon="-1.736067"><ele>519.72998047</ele><time>2015-05-25T10:50:24Z</time></trkpt><trkpt lat="53.473764" lon="-1.736070"><ele>520.21002197</ele><time>2015-05-25T10:50:28Z</time></trkpt><trkpt lat="53.473890" lon="-1.736138"><ele>518.77001953</ele><time>2015-05-25T10:50:39Z</time></trkpt><trkpt lat="53.473908" lon="-1.736160"><ele>518.77001953</ele><time>2015-05-25T10:50:41Z</time></trkpt><trkpt lat="53.473972" lon="-1.736168"><ele>519.25</ele><time>2015-05-25T10:50:47Z</time></trkpt><trkpt lat="53.474028" lon="-1.736149"><ele>519.72998047</ele><time>2015-05-25T10:50:52Z</time></trkpt><trkpt lat="53.474053" lon="-1.736150"><ele>519.72998047</ele><time>2015-05-25T10:50:54Z</time></trkpt><trkpt lat="53.474110" lon="-1.736091"><ele>519.25</ele><time>2015-05-25T10:51:00Z</time></trkpt><trkpt lat="53.474254" lon="-1.736151"><ele>517.80999756</ele><time>2015-05-25T10:51:13Z</time></trkpt><trkpt lat="53.474348" lon="-1.736145"><ele>518.28997803</ele><time>2015-05-25T10:51:21Z</time></trkpt><trkpt lat="53.474383" lon="-1.736175"><ele>517.33001709</ele><time>2015-05-25T10:51:25Z</time></trkpt><trkpt lat="53.474512" lon="-1.736203"><ele>517.33001709</ele><time>2015-05-25T10:51:37Z</time></trkpt><trkpt lat="53.474505" lon="-1.736317"><ele>516.36999512</ele><time>2015-05-25T10:51:44Z</time></trkpt><trkpt lat="53.474521" lon="-1.736340"><ele>515.88000488</ele><time>2015-05-25T10:51:46Z</time></trkpt><trkpt lat="53.474641" lon="-1.736320"><ele>514.44000244</ele><time>2015-05-25T10:51:56Z</time></trkpt><trkpt lat="53.474700" lon="-1.736295"><ele>514.91998291</ele><time>2015-05-25T10:52:01Z</time></trkpt><trkpt lat="53.474746" lon="-1.736302"><ele>515.40002441</ele><time>2015-05-25T10:52:05Z</time></trkpt><trkpt lat="53.474787" lon="-1.736330"><ele>514.44000244</ele><time>2015-05-25T10:52:09Z</time></trkpt><trkpt lat="53.474851" lon="-1.736414"><ele>513.96002197</ele><time>2015-05-25T10:52:16Z</time></trkpt><trkpt lat="53.474869" lon="-1.736464"><ele>513</ele><time>2015-05-25T10:52:20Z</time></trkpt><trkpt lat="53.475057" lon="-1.736497"><ele>512.03997803</ele><time>2015-05-25T10:52:36Z</time></trkpt><trkpt lat="53.475121" lon="-1.736529"><ele>511.07998657</ele><time>2015-05-25T10:52:43Z</time></trkpt><trkpt lat="53.475135" lon="-1.736494"><ele>510.6000061</ele><time>2015-05-25T10:52:46Z</time></trkpt><trkpt lat="53.475134" lon="-1.736461"><ele>510.6000061</ele><time>2015-05-25T10:53:03Z</time></trkpt><trkpt lat="53.475140" lon="-1.736450"><ele>511.07998657</ele><time>2015-05-25T10:53:14Z</time></trkpt><trkpt lat="53.475134" lon="-1.736480"><ele>511.07998657</ele><time>2015-05-25T10:53:24Z</time></trkpt><trkpt lat="53.475103" lon="-1.736547"><ele>511.07998657</ele><time>2015-05-25T10:53:33Z</time></trkpt><trkpt lat="53.475084" lon="-1.736526"><ele>511.07998657</ele><time>2015-05-25T10:53:47Z</time></trkpt><trkpt lat="53.475124" lon="-1.736520"><ele>510.6000061</ele><time>2015-05-25T10:53:54Z</time></trkpt><trkpt lat="53.475131" lon="-1.736476"><ele>510.6000061</ele><time>2015-05-25T10:54:08Z</time></trkpt><trkpt lat="53.475132" lon="-1.736476"><ele>511.07998657</ele><time>2015-05-25T10:54:28Z</time></trkpt><trkpt lat="53.475132" lon="-1.736479"><ele>511.07998657</ele><time>2015-05-25T10:54:54Z</time></trkpt><trkpt lat="53.475133" lon="-1.736482"><ele>511.07998657</ele><time>2015-05-25T10:55:23Z</time></trkpt><trkpt lat="53.475132" lon="-1.736479"><ele>511.07998657</ele><time>2015-05-25T10:55:39Z</time></trkpt><trkpt lat="53.475132" lon="-1.736483"><ele>511.55999756</ele><time>2015-05-25T10:55:52Z</time></trkpt><trkpt lat="53.475131" lon="-1.736485"><ele>511.55999756</ele><time>2015-05-25T10:56:07Z</time></trkpt><trkpt lat="53.475131" lon="-1.736484"><ele>511.55999756</ele><time>2015-05-25T10:56:32Z</time></trkpt><trkpt lat="53.475103" lon="-1.736436"><ele>512.03997803</ele><time>2015-05-25T10:56:57Z</time></trkpt><trkpt lat="53.475113" lon="-1.736354"><ele>513.47998047</ele><time>2015-05-25T10:57:22Z</time></trkpt><trkpt lat="53.475129" lon="-1.736485"><ele>513</ele><time>2015-05-25T10:57:45Z</time></trkpt><trkpt lat="53.475129" lon="-1.736488"><ele>513</ele><time>2015-05-25T10:57:46Z</time></trkpt><trkpt lat="53.475136" lon="-1.736497"><ele>512.52001953</ele><time>2015-05-25T10:57:59Z</time></trkpt><trkpt lat="53.475134" lon="-1.736493"><ele>513</ele><time>2015-05-25T10:58:15Z</time></trkpt><trkpt lat="53.475127" lon="-1.736491"><ele>513</ele><time>2015-05-25T10:58:28Z</time></trkpt><trkpt lat="53.475129" lon="-1.736486"><ele>512.52001953</ele><time>2015-05-25T10:58:36Z</time></trkpt><trkpt lat="53.475129" lon="-1.736487"><ele>512.52001953</ele><time>2015-05-25T10:58:39Z</time></trkpt><trkpt lat="53.475159" lon="-1.736479"><ele>512.03997803</ele><time>2015-05-25T10:58:42Z</time></trkpt><trkpt lat="53.475177" lon="-1.736462"><ele>512.03997803</ele><time>2015-05-25T10:58:44Z</time></trkpt><trkpt lat="53.475234" lon="-1.736476"><ele>511.55999756</ele><time>2015-05-25T10:58:49Z</time></trkpt><trkpt lat="53.475427" lon="-1.736658"><ele>510.11999512</ele><time>2015-05-25T10:59:07Z</time></trkpt><trkpt lat="53.475588" lon="-1.736856"><ele>508.19000244</ele><time>2015-05-25T10:59:23Z</time></trkpt><trkpt lat="53.475761" lon="-1.737027"><ele>506.75</ele><time>2015-05-25T10:59:39Z</time></trkpt><trkpt lat="53.475975" lon="-1.737199"><ele>505.79000854</ele><time>2015-05-25T10:59:58Z</time></trkpt><trkpt lat="53.476156" lon="-1.737377"><ele>505.30999756</ele><time>2015-05-25T11:00:15Z</time></trkpt><trkpt lat="53.476319" lon="-1.737536"><ele>505.30999756</ele><time>2015-05-25T11:00:31Z</time></trkpt><trkpt lat="53.476498" lon="-1.737728"><ele>504.82998657</ele><time>2015-05-25T11:00:49Z</time></trkpt><trkpt lat="53.476659" lon="-1.737902"><ele>504.82998657</ele><time>2015-05-25T11:01:05Z</time></trkpt><trkpt lat="53.476817" lon="-1.738090"><ele>502.91000366</ele><time>2015-05-25T11:01:21Z</time></trkpt><trkpt lat="53.476878" lon="-1.738174"><ele>502.91000366</ele><time>2015-05-25T11:01:34Z</time></trkpt><trkpt lat="53.476883" lon="-1.738191"><ele>502.42999268</ele><time>2015-05-25T11:01:51Z</time></trkpt><trkpt lat="53.476885" lon="-1.738191"><ele>502.42999268</ele><time>2015-05-25T11:02:08Z</time></trkpt><trkpt lat="53.476886" lon="-1.738189"><ele>502.42999268</ele><time>2015-05-25T11:02:42Z</time></trkpt><trkpt lat="53.476911" lon="-1.738233"><ele>501.95001221</ele><time>2015-05-25T11:02:58Z</time></trkpt><trkpt lat="53.477052" lon="-1.738377"><ele>500.98001099</ele><time>2015-05-25T11:03:12Z</time></trkpt><trkpt lat="53.477180" lon="-1.738466"><ele>500.5</ele><time>2015-05-25T11:03:24Z</time></trkpt><trkpt lat="53.477229" lon="-1.738491"><ele>500.01998901</ele><time>2015-05-25T11:03:28Z</time></trkpt><trkpt lat="53.477273" lon="-1.738525"><ele>499.54000854</ele><time>2015-05-25T11:03:32Z</time></trkpt><trkpt lat="53.477308" lon="-1.738542"><ele>499.54000854</ele><time>2015-05-25T11:03:35Z</time></trkpt><trkpt lat="53.477338" lon="-1.738556"><ele>500.01998901</ele><time>2015-05-25T11:03:38Z</time></trkpt><trkpt lat="53.477355" lon="-1.738574"><ele>500.01998901</ele><time>2015-05-25T11:03:40Z</time></trkpt><trkpt lat="53.477422" lon="-1.738676"><ele>500.01998901</ele><time>2015-05-25T11:03:48Z</time></trkpt><trkpt lat="53.477484" lon="-1.738804"><ele>499.05999756</ele><time>2015-05-25T11:03:57Z</time></trkpt><trkpt lat="53.477502" lon="-1.738813"><ele>498.57998657</ele><time>2015-05-25T11:03:59Z</time></trkpt><trkpt lat="53.477522" lon="-1.738821"><ele>498.57998657</ele><time>2015-05-25T11:04:01Z</time></trkpt><trkpt lat="53.477538" lon="-1.738858"><ele>498.1000061</ele><time>2015-05-25T11:04:18Z</time></trkpt><trkpt lat="53.477539" lon="-1.738861"><ele>497.61999512</ele><time>2015-05-25T11:04:40Z</time></trkpt><trkpt lat="53.477548" lon="-1.738890"><ele>497.14001465</ele><time>2015-05-25T11:05:04Z</time></trkpt><trkpt lat="53.477574" lon="-1.738946"><ele>496.66000366</ele><time>2015-05-25T11:05:12Z</time></trkpt><trkpt lat="53.477605" lon="-1.739016"><ele>498.1000061</ele><time>2015-05-25T11:05:19Z</time></trkpt><trkpt lat="53.477627" lon="-1.739017"><ele>497.61999512</ele><time>2015-05-25T11:05:21Z</time></trkpt><trkpt lat="53.477647" lon="-1.739029"><ele>497.14001465</ele><time>2015-05-25T11:05:23Z</time></trkpt><trkpt lat="53.477677" lon="-1.739028"><ele>497.61999512</ele><time>2015-05-25T11:05:26Z</time></trkpt><trkpt lat="53.477724" lon="-1.739074"><ele>497.14001465</ele><time>2015-05-25T11:05:31Z</time></trkpt><trkpt lat="53.477798" lon="-1.739160"><ele>495.70001221</ele><time>2015-05-25T11:05:41Z</time></trkpt><trkpt lat="53.477825" lon="-1.739249"><ele>495.22000122</ele><time>2015-05-25T11:05:47Z</time></trkpt><trkpt lat="53.477816" lon="-1.739282"><ele>494.73999023</ele><time>2015-05-25T11:05:49Z</time></trkpt><trkpt lat="53.477815" lon="-1.739331"><ele>494.73999023</ele><time>2015-05-25T11:05:52Z</time></trkpt><trkpt lat="53.477826" lon="-1.739440"><ele>494.26000977</ele><time>2015-05-25T11:06:02Z</time></trkpt><trkpt lat="53.477843" lon="-1.739512"><ele>494.73999023</ele><time>2015-05-25T11:06:07Z</time></trkpt><trkpt lat="53.477915" lon="-1.739585"><ele>494.26000977</ele><time>2015-05-25T11:06:19Z</time></trkpt><trkpt lat="53.477948" lon="-1.739679"><ele>494.73999023</ele><time>2015-05-25T11:06:27Z</time></trkpt><trkpt lat="53.477954" lon="-1.739689"><ele>494.73999023</ele><time>2015-05-25T11:06:28Z</time></trkpt><trkpt lat="53.478060" lon="-1.739745"><ele>494.73999023</ele><time>2015-05-25T11:06:38Z</time></trkpt><trkpt lat="53.478117" lon="-1.739834"><ele>493.76998901</ele><time>2015-05-25T11:06:45Z</time></trkpt><trkpt lat="53.478142" lon="-1.739950"><ele>493.76998901</ele><time>2015-05-25T11:07:00Z</time></trkpt><trkpt lat="53.478144" lon="-1.739944"><ele>493.76998901</ele><time>2015-05-25T11:07:16Z</time></trkpt><trkpt lat="53.478147" lon="-1.739944"><ele>493.76998901</ele><time>2015-05-25T11:07:41Z</time></trkpt><trkpt lat="53.478151" lon="-1.739944"><ele>493.29000854</ele><time>2015-05-25T11:08:06Z</time></trkpt><trkpt lat="53.478150" lon="-1.739947"><ele>493.76998901</ele><time>2015-05-25T11:08:27Z</time></trkpt><trkpt lat="53.478151" lon="-1.739949"><ele>493.76998901</ele><time>2015-05-25T11:08:50Z</time></trkpt><trkpt lat="53.478152" lon="-1.739984"><ele>493.76998901</ele><time>2015-05-25T11:09:02Z</time></trkpt><trkpt lat="53.478154" lon="-1.739992"><ele>494.26000977</ele><time>2015-05-25T11:09:12Z</time></trkpt><trkpt lat="53.478277" lon="-1.740162"><ele>494.26000977</ele><time>2015-05-25T11:09:27Z</time></trkpt><trkpt lat="53.478294" lon="-1.740184"><ele>493.76998901</ele><time>2015-05-25T11:09:29Z</time></trkpt><trkpt lat="53.478386" lon="-1.740276"><ele>493.29000854</ele><time>2015-05-25T11:09:44Z</time></trkpt><trkpt lat="53.478391" lon="-1.740287"><ele>493.29000854</ele><time>2015-05-25T11:09:45Z</time></trkpt><trkpt lat="53.478397" lon="-1.740380"><ele>493.76998901</ele><time>2015-05-25T11:09:51Z</time></trkpt><trkpt lat="53.478421" lon="-1.740604"><ele>494.26000977</ele><time>2015-05-25T11:10:05Z</time></trkpt><trkpt lat="53.478421" lon="-1.740621"><ele>494.26000977</ele><time>2015-05-25T11:10:06Z</time></trkpt><trkpt lat="53.478423" lon="-1.740727"><ele>493.76998901</ele><time>2015-05-25T11:10:12Z</time></trkpt><trkpt lat="53.478457" lon="-1.740799"><ele>493.29000854</ele><time>2015-05-25T11:10:18Z</time></trkpt><trkpt lat="53.478605" lon="-1.740904"><ele>493.29000854</ele><time>2015-05-25T11:10:33Z</time></trkpt><trkpt lat="53.478623" lon="-1.740994"><ele>492.80999756</ele><time>2015-05-25T11:10:43Z</time></trkpt><trkpt lat="53.478628" lon="-1.740973"><ele>492.80999756</ele><time>2015-05-25T11:11:09Z</time></trkpt><trkpt lat="53.478625" lon="-1.740976"><ele>492.80999756</ele><time>2015-05-25T11:11:31Z</time></trkpt><trkpt lat="53.478623" lon="-1.740981"><ele>492.32998657</ele><time>2015-05-25T11:11:46Z</time></trkpt><trkpt lat="53.478635" lon="-1.741019"><ele>492.32998657</ele><time>2015-05-25T11:12:01Z</time></trkpt><trkpt lat="53.478638" lon="-1.741034"><ele>492.80999756</ele><time>2015-05-25T11:12:12Z</time></trkpt><trkpt lat="53.478588" lon="-1.741080"><ele>491.8500061</ele><time>2015-05-25T11:12:25Z</time></trkpt><trkpt lat="53.478589" lon="-1.741084"><ele>491.8500061</ele><time>2015-05-25T11:12:40Z</time></trkpt><trkpt lat="53.478666" lon="-1.740989"><ele>491.36999512</ele><time>2015-05-25T11:12:48Z</time></trkpt><trkpt lat="53.478817" lon="-1.740954"><ele>491.36999512</ele><time>2015-05-25T11:13:02Z</time></trkpt><trkpt lat="53.478821" lon="-1.740953"><ele>491.8500061</ele><time>2015-05-25T11:13:07Z</time></trkpt><trkpt lat="53.478879" lon="-1.740967"><ele>491.8500061</ele><time>2015-05-25T11:13:12Z</time></trkpt><trkpt lat="53.479074" lon="-1.740990"><ele>491.36999512</ele><time>2015-05-25T11:13:28Z</time></trkpt><trkpt lat="53.479165" lon="-1.740899"><ele>491.36999512</ele><time>2015-05-25T11:13:37Z</time></trkpt><trkpt lat="53.479219" lon="-1.740860"><ele>490.41000366</ele><time>2015-05-25T11:13:42Z</time></trkpt><trkpt lat="53.479329" lon="-1.740745"><ele>489.45001221</ele><time>2015-05-25T11:13:53Z</time></trkpt><trkpt lat="53.479488" lon="-1.740593"><ele>488.48999023</ele><time>2015-05-25T11:14:09Z</time></trkpt><trkpt lat="53.479578" lon="-1.740542"><ele>487.52999878</ele><time>2015-05-25T11:14:17Z</time></trkpt><trkpt lat="53.479676" lon="-1.740452"><ele>487.04998779</ele><time>2015-05-25T11:14:27Z</time></trkpt><trkpt lat="53.479701" lon="-1.740455"><ele>487.04998779</ele><time>2015-05-25T11:14:29Z</time></trkpt><trkpt lat="53.479857" lon="-1.740392"><ele>486.07998657</ele><time>2015-05-25T11:14:43Z</time></trkpt><trkpt lat="53.479916" lon="-1.740384"><ele>485.11999512</ele><time>2015-05-25T11:14:48Z</time></trkpt><trkpt lat="53.479969" lon="-1.740347"><ele>484.64001465</ele><time>2015-05-25T11:14:53Z</time></trkpt><trkpt lat="53.480119" lon="-1.740343"><ele>484.64001465</ele><time>2015-05-25T11:15:06Z</time></trkpt><trkpt lat="53.480323" lon="-1.740365"><ele>482.23999023</ele><time>2015-05-25T11:15:23Z</time></trkpt><trkpt lat="53.480490" lon="-1.740472"><ele>481.76000977</ele><time>2015-05-25T11:15:38Z</time></trkpt><trkpt lat="53.480537" lon="-1.740495"><ele>481.27999878</ele><time>2015-05-25T11:15:42Z</time></trkpt><trkpt lat="53.480610" lon="-1.740614"><ele>481.27999878</ele><time>2015-05-25T11:15:51Z</time></trkpt><trkpt lat="53.480775" lon="-1.740737"><ele>479.83999634</ele><time>2015-05-25T11:16:06Z</time></trkpt><trkpt lat="53.480953" lon="-1.740812"><ele>478.86999512</ele><time>2015-05-25T11:16:21Z</time></trkpt><trkpt lat="53.481137" lon="-1.740932"><ele>478.39001465</ele><time>2015-05-25T11:16:38Z</time></trkpt><trkpt lat="53.481332" lon="-1.740926"><ele>476.95001221</ele><time>2015-05-25T11:16:55Z</time></trkpt><trkpt lat="53.481523" lon="-1.740931"><ele>475.02999878</ele><time>2015-05-25T11:17:12Z</time></trkpt><trkpt lat="53.481725" lon="-1.740990"><ele>474.07000732</ele><time>2015-05-25T11:17:29Z</time></trkpt><trkpt lat="53.481869" lon="-1.741118"><ele>472.14001465</ele><time>2015-05-25T11:17:43Z</time></trkpt><trkpt lat="53.481936" lon="-1.741172"><ele>471.17999268</ele><time>2015-05-25T11:17:49Z</time></trkpt><trkpt lat="53.482143" lon="-1.741121"><ele>469.26000977</ele><time>2015-05-25T11:18:07Z</time></trkpt><trkpt lat="53.482222" lon="-1.741065"><ele>469.26000977</ele><time>2015-05-25T11:18:14Z</time></trkpt><trkpt lat="53.482313" lon="-1.741020"><ele>468.77999878</ele><time>2015-05-25T11:18:22Z</time></trkpt><trkpt lat="53.482391" lon="-1.741070"><ele>468.77999878</ele><time>2015-05-25T11:18:29Z</time></trkpt><trkpt lat="53.482434" lon="-1.741161"><ele>469.26000977</ele><time>2015-05-25T11:18:35Z</time></trkpt><trkpt lat="53.482478" lon="-1.741181"><ele>469.26000977</ele><time>2015-05-25T11:18:39Z</time></trkpt><trkpt lat="53.482538" lon="-1.741227"><ele>468.77999878</ele><time>2015-05-25T11:18:44Z</time></trkpt><trkpt lat="53.482694" lon="-1.741366"><ele>467.33999634</ele><time>2015-05-25T11:18:59Z</time></trkpt><trkpt lat="53.482730" lon="-1.741430"><ele>466.38000488</ele><time>2015-05-25T11:19:03Z</time></trkpt><trkpt lat="53.482888" lon="-1.741550"><ele>465.42001343</ele><time>2015-05-25T11:19:18Z</time></trkpt><trkpt lat="53.483063" lon="-1.741622"><ele>463.97000122</ele><time>2015-05-25T11:19:33Z</time></trkpt><trkpt lat="53.483156" lon="-1.741633"><ele>463.01000977</ele><time>2015-05-25T11:19:41Z</time></trkpt><trkpt lat="53.483317" lon="-1.741732"><ele>461.08999634</ele><time>2015-05-25T11:19:56Z</time></trkpt><trkpt lat="53.483366" lon="-1.741743"><ele>460.60998535</ele><time>2015-05-25T11:20:00Z</time></trkpt><trkpt lat="53.483440" lon="-1.741782"><ele>460.13000488</ele><time>2015-05-25T11:20:07Z</time></trkpt><trkpt lat="53.483461" lon="-1.741803"><ele>459.6499939</ele><time>2015-05-25T11:20:09Z</time></trkpt><trkpt lat="53.483504" lon="-1.741816"><ele>459.6499939</ele><time>2015-05-25T11:20:13Z</time></trkpt><trkpt lat="53.483556" lon="-1.741843"><ele>459.17001343</ele><time>2015-05-25T11:20:18Z</time></trkpt><trkpt lat="53.483663" lon="-1.741780"><ele>458.20999146</ele><time>2015-05-25T11:20:32Z</time></trkpt><trkpt lat="53.483806" lon="-1.741686"><ele>455.79998779</ele><time>2015-05-25T11:20:46Z</time></trkpt><trkpt lat="53.483836" lon="-1.741665"><ele>455.32000732</ele><time>2015-05-25T11:20:49Z</time></trkpt><trkpt lat="53.483872" lon="-1.741660"><ele>455.32000732</ele><time>2015-05-25T11:20:53Z</time></trkpt><trkpt lat="53.483915" lon="-1.741648"><ele>454.35998535</ele><time>2015-05-25T11:20:58Z</time></trkpt><trkpt lat="53.483922" lon="-1.741684"><ele>454.83999634</ele><time>2015-05-25T11:21:02Z</time></trkpt><trkpt lat="53.483941" lon="-1.741687"><ele>454.83999634</ele><time>2015-05-25T11:21:04Z</time></trkpt><trkpt lat="53.483974" lon="-1.741679"><ele>453.88000488</ele><time>2015-05-25T11:21:07Z</time></trkpt><trkpt lat="53.483993" lon="-1.741689"><ele>453.3999939</ele><time>2015-05-25T11:21:09Z</time></trkpt><trkpt lat="53.484088" lon="-1.741673"><ele>451.48001099</ele><time>2015-05-25T11:21:18Z</time></trkpt><trkpt lat="53.484107" lon="-1.741694"><ele>451.48001099</ele><time>2015-05-25T11:21:21Z</time></trkpt><trkpt lat="53.484204" lon="-1.741699"><ele>449.07000732</ele><time>2015-05-25T11:21:30Z</time></trkpt><trkpt lat="53.484250" lon="-1.741663"><ele>448.58999634</ele><time>2015-05-25T11:21:35Z</time></trkpt><trkpt lat="53.484294" lon="-1.741640"><ele>448.10998535</ele><time>2015-05-25T11:21:40Z</time></trkpt><trkpt lat="53.484384" lon="-1.741619"><ele>446.67001343</ele><time>2015-05-25T11:21:48Z</time></trkpt><trkpt lat="53.484519" lon="-1.741541"><ele>444.26998901</ele><time>2015-05-25T11:22:02Z</time></trkpt><trkpt lat="53.484581" lon="-1.741530"><ele>442.82000732</ele><time>2015-05-25T11:22:08Z</time></trkpt><trkpt lat="53.484624" lon="-1.741521"><ele>441.85998535</ele><time>2015-05-25T11:22:12Z</time></trkpt><trkpt lat="53.484669" lon="-1.741514"><ele>441.38000488</ele><time>2015-05-25T11:22:17Z</time></trkpt><trkpt lat="53.484709" lon="-1.741526"><ele>440.8999939</ele><time>2015-05-25T11:22:21Z</time></trkpt><trkpt lat="53.484735" lon="-1.741558"><ele>439.94000244</ele><time>2015-05-25T11:22:24Z</time></trkpt><trkpt lat="53.484806" lon="-1.741595"><ele>439.45999146</ele><time>2015-05-25T11:22:33Z</time></trkpt><trkpt lat="53.484835" lon="-1.741576"><ele>438.98001099</ele><time>2015-05-25T11:22:37Z</time></trkpt><trkpt lat="53.484857" lon="-1.741549"><ele>438.5</ele><time>2015-05-25T11:22:40Z</time></trkpt><trkpt lat="53.484916" lon="-1.741491"><ele>437.54000854</ele><time>2015-05-25T11:22:47Z</time></trkpt><trkpt lat="53.484966" lon="-1.741487"><ele>436.57998657</ele><time>2015-05-25T11:22:52Z</time></trkpt><trkpt lat="53.485114" lon="-1.741456"><ele>432.73001099</ele><time>2015-05-25T11:23:06Z</time></trkpt><trkpt lat="53.485176" lon="-1.741447"><ele>432.25</ele><time>2015-05-25T11:23:12Z</time></trkpt><trkpt lat="53.485301" lon="-1.741381"><ele>430.80999756</ele><time>2015-05-25T11:23:26Z</time></trkpt><trkpt lat="53.485313" lon="-1.741376"><ele>430.80999756</ele><time>2015-05-25T11:23:27Z</time></trkpt><trkpt lat="53.485475" lon="-1.741248"><ele>427.44000244</ele><time>2015-05-25T11:23:44Z</time></trkpt><trkpt lat="53.485523" lon="-1.741208"><ele>426.95999146</ele><time>2015-05-25T11:23:49Z</time></trkpt><trkpt lat="53.485588" lon="-1.741198"><ele>426</ele><time>2015-05-25T11:23:55Z</time></trkpt><trkpt lat="53.485748" lon="-1.741068"><ele>423.6000061</ele><time>2015-05-25T11:24:11Z</time></trkpt><trkpt lat="53.485764" lon="-1.741051"><ele>423.11999512</ele><time>2015-05-25T11:24:13Z</time></trkpt><trkpt lat="53.485933" lon="-1.741002"><ele>420.23001099</ele><time>2015-05-25T11:24:29Z</time></trkpt><trkpt lat="53.485998" lon="-1.740968"><ele>419.75</ele><time>2015-05-25T11:24:36Z</time></trkpt><trkpt lat="53.486055" lon="-1.740940"><ele>418.79000854</ele><time>2015-05-25T11:24:46Z</time></trkpt><trkpt lat="53.486144" lon="-1.740916"><ele>416.86999512</ele><time>2015-05-25T11:24:55Z</time></trkpt><trkpt lat="53.486340" lon="-1.740905"><ele>414.95001221</ele><time>2015-05-25T11:25:12Z</time></trkpt><trkpt lat="53.486478" lon="-1.740887"><ele>413.5</ele><time>2015-05-25T11:25:25Z</time></trkpt><trkpt lat="53.486579" lon="-1.740876"><ele>411.57998657</ele><time>2015-05-25T11:25:34Z</time></trkpt><trkpt lat="53.486708" lon="-1.740853"><ele>409.17999268</ele><time>2015-05-25T11:25:48Z</time></trkpt><trkpt lat="53.486887" lon="-1.740866"><ele>406.29000854</ele><time>2015-05-25T11:26:04Z</time></trkpt><trkpt lat="53.486951" lon="-1.740819"><ele>405.32998657</ele><time>2015-05-25T11:26:10Z</time></trkpt><trkpt lat="53.486970" lon="-1.740819"><ele>404.8500061</ele><time>2015-05-25T11:26:12Z</time></trkpt><trkpt lat="53.487102" lon="-1.740759"><ele>403.41000366</ele><time>2015-05-25T11:26:26Z</time></trkpt><trkpt lat="53.487118" lon="-1.740777"><ele>402.92999268</ele><time>2015-05-25T11:26:30Z</time></trkpt><trkpt lat="53.487153" lon="-1.740819"><ele>402.92999268</ele><time>2015-05-25T11:26:36Z</time></trkpt><trkpt lat="53.487196" lon="-1.740850"><ele>402.45001221</ele><time>2015-05-25T11:26:48Z</time></trkpt><trkpt lat="53.487188" lon="-1.740854"><ele>402.45001221</ele><time>2015-05-25T11:27:05Z</time></trkpt><trkpt lat="53.487187" lon="-1.740840"><ele>402.45001221</ele><time>2015-05-25T11:27:24Z</time></trkpt><trkpt lat="53.487187" lon="-1.740833"><ele>401.97000122</ele><time>2015-05-25T11:27:59Z</time></trkpt><trkpt lat="53.487188" lon="-1.740829"><ele>401.48999023</ele><time>2015-05-25T11:28:24Z</time></trkpt><trkpt lat="53.487185" lon="-1.740827"><ele>401.01000977</ele><time>2015-05-25T11:28:56Z</time></trkpt><trkpt lat="53.487184" lon="-1.740821"><ele>400.04998779</ele><time>2015-05-25T11:29:26Z</time></trkpt><trkpt lat="53.487182" lon="-1.740820"><ele>399.57000732</ele><time>2015-05-25T11:30:06Z</time></trkpt><trkpt lat="53.487180" lon="-1.740819"><ele>399.57000732</ele><time>2015-05-25T11:30:47Z</time></trkpt><trkpt lat="53.487181" lon="-1.740812"><ele>398.6000061</ele><time>2015-05-25T11:31:23Z</time></trkpt><trkpt lat="53.487179" lon="-1.740804"><ele>397.64001465</ele><time>2015-05-25T11:32:02Z</time></trkpt><trkpt lat="53.487184" lon="-1.740818"><ele>398.11999512</ele><time>2015-05-25T11:32:32Z</time></trkpt><trkpt lat="53.487189" lon="-1.740828"><ele>398.6000061</ele><time>2015-05-25T11:33:01Z</time></trkpt><trkpt lat="53.487189" lon="-1.740832"><ele>398.6000061</ele><time>2015-05-25T11:33:21Z</time></trkpt><trkpt lat="53.487183" lon="-1.740825"><ele>399.57000732</ele><time>2015-05-25T11:33:53Z</time></trkpt><trkpt lat="53.487184" lon="-1.740825"><ele>399.57000732</ele><time>2015-05-25T11:34:22Z</time></trkpt><trkpt lat="53.487186" lon="-1.740823"><ele>400.04998779</ele><time>2015-05-25T11:34:46Z</time></trkpt><trkpt lat="53.487188" lon="-1.740828"><ele>400.52999878</ele><time>2015-05-25T11:35:11Z</time></trkpt><trkpt lat="53.487185" lon="-1.740832"><ele>400.52999878</ele><time>2015-05-25T11:35:43Z</time></trkpt><trkpt lat="53.487182" lon="-1.740825"><ele>401.48999023</ele><time>2015-05-25T11:36:12Z</time></trkpt><trkpt lat="53.487180" lon="-1.740819"><ele>401.01000977</ele><time>2015-05-25T11:36:48Z</time></trkpt><trkpt lat="53.487184" lon="-1.740819"><ele>400.52999878</ele><time>2015-05-25T11:37:22Z</time></trkpt><trkpt lat="53.487186" lon="-1.740825"><ele>401.01000977</ele><time>2015-05-25T11:37:50Z</time></trkpt><trkpt lat="53.487181" lon="-1.740831"><ele>401.01000977</ele><time>2015-05-25T11:38:17Z</time></trkpt><trkpt lat="53.487175" lon="-1.740830"><ele>401.48999023</ele><time>2015-05-25T11:38:57Z</time></trkpt><trkpt lat="53.487182" lon="-1.740820"><ele>401.97000122</ele><time>2015-05-25T11:39:36Z</time></trkpt><trkpt lat="53.487183" lon="-1.740814"><ele>401.97000122</ele><time>2015-05-25T11:39:57Z</time></trkpt><trkpt lat="53.487186" lon="-1.740821"><ele>401.48999023</ele><time>2015-05-25T11:40:21Z</time></trkpt><trkpt lat="53.487185" lon="-1.740826"><ele>401.48999023</ele><time>2015-05-25T11:40:40Z</time></trkpt><trkpt lat="53.487185" lon="-1.740817"><ele>401.48999023</ele><time>2015-05-25T11:41:05Z</time></trkpt><trkpt lat="53.487186" lon="-1.740825"><ele>400.52999878</ele><time>2015-05-25T11:41:41Z</time></trkpt><trkpt lat="53.487189" lon="-1.740842"><ele>401.01000977</ele><time>2015-05-25T11:41:51Z</time></trkpt><trkpt lat="53.487191" lon="-1.740847"><ele>401.48999023</ele><time>2015-05-25T11:42:11Z</time></trkpt><trkpt lat="53.487191" lon="-1.740836"><ele>401.01000977</ele><time>2015-05-25T11:42:29Z</time></trkpt><trkpt lat="53.487176" lon="-1.740845"><ele>401.48999023</ele><time>2015-05-25T11:42:41Z</time></trkpt><trkpt lat="53.487115" lon="-1.740759"><ele>402.92999268</ele><time>2015-05-25T11:42:54Z</time></trkpt><trkpt lat="53.487140" lon="-1.740748"><ele>402.45001221</ele><time>2015-05-25T11:42:58Z</time></trkpt><trkpt lat="53.487182" lon="-1.740724"><ele>401.97000122</ele><time>2015-05-25T11:43:03Z</time></trkpt><trkpt lat="53.487240" lon="-1.740685"><ele>401.01000977</ele><time>2015-05-25T11:43:09Z</time></trkpt><trkpt lat="53.487311" lon="-1.740636"><ele>399.07998657</ele><time>2015-05-25T11:43:16Z</time></trkpt><trkpt lat="53.487343" lon="-1.740605"><ele>398.6000061</ele><time>2015-05-25T11:43:20Z</time></trkpt><trkpt lat="53.487422" lon="-1.740524"><ele>397.16000366</ele><time>2015-05-25T11:43:28Z</time></trkpt><trkpt lat="53.487528" lon="-1.740529"><ele>394.76000977</ele><time>2015-05-25T11:43:38Z</time></trkpt><trkpt lat="53.487659" lon="-1.740501"><ele>392.35998535</ele><time>2015-05-25T11:43:50Z</time></trkpt><trkpt lat="53.487679" lon="-1.740499"><ele>392.35998535</ele><time>2015-05-25T11:43:52Z</time></trkpt><trkpt lat="53.487722" lon="-1.740496"><ele>391.39001465</ele><time>2015-05-25T11:43:56Z</time></trkpt><trkpt lat="53.487826" lon="-1.740461"><ele>389.47000122</ele><time>2015-05-25T11:44:08Z</time></trkpt><trkpt lat="53.487941" lon="-1.740443"><ele>388.51000977</ele><time>2015-05-25T11:44:20Z</time></trkpt><trkpt lat="53.487956" lon="-1.740430"><ele>388.02999878</ele><time>2015-05-25T11:44:22Z</time></trkpt><trkpt lat="53.487984" lon="-1.740411"><ele>387.54998779</ele><time>2015-05-25T11:44:27Z</time></trkpt><trkpt lat="53.488110" lon="-1.740377"><ele>385.1499939</ele><time>2015-05-25T11:44:39Z</time></trkpt><trkpt lat="53.488158" lon="-1.740405"><ele>384.66000366</ele><time>2015-05-25T11:44:44Z</time></trkpt><trkpt lat="53.488237" lon="-1.740433"><ele>383.22000122</ele><time>2015-05-25T11:44:53Z</time></trkpt><trkpt lat="53.488250" lon="-1.740419"><ele>382.73999023</ele><time>2015-05-25T11:44:55Z</time></trkpt><trkpt lat="53.488327" lon="-1.740369"><ele>380.82000732</ele><time>2015-05-25T11:45:04Z</time></trkpt><trkpt lat="53.488354" lon="-1.740327"><ele>379.85998535</ele><time>2015-05-25T11:45:08Z</time></trkpt><trkpt lat="53.488423" lon="-1.740296"><ele>378.42001343</ele><time>2015-05-25T11:45:15Z</time></trkpt><trkpt lat="53.488486" lon="-1.740129"><ele>378.42001343</ele><time>2015-05-25T11:45:27Z</time></trkpt><trkpt lat="53.488589" lon="-1.740033"><ele>376.48999023</ele><time>2015-05-25T11:45:40Z</time></trkpt><trkpt lat="53.488691" lon="-1.739862"><ele>374.57000732</ele><time>2015-05-25T11:45:54Z</time></trkpt><trkpt lat="53.488703" lon="-1.739804"><ele>373.60998535</ele><time>2015-05-25T11:45:57Z</time></trkpt><trkpt lat="53.488794" lon="-1.739698"><ele>372.6499939</ele><time>2015-05-25T11:46:09Z</time></trkpt><trkpt lat="53.488813" lon="-1.739637"><ele>372.6499939</ele><time>2015-05-25T11:46:13Z</time></trkpt><trkpt lat="53.488879" lon="-1.739553"><ele>371.69000244</ele><time>2015-05-25T11:46:21Z</time></trkpt><trkpt lat="53.488906" lon="-1.739542"><ele>370.23999023</ele><time>2015-05-25T11:46:24Z</time></trkpt><trkpt lat="53.488946" lon="-1.739497"><ele>369.76000977</ele><time>2015-05-25T11:46:29Z</time></trkpt><trkpt lat="53.488969" lon="-1.739451"><ele>369.76000977</ele><time>2015-05-25T11:46:32Z</time></trkpt><trkpt lat="53.489061" lon="-1.739342"><ele>367.83999634</ele><time>2015-05-25T11:46:43Z</time></trkpt><trkpt lat="53.489146" lon="-1.739279"><ele>366.3999939</ele><time>2015-05-25T11:46:52Z</time></trkpt><trkpt lat="53.489267" lon="-1.739130"><ele>363.04000854</ele><time>2015-05-25T11:47:05Z</time></trkpt><trkpt lat="53.489348" lon="-1.739066"><ele>361.10998535</ele><time>2015-05-25T11:47:13Z</time></trkpt><trkpt lat="53.489451" lon="-1.739019"><ele>359.67001343</ele><time>2015-05-25T11:47:25Z</time></trkpt><trkpt lat="53.489570" lon="-1.738953"><ele>357.26998901</ele><time>2015-05-25T11:47:39Z</time></trkpt><trkpt lat="53.489632" lon="-1.738884"><ele>355.82998657</ele><time>2015-05-25T11:47:46Z</time></trkpt><trkpt lat="53.489651" lon="-1.738880"><ele>355.82998657</ele><time>2015-05-25T11:47:48Z</time></trkpt><trkpt lat="53.489807" lon="-1.738811"><ele>352.45999146</ele><time>2015-05-25T11:48:05Z</time></trkpt><trkpt lat="53.489910" lon="-1.738806"><ele>349.57998657</ele><time>2015-05-25T11:48:17Z</time></trkpt><trkpt lat="53.489942" lon="-1.738811"><ele>349.1000061</ele><time>2015-05-25T11:48:20Z</time></trkpt><trkpt lat="53.490073" lon="-1.738790"><ele>345.25</ele><time>2015-05-25T11:48:34Z</time></trkpt><trkpt lat="53.490183" lon="-1.738782"><ele>342.8500061</ele><time>2015-05-25T11:48:48Z</time></trkpt><trkpt lat="53.490223" lon="-1.738759"><ele>341.41000366</ele><time>2015-05-25T11:48:54Z</time></trkpt><trkpt lat="53.490302" lon="-1.738713"><ele>338.04000854</ele><time>2015-05-25T11:49:08Z</time></trkpt><trkpt lat="53.490305" lon="-1.738694"><ele>337.07998657</ele><time>2015-05-25T11:49:22Z</time></trkpt><trkpt lat="53.490308" lon="-1.738687"><ele>337.07998657</ele><time>2015-05-25T11:49:36Z</time></trkpt><trkpt lat="53.490315" lon="-1.738702"><ele>336.6000061</ele><time>2015-05-25T11:50:00Z</time></trkpt><trkpt lat="53.490324" lon="-1.738820"><ele>335.64001465</ele><time>2015-05-25T11:50:14Z</time></trkpt><trkpt lat="53.490359" lon="-1.738819"><ele>334.20001221</ele><time>2015-05-25T11:50:26Z</time></trkpt><trkpt lat="53.490422" lon="-1.738669"><ele>333.23001099</ele><time>2015-05-25T11:50:40Z</time></trkpt><trkpt lat="53.490502" lon="-1.738566"><ele>329.86999512</ele><time>2015-05-25T11:50:54Z</time></trkpt><trkpt lat="53.490526" lon="-1.738574"><ele>329.86999512</ele><time>2015-05-25T11:50:57Z</time></trkpt><trkpt lat="53.490553" lon="-1.738562"><ele>330.3500061</ele><time>2015-05-25T11:51:00Z</time></trkpt><trkpt lat="53.490585" lon="-1.738559"><ele>330.3500061</ele><time>2015-05-25T11:51:03Z</time></trkpt><trkpt lat="53.490699" lon="-1.738525"><ele>331.30999756</ele><time>2015-05-25T11:51:14Z</time></trkpt><trkpt lat="53.490749" lon="-1.738518"><ele>331.30999756</ele><time>2015-05-25T11:51:21Z</time></trkpt><trkpt lat="53.490909" lon="-1.738446"><ele>333.70999146</ele><time>2015-05-25T11:51:36Z</time></trkpt><trkpt lat="53.491009" lon="-1.738394"><ele>336.11999512</ele><time>2015-05-25T11:51:48Z</time></trkpt><trkpt lat="53.491106" lon="-1.738286"><ele>337.55999756</ele><time>2015-05-25T11:52:01Z</time></trkpt><trkpt lat="53.491135" lon="-1.738231"><ele>339</ele><time>2015-05-25T11:52:06Z</time></trkpt><trkpt lat="53.491173" lon="-1.738151"><ele>339.95999146</ele><time>2015-05-25T11:52:12Z</time></trkpt><trkpt lat="53.491232" lon="-1.737979"><ele>339.95999146</ele><time>2015-05-25T11:52:23Z</time></trkpt><trkpt lat="53.491305" lon="-1.737764"><ele>341.41000366</ele><time>2015-05-25T11:52:38Z</time></trkpt><trkpt lat="53.491354" lon="-1.737519"><ele>341.41000366</ele><time>2015-05-25T11:52:51Z</time></trkpt><trkpt lat="53.491437" lon="-1.737320"><ele>343.80999756</ele><time>2015-05-25T11:53:05Z</time></trkpt><trkpt lat="53.491498" lon="-1.737138"><ele>343.32998657</ele><time>2015-05-25T11:53:17Z</time></trkpt><trkpt lat="53.491559" lon="-1.736906"><ele>345.25</ele><time>2015-05-25T11:53:32Z</time></trkpt><trkpt lat="53.491647" lon="-1.736577"><ele>347.17001343</ele><time>2015-05-25T11:53:52Z</time></trkpt><trkpt lat="53.491695" lon="-1.736345"><ele>349.1000061</ele><time>2015-05-25T11:54:07Z</time></trkpt><trkpt lat="53.491736" lon="-1.736064"><ele>350.05999756</ele><time>2015-05-25T11:54:22Z</time></trkpt><trkpt lat="53.491747" lon="-1.735993"><ele>351.98001099</ele><time>2015-05-25T11:54:27Z</time></trkpt><trkpt lat="53.491818" lon="-1.735707"><ele>355.82998657</ele><time>2015-05-25T11:54:45Z</time></trkpt><trkpt lat="53.491929" lon="-1.735503"><ele>358.23001099</ele><time>2015-05-25T11:55:00Z</time></trkpt><trkpt lat="53.492020" lon="-1.735429"><ele>359.67001343</ele><time>2015-05-25T11:55:11Z</time></trkpt><trkpt lat="53.492136" lon="-1.735386"><ele>363.04000854</ele><time>2015-05-25T11:55:26Z</time></trkpt><trkpt lat="53.492237" lon="-1.735338"><ele>365.92001343</ele><time>2015-05-25T11:55:42Z</time></trkpt><trkpt lat="53.492322" lon="-1.735292"><ele>367.35998535</ele><time>2015-05-25T11:55:56Z</time></trkpt><trkpt lat="53.492413" lon="-1.735273"><ele>370.73001099</ele><time>2015-05-25T11:56:09Z</time></trkpt><trkpt lat="53.492492" lon="-1.735315"><ele>374.08999634</ele><time>2015-05-25T11:56:20Z</time></trkpt><trkpt lat="53.492543" lon="-1.735337"><ele>374.57000732</ele><time>2015-05-25T11:56:34Z</time></trkpt><trkpt lat="53.492693" lon="-1.735276"><ele>375.04998779</ele><time>2015-05-25T11:56:49Z</time></trkpt><trkpt lat="53.492723" lon="-1.735258"><ele>375.52999878</ele><time>2015-05-25T11:56:52Z</time></trkpt><trkpt lat="53.492812" lon="-1.735164"><ele>376.48999023</ele><time>2015-05-25T11:57:06Z</time></trkpt><trkpt lat="53.492846" lon="-1.735141"><ele>376.97000122</ele><time>2015-05-25T11:57:29Z</time></trkpt><trkpt lat="53.492870" lon="-1.735107"><ele>377.45001221</ele><time>2015-05-25T11:57:43Z</time></trkpt><trkpt lat="53.492877" lon="-1.735090"><ele>378.42001343</ele><time>2015-05-25T11:58:05Z</time></trkpt><trkpt lat="53.492909" lon="-1.735080"><ele>380.33999634</ele><time>2015-05-25T11:58:19Z</time></trkpt><trkpt lat="53.492918" lon="-1.734947"><ele>379.38000488</ele><time>2015-05-25T11:58:29Z</time></trkpt><trkpt lat="53.492965" lon="-1.734741"><ele>378.42001343</ele><time>2015-05-25T11:58:44Z</time></trkpt><trkpt lat="53.493039" lon="-1.734586"><ele>378.42001343</ele><time>2015-05-25T11:58:57Z</time></trkpt><trkpt lat="53.493080" lon="-1.734549"><ele>379.38000488</ele><time>2015-05-25T11:59:01Z</time></trkpt><trkpt lat="53.493146" lon="-1.734488"><ele>382.26000977</ele><time>2015-05-25T11:59:10Z</time></trkpt><trkpt lat="53.493258" lon="-1.734422"><ele>383.70001221</ele><time>2015-05-25T11:59:23Z</time></trkpt><trkpt lat="53.493264" lon="-1.734421"><ele>383.70001221</ele><time>2015-05-25T11:59:25Z</time></trkpt><trkpt lat="53.493343" lon="-1.734323"><ele>384.17999268</ele><time>2015-05-25T11:59:37Z</time></trkpt><trkpt lat="53.493371" lon="-1.734284"><ele>385.1499939</ele><time>2015-05-25T11:59:56Z</time></trkpt><trkpt lat="53.493379" lon="-1.734168"><ele>385.63000488</ele><time>2015-05-25T12:00:02Z</time></trkpt><trkpt lat="53.493412" lon="-1.733747"><ele>384.17999268</ele><time>2015-05-25T12:00:22Z</time></trkpt><trkpt lat="53.493453" lon="-1.733415"><ele>383.70001221</ele><time>2015-05-25T12:00:38Z</time></trkpt><trkpt lat="53.493488" lon="-1.733024"><ele>382.73999023</ele><time>2015-05-25T12:00:56Z</time></trkpt><trkpt lat="53.493494" lon="-1.732626"><ele>380.33999634</ele><time>2015-05-25T12:01:14Z</time></trkpt><trkpt lat="53.493538" lon="-1.732232"><ele>378.8999939</ele><time>2015-05-25T12:01:32Z</time></trkpt><trkpt lat="53.493574" lon="-1.731786"><ele>376.97000122</ele><time>2015-05-25T12:01:53Z</time></trkpt><trkpt lat="53.493608" lon="-1.731412"><ele>375.52999878</ele><time>2015-05-25T12:02:10Z</time></trkpt><trkpt lat="53.493641" lon="-1.731055"><ele>374.08999634</ele><time>2015-05-25T12:02:27Z</time></trkpt><trkpt lat="53.493674" lon="-1.730702"><ele>373.13000488</ele><time>2015-05-25T12:02:44Z</time></trkpt><trkpt lat="53.493724" lon="-1.730308"><ele>373.13000488</ele><time>2015-05-25T12:03:03Z</time></trkpt><trkpt lat="53.493773" lon="-1.729945"><ele>372.6499939</ele><time>2015-05-25T12:03:20Z</time></trkpt><trkpt lat="53.493804" lon="-1.729619"><ele>369.76000977</ele><time>2015-05-25T12:03:37Z</time></trkpt><trkpt lat="53.493852" lon="-1.729296"><ele>368.32000732</ele><time>2015-05-25T12:03:52Z</time></trkpt><trkpt lat="53.493921" lon="-1.728952"><ele>367.83999634</ele><time>2015-05-25T12:04:09Z</time></trkpt><trkpt lat="53.493985" lon="-1.728632"><ele>369.27999878</ele><time>2015-05-25T12:04:24Z</time></trkpt><trkpt lat="53.494053" lon="-1.728212"><ele>369.76000977</ele><time>2015-05-25T12:04:44Z</time></trkpt><trkpt lat="53.494132" lon="-1.727755"><ele>366.3999939</ele><time>2015-05-25T12:05:03Z</time></trkpt><trkpt lat="53.494198" lon="-1.727447"><ele>364.95999146</ele><time>2015-05-25T12:05:18Z</time></trkpt><trkpt lat="53.494302" lon="-1.727134"><ele>364.95999146</ele><time>2015-05-25T12:05:34Z</time></trkpt><trkpt lat="53.494346" lon="-1.726740"><ele>364</ele><time>2015-05-25T12:05:52Z</time></trkpt><trkpt lat="53.494340" lon="-1.726275"><ele>362.07000732</ele><time>2015-05-25T12:06:12Z</time></trkpt><trkpt lat="53.494329" lon="-1.726209"><ele>361.58999634</ele><time>2015-05-25T12:06:15Z</time></trkpt><trkpt lat="53.494343" lon="-1.726003"><ele>363.51998901</ele><time>2015-05-25T12:06:32Z</time></trkpt><trkpt lat="53.494345" lon="-1.725998"><ele>364.95999146</ele><time>2015-05-25T12:06:59Z</time></trkpt><trkpt lat="53.494337" lon="-1.725981"><ele>363.51998901</ele><time>2015-05-25T12:07:17Z</time></trkpt><trkpt lat="53.494340" lon="-1.725997"><ele>363.51998901</ele><time>2015-05-25T12:07:36Z</time></trkpt><trkpt lat="53.494350" lon="-1.725966"><ele>363.04000854</ele><time>2015-05-25T12:07:50Z</time></trkpt><trkpt lat="53.494414" lon="-1.725793"><ele>363.04000854</ele><time>2015-05-25T12:08:01Z</time></trkpt><trkpt lat="53.494618" lon="-1.725520"><ele>360.63000488</ele><time>2015-05-25T12:08:22Z</time></trkpt><trkpt lat="53.494783" lon="-1.725330"><ele>358.70999146</ele><time>2015-05-25T12:08:38Z</time></trkpt><trkpt lat="53.494945" lon="-1.725094"><ele>355.82998657</ele><time>2015-05-25T12:08:56Z</time></trkpt><trkpt lat="53.495088" lon="-1.724891"><ele>353.8999939</ele><time>2015-05-25T12:09:12Z</time></trkpt><trkpt lat="53.495255" lon="-1.724675"><ele>351.01998901</ele><time>2015-05-25T12:09:29Z</time></trkpt><trkpt lat="53.495431" lon="-1.724437"><ele>348.13000488</ele><time>2015-05-25T12:09:48Z</time></trkpt><trkpt lat="53.495593" lon="-1.724215"><ele>345.25</ele><time>2015-05-25T12:10:06Z</time></trkpt><trkpt lat="53.495772" lon="-1.723971"><ele>341.89001465</ele><time>2015-05-25T12:10:25Z</time></trkpt><trkpt lat="53.495933" lon="-1.723770"><ele>339.48001099</ele><time>2015-05-25T12:10:42Z</time></trkpt><trkpt lat="53.496101" lon="-1.723544"><ele>337.07998657</ele><time>2015-05-25T12:11:00Z</time></trkpt><trkpt lat="53.496185" lon="-1.723446"><ele>335.64001465</ele><time>2015-05-25T12:11:08Z</time></trkpt><trkpt lat="53.496333" lon="-1.723240"><ele>333.70999146</ele><time>2015-05-25T12:11:24Z</time></trkpt><trkpt lat="53.496484" lon="-1.723058"><ele>330.82998657</ele><time>2015-05-25T12:11:40Z</time></trkpt><trkpt lat="53.496637" lon="-1.723082"><ele>328.91000366</ele><time>2015-05-25T12:11:54Z</time></trkpt><trkpt lat="53.496686" lon="-1.723115"><ele>328.42999268</ele><time>2015-05-25T12:12:11Z</time></trkpt><trkpt lat="53.496703" lon="-1.723134"><ele>327.95001221</ele><time>2015-05-25T12:12:26Z</time></trkpt><trkpt lat="53.496750" lon="-1.723217"><ele>326.98999023</ele><time>2015-05-25T12:12:32Z</time></trkpt><trkpt lat="53.496778" lon="-1.723312"><ele>326.01998901</ele><time>2015-05-25T12:12:38Z</time></trkpt><trkpt lat="53.496809" lon="-1.723382"><ele>326.5</ele><time>2015-05-25T12:12:55Z</time></trkpt><trkpt lat="53.496832" lon="-1.723537"><ele>326.98999023</ele><time>2015-05-25T12:13:12Z</time></trkpt><trkpt lat="53.496843" lon="-1.723684"><ele>326.98999023</ele><time>2015-05-25T12:13:20Z</time></trkpt><trkpt lat="53.496859" lon="-1.723708"><ele>326.98999023</ele><time>2015-05-25T12:13:22Z</time></trkpt><trkpt lat="53.496868" lon="-1.723757"><ele>327.47000122</ele><time>2015-05-25T12:13:25Z</time></trkpt><trkpt lat="53.496883" lon="-1.723780"><ele>327.95001221</ele><time>2015-05-25T12:13:27Z</time></trkpt><trkpt lat="53.496994" lon="-1.723884"><ele>328.42999268</ele><time>2015-05-25T12:13:41Z</time></trkpt><trkpt lat="53.497047" lon="-1.723803"><ele>329.39001465</ele><time>2015-05-25T12:13:49Z</time></trkpt><trkpt lat="53.497126" lon="-1.723604"><ele>331.30999756</ele><time>2015-05-25T12:14:04Z</time></trkpt><trkpt lat="53.497226" lon="-1.723411"><ele>332.26998901</ele><time>2015-05-25T12:14:19Z</time></trkpt><trkpt lat="53.497330" lon="-1.723219"><ele>334.67999268</ele><time>2015-05-25T12:14:35Z</time></trkpt><trkpt lat="53.497354" lon="-1.723168"><ele>335.16000366</ele><time>2015-05-25T12:14:48Z</time></trkpt><trkpt lat="53.497421" lon="-1.723072"><ele>336.11999512</ele><time>2015-05-25T12:15:07Z</time></trkpt><trkpt lat="53.497456" lon="-1.723037"><ele>336.11999512</ele><time>2015-05-25T12:15:23Z</time></trkpt><trkpt lat="53.497477" lon="-1.722998"><ele>334.20001221</ele><time>2015-05-25T12:15:35Z</time></trkpt><trkpt lat="53.497468" lon="-1.723002"><ele>334.67999268</ele><time>2015-05-25T12:16:06Z</time></trkpt><trkpt lat="53.497464" lon="-1.722983"><ele>335.16000366</ele><time>2015-05-25T12:16:10Z</time></trkpt><trkpt lat="53.497452" lon="-1.722841"><ele>334.67999268</ele><time>2015-05-25T12:16:17Z</time></trkpt><trkpt lat="53.497430" lon="-1.722592"><ele>333.23001099</ele><time>2015-05-25T12:16:29Z</time></trkpt><trkpt lat="53.497420" lon="-1.722470"><ele>332.75</ele><time>2015-05-25T12:16:35Z</time></trkpt><trkpt lat="53.497436" lon="-1.722068"><ele>332.75</ele><time>2015-05-25T12:16:54Z</time></trkpt><trkpt lat="53.497485" lon="-1.721680"><ele>331.79000854</ele><time>2015-05-25T12:17:13Z</time></trkpt><trkpt lat="53.497518" lon="-1.721297"><ele>330.82998657</ele><time>2015-05-25T12:17:31Z</time></trkpt><trkpt lat="53.497559" lon="-1.721006"><ele>330.3500061</ele><time>2015-05-25T12:17:46Z</time></trkpt><trkpt lat="53.497565" lon="-1.720968"><ele>330.3500061</ele><time>2015-05-25T12:18:05Z</time></trkpt><trkpt lat="53.497581" lon="-1.720895"><ele>330.82998657</ele><time>2015-05-25T12:18:28Z</time></trkpt><trkpt lat="53.497678" lon="-1.720631"><ele>331.30999756</ele><time>2015-05-25T12:18:44Z</time></trkpt><trkpt lat="53.497752" lon="-1.720353"><ele>330.3500061</ele><time>2015-05-25T12:18:59Z</time></trkpt><trkpt lat="53.497828" lon="-1.720060"><ele>329.86999512</ele><time>2015-05-25T12:19:15Z</time></trkpt><trkpt lat="53.497906" lon="-1.719728"><ele>329.39001465</ele><time>2015-05-25T12:19:32Z</time></trkpt><trkpt lat="53.497954" lon="-1.719576"><ele>330.3500061</ele><time>2015-05-25T12:19:41Z</time></trkpt><trkpt lat="53.497984" lon="-1.719429"><ele>332.26998901</ele><time>2015-05-25T12:19:50Z</time></trkpt><trkpt lat="53.498017" lon="-1.719139"><ele>330.82998657</ele><time>2015-05-25T12:20:06Z</time></trkpt><trkpt lat="53.498036" lon="-1.718776"><ele>327.95001221</ele><time>2015-05-25T12:20:23Z</time></trkpt><trkpt lat="53.498067" lon="-1.718451"><ele>328.42999268</ele><time>2015-05-25T12:20:40Z</time></trkpt><trkpt lat="53.498117" lon="-1.718099"><ele>327.95001221</ele><time>2015-05-25T12:20:57Z</time></trkpt><trkpt lat="53.498168" lon="-1.717736"><ele>327.47000122</ele><time>2015-05-25T12:21:15Z</time></trkpt><trkpt lat="53.498218" lon="-1.717351"><ele>324.57998657</ele><time>2015-05-25T12:21:34Z</time></trkpt><trkpt lat="53.498258" lon="-1.717016"><ele>323.61999512</ele><time>2015-05-25T12:21:50Z</time></trkpt><trkpt lat="53.498347" lon="-1.716712"><ele>322.66000366</ele><time>2015-05-25T12:22:06Z</time></trkpt><trkpt lat="53.498478" lon="-1.716409"><ele>321.70001221</ele><time>2015-05-25T12:22:24Z</time></trkpt><trkpt lat="53.498643" lon="-1.716118"><ele>320.26000977</ele><time>2015-05-25T12:22:42Z</time></trkpt><trkpt lat="53.498846" lon="-1.715902"><ele>319.29998779</ele><time>2015-05-25T12:23:00Z</time></trkpt><trkpt lat="53.498990" lon="-1.715714"><ele>318.80999756</ele><time>2015-05-25T12:23:15Z</time></trkpt><trkpt lat="53.499139" lon="-1.715468"><ele>315.92999268</ele><time>2015-05-25T12:23:32Z</time></trkpt><trkpt lat="53.499320" lon="-1.715287"><ele>314.97000122</ele><time>2015-05-25T12:23:49Z</time></trkpt><trkpt lat="53.499534" lon="-1.715068"><ele>312.57000732</ele><time>2015-05-25T12:24:08Z</time></trkpt><trkpt lat="53.499699" lon="-1.714927"><ele>311.6000061</ele><time>2015-05-25T12:24:22Z</time></trkpt><trkpt lat="53.499886" lon="-1.714793"><ele>311.6000061</ele><time>2015-05-25T12:24:39Z</time></trkpt><trkpt lat="53.500084" lon="-1.714601"><ele>309.20001221</ele><time>2015-05-25T12:24:58Z</time></trkpt><trkpt lat="53.500086" lon="-1.714608"><ele>308.23999023</ele><time>2015-05-25T12:25:21Z</time></trkpt><trkpt lat="53.500118" lon="-1.714507"><ele>306.79998779</ele><time>2015-05-25T12:25:44Z</time></trkpt><trkpt lat="53.500191" lon="-1.714288"><ele>303.42999268</ele><time>2015-05-25T12:25:58Z</time></trkpt><trkpt lat="53.500212" lon="-1.714025"><ele>300.07000732</ele><time>2015-05-25T12:26:13Z</time></trkpt><trkpt lat="53.500206" lon="-1.713961"><ele>298.63000488</ele><time>2015-05-25T12:26:17Z</time></trkpt><trkpt lat="53.500184" lon="-1.713737"><ele>298.1499939</ele><time>2015-05-25T12:26:32Z</time></trkpt><trkpt lat="53.500212" lon="-1.713552"><ele>294.77999878</ele><time>2015-05-25T12:26:46Z</time></trkpt><trkpt lat="53.500217" lon="-1.713491"><ele>292.85998535</ele><time>2015-05-25T12:26:51Z</time></trkpt><trkpt lat="53.500268" lon="-1.713259"><ele>289.01000977</ele><time>2015-05-25T12:27:08Z</time></trkpt><trkpt lat="53.500333" lon="-1.713036"><ele>286.13000488</ele><time>2015-05-25T12:27:23Z</time></trkpt><trkpt lat="53.500367" lon="-1.712900"><ele>282.76998901</ele><time>2015-05-25T12:27:33Z</time></trkpt><trkpt lat="53.500411" lon="-1.712750"><ele>277.95999146</ele><time>2015-05-25T12:27:46Z</time></trkpt><trkpt lat="53.500462" lon="-1.712602"><ele>274.10998535</ele><time>2015-05-25T12:27:59Z</time></trkpt><trkpt lat="53.500466" lon="-1.712433"><ele>276.51998901</ele><time>2015-05-25T12:28:14Z</time></trkpt><trkpt lat="53.500467" lon="-1.712419"><ele>281.32000732</ele><time>2015-05-25T12:28:36Z</time></trkpt><trkpt lat="53.500466" lon="-1.712421"><ele>281.79998779</ele><time>2015-05-25T12:29:11Z</time></trkpt><trkpt lat="53.500467" lon="-1.712415"><ele>282.27999878</ele><time>2015-05-25T12:29:28Z</time></trkpt><trkpt lat="53.500452" lon="-1.712385"><ele>284.69000244</ele><time>2015-05-25T12:29:45Z</time></trkpt><trkpt lat="53.500441" lon="-1.712386"><ele>284.20999146</ele><time>2015-05-25T12:30:13Z</time></trkpt><trkpt lat="53.500460" lon="-1.712367"><ele>284.69000244</ele><time>2015-05-25T12:30:21Z</time></trkpt><trkpt lat="53.500500" lon="-1.712271"><ele>288.52999878</ele><time>2015-05-25T12:30:34Z</time></trkpt><trkpt lat="53.500490" lon="-1.712220"><ele>289.48999023</ele><time>2015-05-25T12:30:39Z</time></trkpt><trkpt lat="53.500496" lon="-1.712184"><ele>290.94000244</ele><time>2015-05-25T12:30:49Z</time></trkpt><trkpt lat="53.500486" lon="-1.712152"><ele>292.85998535</ele><time>2015-05-25T12:31:00Z</time></trkpt><trkpt lat="53.500465" lon="-1.712099"><ele>293.82000732</ele><time>2015-05-25T12:31:20Z</time></trkpt><trkpt lat="53.500477" lon="-1.712079"><ele>294.29998779</ele><time>2015-05-25T12:31:38Z</time></trkpt><trkpt lat="53.500497" lon="-1.712072"><ele>296.22000122</ele><time>2015-05-25T12:31:50Z</time></trkpt><trkpt lat="53.500504" lon="-1.712075"><ele>299.10998535</ele><time>2015-05-25T12:32:07Z</time></trkpt><trkpt lat="53.500521" lon="-1.712046"><ele>300.54998779</ele><time>2015-05-25T12:32:32Z</time></trkpt><trkpt lat="53.500521" lon="-1.712044"><ele>300.54998779</ele><time>2015-05-25T12:32:34Z</time></trkpt><trkpt lat="53.500550" lon="-1.712018"><ele>301.02999878</ele><time>2015-05-25T12:32:37Z</time></trkpt><trkpt lat="53.500585" lon="-1.711993"><ele>301.51000977</ele><time>2015-05-25T12:32:41Z</time></trkpt><trkpt lat="53.500619" lon="-1.711954"><ele>303.42999268</ele><time>2015-05-25T12:32:45Z</time></trkpt><trkpt lat="53.500628" lon="-1.711924"><ele>303.91000366</ele><time>2015-05-25T12:32:47Z</time></trkpt><trkpt lat="53.500632" lon="-1.711887"><ele>304.39001465</ele><time>2015-05-25T12:32:49Z</time></trkpt><trkpt lat="53.500687" lon="-1.711840"><ele>304.88000488</ele><time>2015-05-25T12:32:53Z</time></trkpt><trkpt lat="53.500741" lon="-1.711794"><ele>305.35998535</ele><time>2015-05-25T12:32:57Z</time></trkpt><trkpt lat="53.500797" lon="-1.711716"><ele>306.79998779</ele><time>2015-05-25T12:33:04Z</time></trkpt><trkpt lat="53.500928" lon="-1.711608"><ele>307.76000977</ele><time>2015-05-25T12:33:17Z</time></trkpt><trkpt lat="53.500950" lon="-1.711521"><ele>308.72000122</ele><time>2015-05-25T12:33:28Z</time></trkpt><trkpt lat="53.500959" lon="-1.711456"><ele>309.20001221</ele><time>2015-05-25T12:33:37Z</time></trkpt><trkpt lat="53.500967" lon="-1.711392"><ele>310.64001465</ele><time>2015-05-25T12:33:50Z</time></trkpt><trkpt lat="53.501009" lon="-1.711316"><ele>311.11999512</ele><time>2015-05-25T12:34:01Z</time></trkpt><trkpt lat="53.501044" lon="-1.711200"><ele>312.08999634</ele><time>2015-05-25T12:34:08Z</time></trkpt><trkpt lat="53.501055" lon="-1.711146"><ele>312.57000732</ele><time>2015-05-25T12:34:10Z</time></trkpt><trkpt lat="53.501143" lon="-1.711009"><ele>315.92999268</ele><time>2015-05-25T12:34:16Z</time></trkpt><trkpt lat="53.501335" lon="-1.710729"><ele>315.45001221</ele><time>2015-05-25T12:34:30Z</time></trkpt><trkpt lat="53.501435" lon="-1.710523"><ele>314.48999023</ele><time>2015-05-25T12:34:40Z</time></trkpt><trkpt lat="53.501436" lon="-1.710458"><ele>312.57000732</ele><time>2015-05-25T12:34:43Z</time></trkpt><trkpt lat="53.501459" lon="-1.710419"><ele>312.57000732</ele><time>2015-05-25T12:34:45Z</time></trkpt><trkpt lat="53.501478" lon="-1.710313"><ele>311.11999512</ele><time>2015-05-25T12:34:50Z</time></trkpt><trkpt lat="53.501571" lon="-1.710124"><ele>310.16000366</ele><time>2015-05-25T12:35:03Z</time></trkpt><trkpt lat="53.501638" lon="-1.709958"><ele>309.67999268</ele><time>2015-05-25T12:35:14Z</time></trkpt><trkpt lat="53.501649" lon="-1.709807"><ele>310.16000366</ele><time>2015-05-25T12:35:21Z</time></trkpt><trkpt lat="53.501677" lon="-1.709663"><ele>309.20001221</ele><time>2015-05-25T12:35:29Z</time></trkpt><trkpt lat="53.501718" lon="-1.709553"><ele>309.20001221</ele><time>2015-05-25T12:35:37Z</time></trkpt><trkpt lat="53.501752" lon="-1.709459"><ele>308.23999023</ele><time>2015-05-25T12:35:41Z</time></trkpt><trkpt lat="53.501831" lon="-1.709240"><ele>306.79998779</ele><time>2015-05-25T12:35:53Z</time></trkpt><trkpt lat="53.501838" lon="-1.709222"><ele>306.79998779</ele><time>2015-05-25T12:35:54Z</time></trkpt><trkpt lat="53.501846" lon="-1.709112"><ele>306.79998779</ele><time>2015-05-25T12:35:58Z</time></trkpt><trkpt lat="53.501840" lon="-1.708836"><ele>306.32000732</ele><time>2015-05-25T12:36:10Z</time></trkpt><trkpt lat="53.501881" lon="-1.708634"><ele>307.76000977</ele><time>2015-05-25T12:36:20Z</time></trkpt><trkpt lat="53.501938" lon="-1.708504"><ele>304.88000488</ele><time>2015-05-25T12:36:36Z</time></trkpt><trkpt lat="53.501960" lon="-1.708418"><ele>303.42999268</ele><time>2015-05-25T12:36:56Z</time></trkpt><trkpt lat="53.501979" lon="-1.708287"><ele>307.76000977</ele><time>2015-05-25T12:37:08Z</time></trkpt><trkpt lat="53.501998" lon="-1.708033"><ele>312.08999634</ele><time>2015-05-25T12:37:22Z</time></trkpt><trkpt lat="53.501950" lon="-1.707962"><ele>312.57000732</ele><time>2015-05-25T12:37:35Z</time></trkpt><trkpt lat="53.501918" lon="-1.707953"><ele>312.57000732</ele><time>2015-05-25T12:37:50Z</time></trkpt><trkpt lat="53.501912" lon="-1.707961"><ele>310.64001465</ele><time>2015-05-25T12:38:19Z</time></trkpt><trkpt lat="53.501915" lon="-1.707862"><ele>313.52999878</ele><time>2015-05-25T12:38:30Z</time></trkpt><trkpt lat="53.501896" lon="-1.707769"><ele>316.89001465</ele><time>2015-05-25T12:38:36Z</time></trkpt><trkpt lat="53.501875" lon="-1.707622"><ele>317.36999512</ele><time>2015-05-25T12:38:44Z</time></trkpt><trkpt lat="53.501827" lon="-1.707444"><ele>317.36999512</ele><time>2015-05-25T12:38:55Z</time></trkpt><trkpt lat="53.501817" lon="-1.707238"><ele>316.89001465</ele><time>2015-05-25T12:39:05Z</time></trkpt><trkpt lat="53.501797" lon="-1.707148"><ele>317.36999512</ele><time>2015-05-25T12:39:12Z</time></trkpt><trkpt lat="53.501766" lon="-1.707019"><ele>317.36999512</ele><time>2015-05-25T12:39:22Z</time></trkpt><trkpt lat="53.501759" lon="-1.706650"><ele>309.67999268</ele><time>2015-05-25T12:39:34Z</time></trkpt><trkpt lat="53.501771" lon="-1.706468"><ele>309.20001221</ele><time>2015-05-25T12:39:45Z</time></trkpt><trkpt lat="53.501781" lon="-1.706378"><ele>297.17999268</ele><time>2015-05-25T12:39:55Z</time></trkpt><trkpt lat="53.501789" lon="-1.706306"><ele>290.45999146</ele><time>2015-05-25T12:40:12Z</time></trkpt><trkpt lat="53.501707" lon="-1.706127"><ele>286.60998535</ele><time>2015-05-25T12:40:23Z</time></trkpt><trkpt lat="53.501689" lon="-1.706099"><ele>284.69000244</ele><time>2015-05-25T12:40:25Z</time></trkpt><trkpt lat="53.501613" lon="-1.705911"><ele>274.10998535</ele><time>2015-05-25T12:40:37Z</time></trkpt><trkpt lat="53.501614" lon="-1.705809"><ele>266.42001343</ele><time>2015-05-25T12:40:53Z</time></trkpt><trkpt lat="53.501610" lon="-1.705791"><ele>265.94000244</ele><time>2015-05-25T12:41:08Z</time></trkpt><trkpt lat="53.501585" lon="-1.705729"><ele>261.61999512</ele><time>2015-05-25T12:41:27Z</time></trkpt><trkpt lat="53.501594" lon="-1.705621"><ele>261.14001465</ele><time>2015-05-25T12:41:39Z</time></trkpt><trkpt lat="53.501572" lon="-1.705504"><ele>261.14001465</ele><time>2015-05-25T12:41:54Z</time></trkpt><trkpt lat="53.501562" lon="-1.705388"><ele>263.54000854</ele><time>2015-05-25T12:42:06Z</time></trkpt><trkpt lat="53.501573" lon="-1.705253"><ele>267.85998535</ele><time>2015-05-25T12:42:20Z</time></trkpt><trkpt lat="53.501576" lon="-1.705235"><ele>268.82998657</ele><time>2015-05-25T12:42:22Z</time></trkpt><trkpt lat="53.501598" lon="-1.705006"><ele>268.82998657</ele><time>2015-05-25T12:42:36Z</time></trkpt><trkpt lat="53.501605" lon="-1.704956"><ele>267.38000488</ele><time>2015-05-25T12:42:47Z</time></trkpt><trkpt lat="53.501594" lon="-1.704845"><ele>267.38000488</ele><time>2015-05-25T12:43:06Z</time></trkpt><trkpt lat="53.501595" lon="-1.704799"><ele>266.8999939</ele><time>2015-05-25T12:43:21Z</time></trkpt><trkpt lat="53.501603" lon="-1.704752"><ele>265.45999146</ele><time>2015-05-25T12:43:34Z</time></trkpt><trkpt lat="53.501600" lon="-1.704746"><ele>264.98001099</ele><time>2015-05-25T12:43:42Z</time></trkpt><trkpt lat="53.501659" lon="-1.704710"><ele>265.94000244</ele><time>2015-05-25T12:43:54Z</time></trkpt><trkpt lat="53.501741" lon="-1.704703"><ele>269.30999756</ele><time>2015-05-25T12:44:06Z</time></trkpt><trkpt lat="53.501790" lon="-1.704691"><ele>274.58999634</ele><time>2015-05-25T12:44:16Z</time></trkpt><trkpt lat="53.501890" lon="-1.704585"><ele>280.83999634</ele><time>2015-05-25T12:44:29Z</time></trkpt><trkpt lat="53.501933" lon="-1.704515"><ele>285.17001343</ele><time>2015-05-25T12:44:40Z</time></trkpt><trkpt lat="53.502004" lon="-1.704440"><ele>289.48999023</ele><time>2015-05-25T12:44:50Z</time></trkpt><trkpt lat="53.501988" lon="-1.704445"><ele>289.48999023</ele><time>2015-05-25T12:45:12Z</time></trkpt><trkpt lat="53.501998" lon="-1.704387"><ele>288.52999878</ele><time>2015-05-25T12:45:29Z</time></trkpt><trkpt lat="53.502036" lon="-1.704359"><ele>290.94000244</ele><time>2015-05-25T12:45:34Z</time></trkpt><trkpt lat="53.502108" lon="-1.704290"><ele>293.82000732</ele><time>2015-05-25T12:45:43Z</time></trkpt><trkpt lat="53.502111" lon="-1.704266"><ele>293.82000732</ele><time>2015-05-25T12:45:45Z</time></trkpt><trkpt lat="53.502170" lon="-1.704202"><ele>298.1499939</ele><time>2015-05-25T12:45:55Z</time></trkpt><trkpt lat="53.502221" lon="-1.704122"><ele>304.88000488</ele><time>2015-05-25T12:46:05Z</time></trkpt><trkpt lat="53.502264" lon="-1.704079"><ele>312.57000732</ele><time>2015-05-25T12:46:18Z</time></trkpt><trkpt lat="53.502254" lon="-1.704044"><ele>317.8500061</ele><time>2015-05-25T12:46:33Z</time></trkpt><trkpt lat="53.502274" lon="-1.704017"><ele>323.61999512</ele><time>2015-05-25T12:46:44Z</time></trkpt><trkpt lat="53.502526" lon="-1.703902"><ele>315.92999268</ele><time>2015-05-25T12:46:56Z</time></trkpt><trkpt lat="53.502564" lon="-1.703868"><ele>315.45001221</ele><time>2015-05-25T12:46:59Z</time></trkpt><trkpt lat="53.502712" lon="-1.703713"><ele>313.04998779</ele><time>2015-05-25T12:47:13Z</time></trkpt><trkpt lat="53.502787" lon="-1.703559"><ele>312.08999634</ele><time>2015-05-25T12:47:25Z</time></trkpt><trkpt lat="53.502812" lon="-1.703414"><ele>312.57000732</ele><time>2015-05-25T12:47:34Z</time></trkpt><trkpt lat="53.502851" lon="-1.703331"><ele>314.48999023</ele><time>2015-05-25T12:47:46Z</time></trkpt><trkpt lat="53.502901" lon="-1.703307"><ele>314.97000122</ele><time>2015-05-25T12:48:05Z</time></trkpt><trkpt lat="53.502898" lon="-1.703330"><ele>313.04998779</ele><time>2015-05-25T12:48:24Z</time></trkpt><trkpt lat="53.502897" lon="-1.703327"><ele>313.04998779</ele><time>2015-05-25T12:48:39Z</time></trkpt><trkpt lat="53.502893" lon="-1.703337"><ele>310.64001465</ele><time>2015-05-25T12:48:58Z</time></trkpt><trkpt lat="53.502885" lon="-1.703341"><ele>310.16000366</ele><time>2015-05-25T12:49:18Z</time></trkpt><trkpt lat="53.502874" lon="-1.703185"><ele>312.08999634</ele><time>2015-05-25T12:49:27Z</time></trkpt><trkpt lat="53.502883" lon="-1.703102"><ele>315.92999268</ele><time>2015-05-25T12:49:33Z</time></trkpt><trkpt lat="53.502877" lon="-1.702956"><ele>324.1000061</ele><time>2015-05-25T12:49:43Z</time></trkpt><trkpt lat="53.502876" lon="-1.702861"><ele>329.86999512</ele><time>2015-05-25T12:49:50Z</time></trkpt><trkpt lat="53.502904" lon="-1.702796"><ele>332.26998901</ele><time>2015-05-25T12:49:55Z</time></trkpt><trkpt lat="53.502907" lon="-1.702618"><ele>330.82998657</ele><time>2015-05-25T12:50:08Z</time></trkpt><trkpt lat="53.502913" lon="-1.702540"><ele>332.26998901</ele><time>2015-05-25T12:50:11Z</time></trkpt><trkpt lat="53.502911" lon="-1.702472"><ele>332.26998901</ele><time>2015-05-25T12:50:13Z</time></trkpt><trkpt lat="53.502909" lon="-1.702406"><ele>332.26998901</ele><time>2015-05-25T12:50:16Z</time></trkpt><trkpt lat="53.502923" lon="-1.702102"><ele>328.42999268</ele><time>2015-05-25T12:50:29Z</time></trkpt><trkpt lat="53.502924" lon="-1.702087"><ele>328.42999268</ele><time>2015-05-25T12:50:30Z</time></trkpt><trkpt lat="53.502975" lon="-1.701811"><ele>325.05999756</ele><time>2015-05-25T12:50:44Z</time></trkpt><trkpt lat="53.502990" lon="-1.701681"><ele>325.54000854</ele><time>2015-05-25T12:50:52Z</time></trkpt><trkpt lat="53.503031" lon="-1.701571"><ele>326.98999023</ele><time>2015-05-25T12:51:01Z</time></trkpt><trkpt lat="53.503057" lon="-1.701475"><ele>328.91000366</ele><time>2015-05-25T12:51:06Z</time></trkpt><trkpt lat="53.503058" lon="-1.701161"><ele>328.42999268</ele><time>2015-05-25T12:51:20Z</time></trkpt><trkpt lat="53.503039" lon="-1.701075"><ele>332.26998901</ele><time>2015-05-25T12:51:25Z</time></trkpt><trkpt lat="53.503044" lon="-1.700961"><ele>338.51998901</ele><time>2015-05-25T12:51:33Z</time></trkpt><trkpt lat="53.503024" lon="-1.700704"><ele>339</ele><time>2015-05-25T12:51:47Z</time></trkpt><trkpt lat="53.503010" lon="-1.700628"><ele>337.55999756</ele><time>2015-05-25T12:51:51Z</time></trkpt><trkpt lat="53.502973" lon="-1.700452"><ele>338.04000854</ele><time>2015-05-25T12:51:59Z</time></trkpt><trkpt lat="53.502957" lon="-1.700367"><ele>337.07998657</ele><time>2015-05-25T12:52:03Z</time></trkpt><trkpt lat="53.502947" lon="-1.700313"><ele>336.11999512</ele><time>2015-05-25T12:52:05Z</time></trkpt><trkpt lat="53.502900" lon="-1.700089"><ele>330.3500061</ele><time>2015-05-25T12:52:15Z</time></trkpt><trkpt lat="53.502884" lon="-1.699987"><ele>329.39001465</ele><time>2015-05-25T12:52:19Z</time></trkpt><trkpt lat="53.502854" lon="-1.699910"><ele>330.82998657</ele><time>2015-05-25T12:52:24Z</time></trkpt><trkpt lat="53.502819" lon="-1.699715"><ele>334.20001221</ele><time>2015-05-25T12:52:35Z</time></trkpt><trkpt lat="53.502743" lon="-1.699457"><ele>335.64001465</ele><time>2015-05-25T12:52:48Z</time></trkpt><trkpt lat="53.502738" lon="-1.699399"><ele>335.16000366</ele><time>2015-05-25T12:52:51Z</time></trkpt><trkpt lat="53.502708" lon="-1.699301"><ele>335.16000366</ele><time>2015-05-25T12:52:56Z</time></trkpt><trkpt lat="53.502662" lon="-1.699126"><ele>334.67999268</ele><time>2015-05-25T12:53:07Z</time></trkpt><trkpt lat="53.502633" lon="-1.699057"><ele>334.67999268</ele><time>2015-05-25T12:53:12Z</time></trkpt><trkpt lat="53.502617" lon="-1.698907"><ele>333.70999146</ele><time>2015-05-25T12:53:21Z</time></trkpt><trkpt lat="53.502562" lon="-1.698741"><ele>335.64001465</ele><time>2015-05-25T12:53:34Z</time></trkpt><trkpt lat="53.502528" lon="-1.698701"><ele>331.79000854</ele><time>2015-05-25T12:53:49Z</time></trkpt><trkpt lat="53.502472" lon="-1.698616"><ele>326.98999023</ele><time>2015-05-25T12:54:14Z</time></trkpt><trkpt lat="53.502412" lon="-1.698519"><ele>331.79000854</ele><time>2015-05-25T12:54:30Z</time></trkpt><trkpt lat="53.502392" lon="-1.698521"><ele>334.67999268</ele><time>2015-05-25T12:54:35Z</time></trkpt><trkpt lat="53.502355" lon="-1.698398"><ele>341.89001465</ele><time>2015-05-25T12:54:45Z</time></trkpt><trkpt lat="53.502308" lon="-1.698224"><ele>343.32998657</ele><time>2015-05-25T12:54:54Z</time></trkpt><trkpt lat="53.502299" lon="-1.698123"><ele>341.41000366</ele><time>2015-05-25T12:55:03Z</time></trkpt><trkpt lat="53.502247" lon="-1.698022"><ele>345.25</ele><time>2015-05-25T12:55:13Z</time></trkpt><trkpt lat="53.502107" lon="-1.697834"><ele>346.69000244</ele><time>2015-05-25T12:55:25Z</time></trkpt><trkpt lat="53.502056" lon="-1.697722"><ele>345.73001099</ele><time>2015-05-25T12:55:33Z</time></trkpt><trkpt lat="53.501927" lon="-1.697453"><ele>338.04000854</ele><time>2015-05-25T12:55:47Z</time></trkpt><trkpt lat="53.501909" lon="-1.697404"><ele>337.55999756</ele><time>2015-05-25T12:55:51Z</time></trkpt><trkpt lat="53.501861" lon="-1.697260"><ele>338.04000854</ele><time>2015-05-25T12:55:59Z</time></trkpt><trkpt lat="53.501827" lon="-1.697175"><ele>337.55999756</ele><time>2015-05-25T12:56:04Z</time></trkpt><trkpt lat="53.501745" lon="-1.696990"><ele>336.6000061</ele><time>2015-05-25T12:56:13Z</time></trkpt><trkpt lat="53.501704" lon="-1.696890"><ele>335.16000366</ele><time>2015-05-25T12:56:19Z</time></trkpt><trkpt lat="53.501639" lon="-1.696694"><ele>333.23001099</ele><time>2015-05-25T12:56:29Z</time></trkpt><trkpt lat="53.501557" lon="-1.696508"><ele>332.75</ele><time>2015-05-25T12:56:38Z</time></trkpt><trkpt lat="53.501547" lon="-1.696471"><ele>333.23001099</ele><time>2015-05-25T12:56:40Z</time></trkpt><trkpt lat="53.501448" lon="-1.696294"><ele>334.20001221</ele><time>2015-05-25T12:56:52Z</time></trkpt><trkpt lat="53.501417" lon="-1.696193"><ele>335.16000366</ele><time>2015-05-25T12:57:03Z</time></trkpt><trkpt lat="53.501272" lon="-1.696032"><ele>335.16000366</ele><time>2015-05-25T12:57:17Z</time></trkpt><trkpt lat="53.501144" lon="-1.695937"><ele>336.11999512</ele><time>2015-05-25T12:57:29Z</time></trkpt><trkpt lat="53.501101" lon="-1.695856"><ele>336.11999512</ele><time>2015-05-25T12:57:38Z</time></trkpt><trkpt lat="53.501066" lon="-1.695762"><ele>339.48001099</ele><time>2015-05-25T12:57:49Z</time></trkpt><trkpt lat="53.501061" lon="-1.695749"><ele>339.95999146</ele><time>2015-05-25T12:57:51Z</time></trkpt><trkpt lat="53.501004" lon="-1.695590"><ele>339.95999146</ele><time>2015-05-25T12:58:03Z</time></trkpt><trkpt lat="53.500995" lon="-1.695485"><ele>340.92001343</ele><time>2015-05-25T12:58:12Z</time></trkpt><trkpt lat="53.500959" lon="-1.695288"><ele>349.1000061</ele><time>2015-05-25T12:58:26Z</time></trkpt><trkpt lat="53.500928" lon="-1.695168"><ele>354.85998535</ele><time>2015-05-25T12:58:37Z</time></trkpt><trkpt lat="53.500889" lon="-1.695069"><ele>359.19000244</ele><time>2015-05-25T12:58:46Z</time></trkpt><trkpt lat="53.500878" lon="-1.695013"><ele>359.19000244</ele><time>2015-05-25T12:58:49Z</time></trkpt><trkpt lat="53.500789" lon="-1.694800"><ele>357.75</ele><time>2015-05-25T12:59:01Z</time></trkpt><trkpt lat="53.500677" lon="-1.694555"><ele>355.82998657</ele><time>2015-05-25T12:59:14Z</time></trkpt><trkpt lat="53.500517" lon="-1.694288"><ele>340.92001343</ele><time>2015-05-25T12:59:24Z</time></trkpt><trkpt lat="53.500479" lon="-1.694169"><ele>337.07998657</ele><time>2015-05-25T12:59:28Z</time></trkpt><trkpt lat="53.500435" lon="-1.694094"><ele>334.20001221</ele><time>2015-05-25T12:59:32Z</time></trkpt><trkpt lat="53.500378" lon="-1.693990"><ele>331.30999756</ele><time>2015-05-25T12:59:38Z</time></trkpt><trkpt lat="53.500282" lon="-1.693787"><ele>326.98999023</ele><time>2015-05-25T12:59:45Z</time></trkpt><trkpt lat="53.500220" lon="-1.693599"><ele>323.61999512</ele><time>2015-05-25T12:59:53Z</time></trkpt><trkpt lat="53.500171" lon="-1.693410"><ele>322.66000366</ele><time>2015-05-25T13:00:03Z</time></trkpt><trkpt lat="53.500118" lon="-1.693273"><ele>323.61999512</ele><time>2015-05-25T13:00:09Z</time></trkpt><trkpt lat="53.500076" lon="-1.693216"><ele>324.1000061</ele><time>2015-05-25T13:00:14Z</time></trkpt><trkpt lat="53.499994" lon="-1.693035"><ele>323.61999512</ele><time>2015-05-25T13:00:25Z</time></trkpt><trkpt lat="53.499975" lon="-1.692995"><ele>324.57998657</ele><time>2015-05-25T13:00:27Z</time></trkpt><trkpt lat="53.499914" lon="-1.692709"><ele>326.98999023</ele><time>2015-05-25T13:00:40Z</time></trkpt><trkpt lat="53.499821" lon="-1.692481"><ele>326.5</ele><time>2015-05-25T13:00:51Z</time></trkpt><trkpt lat="53.499722" lon="-1.692233"><ele>323.14001465</ele><time>2015-05-25T13:01:03Z</time></trkpt><trkpt lat="53.499642" lon="-1.691979"><ele>318.80999756</ele><time>2015-05-25T13:01:16Z</time></trkpt><trkpt lat="53.499605" lon="-1.691796"><ele>319.77999878</ele><time>2015-05-25T13:01:24Z</time></trkpt><trkpt lat="53.499543" lon="-1.691596"><ele>320.73999023</ele><time>2015-05-25T13:01:36Z</time></trkpt><trkpt lat="53.499511" lon="-1.691387"><ele>324.1000061</ele><time>2015-05-25T13:01:47Z</time></trkpt><trkpt lat="53.499491" lon="-1.691219"><ele>327.47000122</ele><time>2015-05-25T13:01:54Z</time></trkpt><trkpt lat="53.499502" lon="-1.691072"><ele>335.64001465</ele><time>2015-05-25T13:02:06Z</time></trkpt><trkpt lat="53.499471" lon="-1.690936"><ele>339.95999146</ele><time>2015-05-25T13:02:15Z</time></trkpt><trkpt lat="53.499463" lon="-1.690905"><ele>340.44000244</ele><time>2015-05-25T13:02:17Z</time></trkpt><trkpt lat="53.499362" lon="-1.690673"><ele>338.51998901</ele><time>2015-05-25T13:02:29Z</time></trkpt><trkpt lat="53.499354" lon="-1.690651"><ele>339</ele><time>2015-05-25T13:02:30Z</time></trkpt><trkpt lat="53.499294" lon="-1.690531"><ele>338.04000854</ele><time>2015-05-25T13:02:35Z</time></trkpt><trkpt lat="53.499259" lon="-1.690471"><ele>337.07998657</ele><time>2015-05-25T13:02:38Z</time></trkpt><trkpt lat="53.499240" lon="-1.690394"><ele>337.07998657</ele><time>2015-05-25T13:02:41Z</time></trkpt><trkpt lat="53.499169" lon="-1.690234"><ele>330.3500061</ele><time>2015-05-25T13:02:54Z</time></trkpt><trkpt lat="53.499135" lon="-1.690141"><ele>328.42999268</ele><time>2015-05-25T13:03:06Z</time></trkpt><trkpt lat="53.499089" lon="-1.689936"><ele>326.5</ele><time>2015-05-25T13:03:13Z</time></trkpt><trkpt lat="53.499065" lon="-1.689780"><ele>326.01998901</ele><time>2015-05-25T13:03:20Z</time></trkpt><trkpt lat="53.499035" lon="-1.689697"><ele>325.54000854</ele><time>2015-05-25T13:03:24Z</time></trkpt><trkpt lat="53.499039" lon="-1.689555"><ele>319.77999878</ele><time>2015-05-25T13:03:30Z</time></trkpt><trkpt lat="53.499055" lon="-1.689441"><ele>317.8500061</ele><time>2015-05-25T13:03:35Z</time></trkpt><trkpt lat="53.499040" lon="-1.689269"><ele>316.41000366</ele><time>2015-05-25T13:03:43Z</time></trkpt><trkpt lat="53.499037" lon="-1.689162"><ele>314.97000122</ele><time>2015-05-25T13:03:47Z</time></trkpt><trkpt lat="53.499028" lon="-1.689052"><ele>314.48999023</ele><time>2015-05-25T13:03:53Z</time></trkpt><trkpt lat="53.499012" lon="-1.688930"><ele>314.97000122</ele><time>2015-05-25T13:03:58Z</time></trkpt><trkpt lat="53.499029" lon="-1.688686"><ele>318.32998657</ele><time>2015-05-25T13:04:09Z</time></trkpt><trkpt lat="53.498986" lon="-1.688612"><ele>318.32998657</ele><time>2015-05-25T13:04:14Z</time></trkpt><trkpt lat="53.499005" lon="-1.688524"><ele>317.36999512</ele><time>2015-05-25T13:04:19Z</time></trkpt><trkpt lat="53.498997" lon="-1.688373"><ele>317.36999512</ele><time>2015-05-25T13:04:25Z</time></trkpt><trkpt lat="53.499021" lon="-1.688313"><ele>317.8500061</ele><time>2015-05-25T13:04:28Z</time></trkpt><trkpt lat="53.499021" lon="-1.688131"><ele>315.92999268</ele><time>2015-05-25T13:04:35Z</time></trkpt><trkpt lat="53.499019" lon="-1.688003"><ele>312.08999634</ele><time>2015-05-25T13:04:41Z</time></trkpt><trkpt lat="53.498955" lon="-1.687855"><ele>304.88000488</ele><time>2015-05-25T13:04:46Z</time></trkpt><trkpt lat="53.498944" lon="-1.687777"><ele>302.47000122</ele><time>2015-05-25T13:04:49Z</time></trkpt><trkpt lat="53.498929" lon="-1.687724"><ele>301.02999878</ele><time>2015-05-25T13:04:52Z</time></trkpt><trkpt lat="53.498944" lon="-1.687612"><ele>299.10998535</ele><time>2015-05-25T13:04:57Z</time></trkpt><trkpt lat="53.498957" lon="-1.687497"><ele>297.67001343</ele><time>2015-05-25T13:05:10Z</time></trkpt><trkpt lat="53.498965" lon="-1.687489"><ele>297.17999268</ele><time>2015-05-25T13:05:26Z</time></trkpt><trkpt lat="53.498962" lon="-1.687348"><ele>295.73999023</ele><time>2015-05-25T13:05:38Z</time></trkpt><trkpt lat="53.498994" lon="-1.687106"><ele>294.77999878</ele><time>2015-05-25T13:05:47Z</time></trkpt><trkpt lat="53.499027" lon="-1.686960"><ele>294.29998779</ele><time>2015-05-25T13:05:52Z</time></trkpt><trkpt lat="53.499062" lon="-1.686683"><ele>289.48999023</ele><time>2015-05-25T13:06:03Z</time></trkpt><trkpt lat="53.499059" lon="-1.686628"><ele>288.04998779</ele><time>2015-05-25T13:06:07Z</time></trkpt><trkpt lat="53.499066" lon="-1.686395"><ele>286.13000488</ele><time>2015-05-25T13:06:19Z</time></trkpt><trkpt lat="53.499078" lon="-1.686197"><ele>285.6499939</ele><time>2015-05-25T13:06:33Z</time></trkpt><trkpt lat="53.499080" lon="-1.686061"><ele>283.73001099</ele><time>2015-05-25T13:06:46Z</time></trkpt><trkpt lat="53.499080" lon="-1.685997"><ele>280.83999634</ele><time>2015-05-25T13:06:50Z</time></trkpt><trkpt lat="53.499073" lon="-1.685874"><ele>278.44000244</ele><time>2015-05-25T13:06:58Z</time></trkpt><trkpt lat="53.499089" lon="-1.685721"><ele>277.95999146</ele><time>2015-05-25T13:07:05Z</time></trkpt><trkpt lat="53.499162" lon="-1.685381"><ele>279.3999939</ele><time>2015-05-25T13:07:10Z</time></trkpt><trkpt lat="53.499182" lon="-1.685233"><ele>277.48001099</ele><time>2015-05-25T13:07:21Z</time></trkpt><trkpt lat="53.499195" lon="-1.685090"><ele>277</ele><time>2015-05-25T13:07:33Z</time></trkpt><trkpt lat="53.499213" lon="-1.685044"><ele>277</ele><time>2015-05-25T13:07:43Z</time></trkpt><trkpt lat="53.499244" lon="-1.684956"><ele>277.95999146</ele><time>2015-05-25T13:07:47Z</time></trkpt><trkpt lat="53.499359" lon="-1.684714"><ele>280.83999634</ele><time>2015-05-25T13:07:57Z</time></trkpt><trkpt lat="53.499532" lon="-1.684202"><ele>285.17001343</ele><time>2015-05-25T13:08:11Z</time></trkpt><trkpt lat="53.499636" lon="-1.684053"><ele>289.01000977</ele><time>2015-05-25T13:08:23Z</time></trkpt><trkpt lat="53.499767" lon="-1.683950"><ele>297.67001343</ele><time>2015-05-25T13:08:39Z</time></trkpt><trkpt lat="53.499842" lon="-1.683794"><ele>295.73999023</ele><time>2015-05-25T13:08:53Z</time></trkpt><trkpt lat="53.499901" lon="-1.683623"><ele>296.22000122</ele><time>2015-05-25T13:09:01Z</time></trkpt><trkpt lat="53.500001" lon="-1.683480"><ele>298.63000488</ele><time>2015-05-25T13:09:18Z</time></trkpt><trkpt lat="53.500026" lon="-1.683455"><ele>296.70001221</ele><time>2015-05-25T13:09:37Z</time></trkpt><trkpt lat="53.500028" lon="-1.683457"><ele>296.22000122</ele><time>2015-05-25T13:09:56Z</time></trkpt><trkpt lat="53.500035" lon="-1.683448"><ele>294.77999878</ele><time>2015-05-25T13:10:09Z</time></trkpt><trkpt lat="53.500036" lon="-1.683438"><ele>294.77999878</ele><time>2015-05-25T13:10:20Z</time></trkpt></trkseg></trk></gpx>